<?xml version="1.0" encoding="UTF-8" standalone="no" ?>
<gpx xmlns="http://www.topografix.com/GPX/1/1" xmlns:xsi="http://www.w3.org/2001/XMLSchema-instance" xsi:schemaLocation="http://www.topografix.com/GPX/1/1 http://www.topografix.com/GPX/1/1/gpx.xsd" version="1.1" creator="VisuGPX - https://www.visugpx.com">
  <metadata>
    <name>Cyclo Gap /Pellautier/Sigoyer/Lardier/Vitrolles / Tallard/Neffe</name>
    <desc><![CDATA[Un circuit sous Ceuse et Ceusette avec un raidillon d'enfer entre Garnier et Benechon ]]></desc>
  </metadata>
  <trk>
    <name><![CDATA[N°40 gap/Pelelutier/Sigoyer/Lardier/Vitriolel/Talalrd/Neffe]]></name>
    <trkseg>
      <trkpt lat="44.5588" lon="6.07478">
        <ele>682.192627</ele>
        <time>2012-03-04T09:45:30Z</time>
      </trkpt>
      <trkpt lat="44.5588" lon="6.07478">
        <ele>682.192627</ele>
        <time>2012-03-04T09:45:31Z</time>
      </trkpt>
      <trkpt lat="44.5588" lon="6.07478">
        <ele>678.828125</ele>
        <time>2012-03-04T09:46:18Z</time>
      </trkpt>
      <trkpt lat="44.5588" lon="6.07478">
        <ele>682.6733398</ele>
        <time>2012-03-04T09:47:06Z</time>
      </trkpt>
      <trkpt lat="44.5588" lon="6.07478">
        <ele>682.6733398</ele>
        <time>2012-03-04T09:47:07Z</time>
      </trkpt>
      <trkpt lat="44.5588" lon="6.07478">
        <ele>680.7507324</ele>
        <time>2012-03-04T09:47:23Z</time>
      </trkpt>
      <trkpt lat="44.55821" lon="6.07443">
        <ele>680.7507324</ele>
        <time>2012-03-04T09:47:36Z</time>
      </trkpt>
      <trkpt lat="44.55801" lon="6.07445">
        <ele>679.3085938</ele>
        <time>2012-03-04T09:47:42Z</time>
      </trkpt>
      <trkpt lat="44.55774" lon="6.07456">
        <ele>678.828125</ele>
        <time>2012-03-04T09:47:47Z</time>
      </trkpt>
      <trkpt lat="44.55744" lon="6.07485">
        <ele>676.4248047</ele>
        <time>2012-03-04T09:47:53Z</time>
      </trkpt>
      <trkpt lat="44.55685" lon="6.07602">
        <ele>672.5795898</ele>
        <time>2012-03-04T09:48:06Z</time>
      </trkpt>
      <trkpt lat="44.55676" lon="6.07618">
        <ele>676.9055176</ele>
        <time>2012-03-04T09:48:08Z</time>
      </trkpt>
      <trkpt lat="44.55668" lon="6.07632">
        <ele>680.7507324</ele>
        <time>2012-03-04T09:48:10Z</time>
      </trkpt>
      <trkpt lat="44.55656" lon="6.07651">
        <ele>684.5961914</ele>
        <time>2012-03-04T09:48:12Z</time>
      </trkpt>
      <trkpt lat="44.55655" lon="6.07651">
        <ele>684.1154785</ele>
        <time>2012-03-04T09:48:13Z</time>
      </trkpt>
      <trkpt lat="44.55653" lon="6.07651">
        <ele>684.1154785</ele>
        <time>2012-03-04T09:48:14Z</time>
      </trkpt>
      <trkpt lat="44.55638" lon="6.07649">
        <ele>688.9221191</ele>
        <time>2012-03-04T09:48:17Z</time>
      </trkpt>
      <trkpt lat="44.55637" lon="6.07647">
        <ele>688.4414063</ele>
        <time>2012-03-04T09:48:18Z</time>
      </trkpt>
      <trkpt lat="44.5563" lon="6.07639">
        <ele>691.3251953</ele>
        <time>2012-03-04T09:48:20Z</time>
      </trkpt>
      <trkpt lat="44.55627" lon="6.07636">
        <ele>692.767334</ele>
        <time>2012-03-04T09:48:21Z</time>
      </trkpt>
      <trkpt lat="44.55619" lon="6.07627">
        <ele>695.651123</ele>
        <time>2012-03-04T09:48:23Z</time>
      </trkpt>
      <trkpt lat="44.55608" lon="6.07613">
        <ele>699.015625</ele>
        <time>2012-03-04T09:48:26Z</time>
      </trkpt>
      <trkpt lat="44.55593" lon="6.07594">
        <ele>702.3803711</ele>
        <time>2012-03-04T09:48:30Z</time>
      </trkpt>
      <trkpt lat="44.55581" lon="6.07579">
        <ele>707.1870117</ele>
        <time>2012-03-04T09:48:34Z</time>
      </trkpt>
      <trkpt lat="44.55576" lon="6.07572">
        <ele>708.6289063</ele>
        <time>2012-03-04T09:48:36Z</time>
      </trkpt>
      <trkpt lat="44.55566" lon="6.07561">
        <ele>711.5129395</ele>
        <time>2012-03-04T09:48:39Z</time>
      </trkpt>
      <trkpt lat="44.55556" lon="6.07549">
        <ele>714.3967285</ele>
        <time>2012-03-04T09:48:42Z</time>
      </trkpt>
      <trkpt lat="44.55549" lon="6.0754">
        <ele>715.3581543</ele>
        <time>2012-03-04T09:48:44Z</time>
      </trkpt>
      <trkpt lat="44.55537" lon="6.07526">
        <ele>717.7614746</ele>
        <time>2012-03-04T09:48:48Z</time>
      </trkpt>
      <trkpt lat="44.55518" lon="6.07489">
        <ele>721.6066895</ele>
        <time>2012-03-04T09:48:55Z</time>
      </trkpt>
      <trkpt lat="44.55511" lon="6.07482">
        <ele>722.5681152</ele>
        <time>2012-03-04T09:48:57Z</time>
      </trkpt>
      <trkpt lat="44.55489" lon="6.0746">
        <ele>725.9326172</ele>
        <time>2012-03-04T09:49:04Z</time>
      </trkpt>
      <trkpt lat="44.55469" lon="6.07432">
        <ele>728.3359375</ele>
        <time>2012-03-04T09:49:12Z</time>
      </trkpt>
      <trkpt lat="44.55456" lon="6.07413">
        <ele>730.2585449</ele>
        <time>2012-03-04T09:49:17Z</time>
      </trkpt>
      <trkpt lat="44.5541" lon="6.07349">
        <ele>733.1425781</ele>
        <time>2012-03-04T09:49:34Z</time>
      </trkpt>
      <trkpt lat="44.55348" lon="6.07295">
        <ele>735.0654297</ele>
        <time>2012-03-04T09:49:55Z</time>
      </trkpt>
      <trkpt lat="44.55333" lon="6.07278">
        <ele>735.0654297</ele>
        <time>2012-03-04T09:50:00Z</time>
      </trkpt>
      <trkpt lat="44.5526" lon="6.0719">
        <ele>736.0266113</ele>
        <time>2012-03-04T09:50:22Z</time>
      </trkpt>
      <trkpt lat="44.55257" lon="6.07186">
        <ele>736.0266113</ele>
        <time>2012-03-04T09:50:23Z</time>
      </trkpt>
      <trkpt lat="44.55199" lon="6.0711">
        <ele>737.4685059</ele>
        <time>2012-03-04T09:50:43Z</time>
      </trkpt>
      <trkpt lat="44.55148" lon="6.07042">
        <ele>740.3525391</ele>
        <time>2012-03-04T09:51:01Z</time>
      </trkpt>
      <trkpt lat="44.55076" lon="6.06955">
        <ele>741.7944336</ele>
        <time>2012-03-04T09:51:25Z</time>
      </trkpt>
      <trkpt lat="44.55021" lon="6.06887">
        <ele>742.2751465</ele>
        <time>2012-03-04T09:51:42Z</time>
      </trkpt>
      <trkpt lat="44.55011" lon="6.06874">
        <ele>742.2751465</ele>
        <time>2012-03-04T09:51:45Z</time>
      </trkpt>
      <trkpt lat="44.54939" lon="6.06786">
        <ele>742.2751465</ele>
        <time>2012-03-04T09:52:05Z</time>
      </trkpt>
      <trkpt lat="44.54927" lon="6.06772">
        <ele>742.7558594</ele>
        <time>2012-03-04T09:52:08Z</time>
      </trkpt>
      <trkpt lat="44.54882" lon="6.06716">
        <ele>743.2363281</ele>
        <time>2012-03-04T09:52:20Z</time>
      </trkpt>
      <trkpt lat="44.54875" lon="6.06708">
        <ele>741.7944336</ele>
        <time>2012-03-04T09:52:22Z</time>
      </trkpt>
      <trkpt lat="44.54868" lon="6.06699">
        <ele>743.2363281</ele>
        <time>2012-03-04T09:52:24Z</time>
      </trkpt>
      <trkpt lat="44.54782" lon="6.06598">
        <ele>742.7558594</ele>
        <time>2012-03-04T09:52:48Z</time>
      </trkpt>
      <trkpt lat="44.54709" lon="6.06514">
        <ele>743.717041</ele>
        <time>2012-03-04T09:53:09Z</time>
      </trkpt>
      <trkpt lat="44.54613" lon="6.06394">
        <ele>742.7558594</ele>
        <time>2012-03-04T09:53:37Z</time>
      </trkpt>
      <trkpt lat="44.54607" lon="6.06386">
        <ele>743.717041</ele>
        <time>2012-03-04T09:53:39Z</time>
      </trkpt>
      <trkpt lat="44.54566" lon="6.06323">
        <ele>742.7558594</ele>
        <time>2012-03-04T09:53:53Z</time>
      </trkpt>
      <trkpt lat="44.54557" lon="6.06302">
        <ele>745.1589355</ele>
        <time>2012-03-04T09:54:01Z</time>
      </trkpt>
      <trkpt lat="44.54551" lon="6.063">
        <ele>744.6782227</ele>
        <time>2012-03-04T09:54:12Z</time>
      </trkpt>
      <trkpt lat="44.54505" lon="6.06261">
        <ele>744.1977539</ele>
        <time>2012-03-04T09:54:27Z</time>
      </trkpt>
      <trkpt lat="44.54446" lon="6.06187">
        <ele>745.1589355</ele>
        <time>2012-03-04T09:54:48Z</time>
      </trkpt>
      <trkpt lat="44.54404" lon="6.06137">
        <ele>745.1589355</ele>
        <time>2012-03-04T09:55:01Z</time>
      </trkpt>
      <trkpt lat="44.54337" lon="6.06058">
        <ele>742.7558594</ele>
        <time>2012-03-04T09:55:15Z</time>
      </trkpt>
      <trkpt lat="44.54322" lon="6.06041">
        <ele>742.2751465</ele>
        <time>2012-03-04T09:55:18Z</time>
      </trkpt>
      <trkpt lat="44.54312" lon="6.06028">
        <ele>741.3137207</ele>
        <time>2012-03-04T09:55:21Z</time>
      </trkpt>
      <trkpt lat="44.54299" lon="6.06013">
        <ele>740.8330078</ele>
        <time>2012-03-04T09:55:25Z</time>
      </trkpt>
      <trkpt lat="44.54259" lon="6.0596">
        <ele>740.3525391</ele>
        <time>2012-03-04T09:55:36Z</time>
      </trkpt>
      <trkpt lat="44.54247" lon="6.05944">
        <ele>740.3525391</ele>
        <time>2012-03-04T09:55:39Z</time>
      </trkpt>
      <trkpt lat="44.54206" lon="6.05896">
        <ele>742.7558594</ele>
        <time>2012-03-04T09:55:55Z</time>
      </trkpt>
      <trkpt lat="44.54169" lon="6.05846">
        <ele>744.6782227</ele>
        <time>2012-03-04T09:56:12Z</time>
      </trkpt>
      <trkpt lat="44.54127" lon="6.05796">
        <ele>747.081543</ele>
        <time>2012-03-04T09:56:32Z</time>
      </trkpt>
      <trkpt lat="44.54082" lon="6.05741">
        <ele>748.5236816</ele>
        <time>2012-03-04T09:56:53Z</time>
      </trkpt>
      <trkpt lat="44.54047" lon="6.05701">
        <ele>750.927002</ele>
        <time>2012-03-04T09:57:09Z</time>
      </trkpt>
      <trkpt lat="44.54005" lon="6.0565">
        <ele>753.8110352</ele>
        <time>2012-03-04T09:57:29Z</time>
      </trkpt>
      <trkpt lat="44.53958" lon="6.05594">
        <ele>756.2141113</ele>
        <time>2012-03-04T09:57:50Z</time>
      </trkpt>
      <trkpt lat="44.53912" lon="6.05538">
        <ele>758.6174316</ele>
        <time>2012-03-04T09:58:09Z</time>
      </trkpt>
      <trkpt lat="44.5385" lon="6.05462">
        <ele>761.5014648</ele>
        <time>2012-03-04T09:58:35Z</time>
      </trkpt>
      <trkpt lat="44.53805" lon="6.05404">
        <ele>763.904541</ele>
        <time>2012-03-04T09:58:56Z</time>
      </trkpt>
      <trkpt lat="44.53749" lon="6.05335">
        <ele>766.3081055</ele>
        <time>2012-03-04T09:59:22Z</time>
      </trkpt>
      <trkpt lat="44.53754" lon="6.05291">
        <ele>768.2307129</ele>
        <time>2012-03-04T09:59:34Z</time>
      </trkpt>
      <trkpt lat="44.53775" lon="6.05253">
        <ele>769.6728516</ele>
        <time>2012-03-04T09:59:47Z</time>
      </trkpt>
      <trkpt lat="44.53776" lon="6.0519">
        <ele>771.1147461</ele>
        <time>2012-03-04T10:00:01Z</time>
      </trkpt>
      <trkpt lat="44.53782" lon="6.05184">
        <ele>772.0759277</ele>
        <time>2012-03-04T10:00:07Z</time>
      </trkpt>
      <trkpt lat="44.53766" lon="6.05133">
        <ele>772.5566406</ele>
        <time>2012-03-04T10:00:19Z</time>
      </trkpt>
      <trkpt lat="44.53763" lon="6.05074">
        <ele>773.0373535</ele>
        <time>2012-03-04T10:00:34Z</time>
      </trkpt>
      <trkpt lat="44.53756" lon="6.05008">
        <ele>772.0759277</ele>
        <time>2012-03-04T10:00:48Z</time>
      </trkpt>
      <trkpt lat="44.53734" lon="6.04962">
        <ele>771.5952148</ele>
        <time>2012-03-04T10:00:56Z</time>
      </trkpt>
      <trkpt lat="44.5372" lon="6.04945">
        <ele>770.1533203</ele>
        <time>2012-03-04T10:00:59Z</time>
      </trkpt>
      <trkpt lat="44.53674" lon="6.04892">
        <ele>767.75</ele>
        <time>2012-03-04T10:01:07Z</time>
      </trkpt>
      <trkpt lat="44.53593" lon="6.0475">
        <ele>764.8662109</ele>
        <time>2012-03-04T10:01:25Z</time>
      </trkpt>
      <trkpt lat="44.53506" lon="6.04605">
        <ele>762.4626465</ele>
        <time>2012-03-04T10:01:45Z</time>
      </trkpt>
      <trkpt lat="44.53428" lon="6.04487">
        <ele>763.904541</ele>
        <time>2012-03-04T10:02:05Z</time>
      </trkpt>
      <trkpt lat="44.53408" lon="6.04465">
        <ele>763.904541</ele>
        <time>2012-03-04T10:02:10Z</time>
      </trkpt>
      <trkpt lat="44.5333" lon="6.04388">
        <ele>763.4240723</ele>
        <time>2012-03-04T10:02:30Z</time>
      </trkpt>
      <trkpt lat="44.53275" lon="6.04308">
        <ele>760.5400391</ele>
        <time>2012-03-04T10:02:44Z</time>
      </trkpt>
      <trkpt lat="44.53255" lon="6.04247">
        <ele>757.65625</ele>
        <time>2012-03-04T10:02:50Z</time>
      </trkpt>
      <trkpt lat="44.53229" lon="6.04139">
        <ele>754.7722168</ele>
        <time>2012-03-04T10:03:00Z</time>
      </trkpt>
      <trkpt lat="44.53202" lon="6.04054">
        <ele>754.291748</ele>
        <time>2012-03-04T10:03:10Z</time>
      </trkpt>
      <trkpt lat="44.53168" lon="6.0399">
        <ele>756.2141113</ele>
        <time>2012-03-04T10:03:25Z</time>
      </trkpt>
      <trkpt lat="44.5316" lon="6.0398">
        <ele>757.1755371</ele>
        <time>2012-03-04T10:03:29Z</time>
      </trkpt>
      <trkpt lat="44.53127" lon="6.03961">
        <ele>757.65625</ele>
        <time>2012-03-04T10:03:46Z</time>
      </trkpt>
      <trkpt lat="44.53124" lon="6.03959">
        <ele>758.6174316</ele>
        <time>2012-03-04T10:03:48Z</time>
      </trkpt>
      <trkpt lat="44.53084" lon="6.03932">
        <ele>761.9821777</ele>
        <time>2012-03-04T10:04:09Z</time>
      </trkpt>
      <trkpt lat="44.53082" lon="6.0393">
        <ele>762.4626465</ele>
        <time>2012-03-04T10:04:10Z</time>
      </trkpt>
      <trkpt lat="44.53051" lon="6.03883">
        <ele>765.3469238</ele>
        <time>2012-03-04T10:04:32Z</time>
      </trkpt>
      <trkpt lat="44.53041" lon="6.03872">
        <ele>766.3081055</ele>
        <time>2012-03-04T10:04:39Z</time>
      </trkpt>
      <trkpt lat="44.53035" lon="6.03865">
        <ele>766.7888184</ele>
        <time>2012-03-04T10:04:43Z</time>
      </trkpt>
      <trkpt lat="44.53008" lon="6.03834">
        <ele>770.1533203</ele>
        <time>2012-03-04T10:05:03Z</time>
      </trkpt>
      <trkpt lat="44.52975" lon="6.03794">
        <ele>773.0373535</ele>
        <time>2012-03-04T10:05:24Z</time>
      </trkpt>
      <trkpt lat="44.52955" lon="6.03769">
        <ele>775.4404297</ele>
        <time>2012-03-04T10:05:38Z</time>
      </trkpt>
      <trkpt lat="44.52922" lon="6.03741">
        <ele>778.3244629</ele>
        <time>2012-03-04T10:05:59Z</time>
      </trkpt>
      <trkpt lat="44.52885" lon="6.03688">
        <ele>780.7280273</ele>
        <time>2012-03-04T10:06:25Z</time>
      </trkpt>
      <trkpt lat="44.52886" lon="6.03673">
        <ele>783.6118164</ele>
        <time>2012-03-04T10:06:31Z</time>
      </trkpt>
      <trkpt lat="44.52895" lon="6.03648">
        <ele>784.5732422</ele>
        <time>2012-03-04T10:06:41Z</time>
      </trkpt>
      <trkpt lat="44.52902" lon="6.03634">
        <ele>786.4958496</ele>
        <time>2012-03-04T10:06:48Z</time>
      </trkpt>
      <trkpt lat="44.52906" lon="6.03624">
        <ele>786.9763184</ele>
        <time>2012-03-04T10:06:53Z</time>
      </trkpt>
      <trkpt lat="44.5291" lon="6.03574">
        <ele>788.418457</ele>
        <time>2012-03-04T10:07:13Z</time>
      </trkpt>
      <trkpt lat="44.529" lon="6.03542">
        <ele>789.8603516</ele>
        <time>2012-03-04T10:07:25Z</time>
      </trkpt>
      <trkpt lat="44.52867" lon="6.03507">
        <ele>791.782959</ele>
        <time>2012-03-04T10:07:45Z</time>
      </trkpt>
      <trkpt lat="44.52829" lon="6.03464">
        <ele>792.7443848</ele>
        <time>2012-03-04T10:08:04Z</time>
      </trkpt>
      <trkpt lat="44.52777" lon="6.03429">
        <ele>792.7443848</ele>
        <time>2012-03-04T10:08:22Z</time>
      </trkpt>
      <trkpt lat="44.52722" lon="6.03435">
        <ele>792.2636719</ele>
        <time>2012-03-04T10:08:38Z</time>
      </trkpt>
      <trkpt lat="44.5266" lon="6.03424">
        <ele>792.2636719</ele>
        <time>2012-03-04T10:08:55Z</time>
      </trkpt>
      <trkpt lat="44.52621" lon="6.03365">
        <ele>793.7055664</ele>
        <time>2012-03-04T10:09:13Z</time>
      </trkpt>
      <trkpt lat="44.52636" lon="6.03326">
        <ele>795.6281738</ele>
        <time>2012-03-04T10:09:26Z</time>
      </trkpt>
      <trkpt lat="44.52672" lon="6.03307">
        <ele>797.5510254</ele>
        <time>2012-03-04T10:09:43Z</time>
      </trkpt>
      <trkpt lat="44.52705" lon="6.03259">
        <ele>799.9543457</ele>
        <time>2012-03-04T10:10:03Z</time>
      </trkpt>
      <trkpt lat="44.52731" lon="6.03208">
        <ele>801.8769531</ele>
        <time>2012-03-04T10:10:24Z</time>
      </trkpt>
      <trkpt lat="44.52719" lon="6.03167">
        <ele>804.2802734</ele>
        <time>2012-03-04T10:10:39Z</time>
      </trkpt>
      <trkpt lat="44.52714" lon="6.0316">
        <ele>805.722168</ele>
        <time>2012-03-04T10:10:42Z</time>
      </trkpt>
      <trkpt lat="44.52667" lon="6.03132">
        <ele>805.2414551</ele>
        <time>2012-03-04T10:11:05Z</time>
      </trkpt>
      <trkpt lat="44.5266" lon="6.0313">
        <ele>807.1640625</ele>
        <time>2012-03-04T10:11:10Z</time>
      </trkpt>
      <trkpt lat="44.52654" lon="6.03042">
        <ele>810.5285645</ele>
        <time>2012-03-04T10:11:30Z</time>
      </trkpt>
      <trkpt lat="44.52655" lon="6.03039">
        <ele>810.5285645</ele>
        <time>2012-03-04T10:11:31Z</time>
      </trkpt>
      <trkpt lat="44.52671" lon="6.02963">
        <ele>811.4899902</ele>
        <time>2012-03-04T10:11:53Z</time>
      </trkpt>
      <trkpt lat="44.52693" lon="6.02888">
        <ele>811.9707031</ele>
        <time>2012-03-04T10:12:15Z</time>
      </trkpt>
      <trkpt lat="44.52714" lon="6.0282">
        <ele>813.4128418</ele>
        <time>2012-03-04T10:12:35Z</time>
      </trkpt>
      <trkpt lat="44.52712" lon="6.02752">
        <ele>814.8547363</ele>
        <time>2012-03-04T10:12:54Z</time>
      </trkpt>
      <trkpt lat="44.52717" lon="6.02686">
        <ele>815.8161621</ele>
        <time>2012-03-04T10:13:13Z</time>
      </trkpt>
      <trkpt lat="44.52752" lon="6.02634">
        <ele>817.2580566</ele>
        <time>2012-03-04T10:13:33Z</time>
      </trkpt>
      <trkpt lat="44.5277" lon="6.02578">
        <ele>818.2192383</ele>
        <time>2012-03-04T10:13:52Z</time>
      </trkpt>
      <trkpt lat="44.52785" lon="6.02505">
        <ele>818.6999512</ele>
        <time>2012-03-04T10:14:14Z</time>
      </trkpt>
      <trkpt lat="44.52806" lon="6.02448">
        <ele>819.661377</ele>
        <time>2012-03-04T10:14:33Z</time>
      </trkpt>
      <trkpt lat="44.52817" lon="6.02383">
        <ele>820.6225586</ele>
        <time>2012-03-04T10:14:52Z</time>
      </trkpt>
      <trkpt lat="44.52793" lon="6.02353">
        <ele>821.5837402</ele>
        <time>2012-03-04T10:15:09Z</time>
      </trkpt>
      <trkpt lat="44.52761" lon="6.02366">
        <ele>824.9484863</ele>
        <time>2012-03-04T10:15:28Z</time>
      </trkpt>
      <trkpt lat="44.52731" lon="6.02398">
        <ele>828.3132324</ele>
        <time>2012-03-04T10:15:49Z</time>
      </trkpt>
      <trkpt lat="44.52698" lon="6.02425">
        <ele>831.1972656</ele>
        <time>2012-03-04T10:16:09Z</time>
      </trkpt>
      <trkpt lat="44.52675" lon="6.02445">
        <ele>834.0810547</ele>
        <time>2012-03-04T10:16:26Z</time>
      </trkpt>
      <trkpt lat="44.52649" lon="6.02485">
        <ele>837.4455566</ele>
        <time>2012-03-04T10:16:47Z</time>
      </trkpt>
      <trkpt lat="44.52621" lon="6.02515">
        <ele>840.8100586</ele>
        <time>2012-03-04T10:17:07Z</time>
      </trkpt>
      <trkpt lat="44.52596" lon="6.02537">
        <ele>843.6940918</ele>
        <time>2012-03-04T10:17:24Z</time>
      </trkpt>
      <trkpt lat="44.52573" lon="6.02559">
        <ele>847.0588379</ele>
        <time>2012-03-04T10:17:40Z</time>
      </trkpt>
      <trkpt lat="44.52549" lon="6.02591">
        <ele>849.4621582</ele>
        <time>2012-03-04T10:17:59Z</time>
      </trkpt>
      <trkpt lat="44.52514" lon="6.02619">
        <ele>852.8266602</ele>
        <time>2012-03-04T10:18:22Z</time>
      </trkpt>
      <trkpt lat="44.52482" lon="6.02621">
        <ele>856.1911621</ele>
        <time>2012-03-04T10:18:40Z</time>
      </trkpt>
      <trkpt lat="44.52447" lon="6.02615">
        <ele>859.5559082</ele>
        <time>2012-03-04T10:19:01Z</time>
      </trkpt>
      <trkpt lat="44.5241" lon="6.02615">
        <ele>862.9206543</ele>
        <time>2012-03-04T10:19:22Z</time>
      </trkpt>
      <trkpt lat="44.52379" lon="6.02612">
        <ele>865.3239746</ele>
        <time>2012-03-04T10:19:41Z</time>
      </trkpt>
      <trkpt lat="44.52345" lon="6.02611">
        <ele>868.6884766</ele>
        <time>2012-03-04T10:20:01Z</time>
      </trkpt>
      <trkpt lat="44.52315" lon="6.02608">
        <ele>871.5722656</ele>
        <time>2012-03-04T10:20:18Z</time>
      </trkpt>
      <trkpt lat="44.52279" lon="6.02596">
        <ele>874.4562988</ele>
        <time>2012-03-04T10:20:39Z</time>
      </trkpt>
      <trkpt lat="44.52253" lon="6.02581">
        <ele>876.8598633</ele>
        <time>2012-03-04T10:20:55Z</time>
      </trkpt>
      <trkpt lat="44.52241" lon="6.02578">
        <ele>877.8210449</ele>
        <time>2012-03-04T10:21:03Z</time>
      </trkpt>
      <trkpt lat="44.52204" lon="6.02564">
        <ele>881.6662598</ele>
        <time>2012-03-04T10:21:25Z</time>
      </trkpt>
      <trkpt lat="44.52178" lon="6.02543">
        <ele>884.550293</ele>
        <time>2012-03-04T10:21:43Z</time>
      </trkpt>
      <trkpt lat="44.52152" lon="6.02522">
        <ele>887.9147949</ele>
        <time>2012-03-04T10:22:02Z</time>
      </trkpt>
      <trkpt lat="44.52119" lon="6.02502">
        <ele>890.798584</ele>
        <time>2012-03-04T10:22:25Z</time>
      </trkpt>
      <trkpt lat="44.52089" lon="6.02468">
        <ele>894.644043</ele>
        <time>2012-03-04T10:22:46Z</time>
      </trkpt>
      <trkpt lat="44.52068" lon="6.02443">
        <ele>897.5280762</ele>
        <time>2012-03-04T10:23:02Z</time>
      </trkpt>
      <trkpt lat="44.52038" lon="6.02412">
        <ele>900.8925781</ele>
        <time>2012-03-04T10:23:23Z</time>
      </trkpt>
      <trkpt lat="44.52025" lon="6.02374">
        <ele>903.2958984</ele>
        <time>2012-03-04T10:23:40Z</time>
      </trkpt>
      <trkpt lat="44.52025" lon="6.02363">
        <ele>905.2185059</ele>
        <time>2012-03-04T10:23:45Z</time>
      </trkpt>
      <trkpt lat="44.52029" lon="6.0231">
        <ele>907.6218262</ele>
        <time>2012-03-04T10:24:08Z</time>
      </trkpt>
      <trkpt lat="44.52025" lon="6.02292">
        <ele>909.0639648</ele>
        <time>2012-03-04T10:24:15Z</time>
      </trkpt>
      <trkpt lat="44.51996" lon="6.02255">
        <ele>912.4284668</ele>
        <time>2012-03-04T10:24:38Z</time>
      </trkpt>
      <trkpt lat="44.51967" lon="6.02227">
        <ele>914.3510742</ele>
        <time>2012-03-04T10:24:57Z</time>
      </trkpt>
      <trkpt lat="44.51926" lon="6.02197">
        <ele>915.3125</ele>
        <time>2012-03-04T10:25:18Z</time>
      </trkpt>
      <trkpt lat="44.51861" lon="6.0223">
        <ele>915.7932129</ele>
        <time>2012-03-04T10:25:36Z</time>
      </trkpt>
      <trkpt lat="44.51812" lon="6.02231">
        <ele>915.3125</ele>
        <time>2012-03-04T10:25:52Z</time>
      </trkpt>
      <trkpt lat="44.51773" lon="6.02238">
        <ele>916.7543945</ele>
        <time>2012-03-04T10:26:07Z</time>
      </trkpt>
      <trkpt lat="44.51752" lon="6.02234">
        <ele>917.7155762</ele>
        <time>2012-03-04T10:26:15Z</time>
      </trkpt>
      <trkpt lat="44.51712" lon="6.02205">
        <ele>919.6384277</ele>
        <time>2012-03-04T10:26:33Z</time>
      </trkpt>
      <trkpt lat="44.51669" lon="6.02203">
        <ele>920.5996094</ele>
        <time>2012-03-04T10:26:50Z</time>
      </trkpt>
      <trkpt lat="44.51644" lon="6.02199">
        <ele>921.560791</ele>
        <time>2012-03-04T10:27:02Z</time>
      </trkpt>
      <trkpt lat="44.51607" lon="6.02193">
        <ele>923.4836426</ele>
        <time>2012-03-04T10:27:19Z</time>
      </trkpt>
      <trkpt lat="44.51572" lon="6.02168">
        <ele>924.4450684</ele>
        <time>2012-03-04T10:27:37Z</time>
      </trkpt>
      <trkpt lat="44.51566" lon="6.02162">
        <ele>926.3676758</ele>
        <time>2012-03-04T10:27:41Z</time>
      </trkpt>
      <trkpt lat="44.51533" lon="6.02133">
        <ele>929.2514648</ele>
        <time>2012-03-04T10:28:03Z</time>
      </trkpt>
      <trkpt lat="44.51498" lon="6.02092">
        <ele>931.1743164</ele>
        <time>2012-03-04T10:28:27Z</time>
      </trkpt>
      <trkpt lat="44.51473" lon="6.02063">
        <ele>933.5773926</ele>
        <time>2012-03-04T10:28:44Z</time>
      </trkpt>
      <trkpt lat="44.51459" lon="6.02015">
        <ele>936.9418945</ele>
        <time>2012-03-04T10:29:03Z</time>
      </trkpt>
      <trkpt lat="44.51469" lon="6.01953">
        <ele>938.8647461</ele>
        <time>2012-03-04T10:29:27Z</time>
      </trkpt>
      <trkpt lat="44.51504" lon="6.01944">
        <ele>940.7873535</ele>
        <time>2012-03-04T10:29:43Z</time>
      </trkpt>
      <trkpt lat="44.5155" lon="6.01933">
        <ele>943.1906738</ele>
        <time>2012-03-04T10:30:05Z</time>
      </trkpt>
      <trkpt lat="44.51592" lon="6.01909">
        <ele>945.5939941</ele>
        <time>2012-03-04T10:30:27Z</time>
      </trkpt>
      <trkpt lat="44.51619" lon="6.0189">
        <ele>948.9584961</ele>
        <time>2012-03-04T10:30:43Z</time>
      </trkpt>
      <trkpt lat="44.51649" lon="6.01854">
        <ele>950.8811035</ele>
        <time>2012-03-04T10:31:03Z</time>
      </trkpt>
      <trkpt lat="44.51653" lon="6.01794">
        <ele>953.2844238</ele>
        <time>2012-03-04T10:31:24Z</time>
      </trkpt>
      <trkpt lat="44.51647" lon="6.01755">
        <ele>956.168457</ele>
        <time>2012-03-04T10:31:38Z</time>
      </trkpt>
      <trkpt lat="44.51647" lon="6.01752">
        <ele>956.168457</ele>
        <time>2012-03-04T10:31:39Z</time>
      </trkpt>
      <trkpt lat="44.51639" lon="6.01729">
        <ele>957.1298828</ele>
        <time>2012-03-04T10:31:48Z</time>
      </trkpt>
      <trkpt lat="44.51632" lon="6.01684">
        <ele>960.0136719</ele>
        <time>2012-03-04T10:32:05Z</time>
      </trkpt>
      <trkpt lat="44.51641" lon="6.01624">
        <ele>963.378418</ele>
        <time>2012-03-04T10:32:27Z</time>
      </trkpt>
      <trkpt lat="44.51647" lon="6.01604">
        <ele>962.8977051</ele>
        <time>2012-03-04T10:32:33Z</time>
      </trkpt>
      <trkpt lat="44.51652" lon="6.01588">
        <ele>962.4169922</ele>
        <time>2012-03-04T10:32:36Z</time>
      </trkpt>
      <trkpt lat="44.5165" lon="6.01569">
        <ele>961.9365234</ele>
        <time>2012-03-04T10:32:39Z</time>
      </trkpt>
      <trkpt lat="44.51634" lon="6.01507">
        <ele>960.4943848</ele>
        <time>2012-03-04T10:32:53Z</time>
      </trkpt>
      <trkpt lat="44.51618" lon="6.01468">
        <ele>964.3395996</ele>
        <time>2012-03-04T10:33:09Z</time>
      </trkpt>
      <trkpt lat="44.51596" lon="6.01441">
        <ele>967.7041016</ele>
        <time>2012-03-04T10:33:24Z</time>
      </trkpt>
      <trkpt lat="44.51593" lon="6.01438">
        <ele>968.1848145</ele>
        <time>2012-03-04T10:33:26Z</time>
      </trkpt>
      <trkpt lat="44.5157" lon="6.01411">
        <ele>968.6655273</ele>
        <time>2012-03-04T10:33:40Z</time>
      </trkpt>
      <trkpt lat="44.5155" lon="6.01368">
        <ele>970.5881348</ele>
        <time>2012-03-04T10:33:57Z</time>
      </trkpt>
      <trkpt lat="44.51553" lon="6.01306">
        <ele>973.4724121</ele>
        <time>2012-03-04T10:34:18Z</time>
      </trkpt>
      <trkpt lat="44.51555" lon="6.0129">
        <ele>973.9528809</ele>
        <time>2012-03-04T10:34:26Z</time>
      </trkpt>
      <trkpt lat="44.51555" lon="6.01286">
        <ele>975.3947754</ele>
        <time>2012-03-04T10:34:28Z</time>
      </trkpt>
      <trkpt lat="44.51553" lon="6.01236">
        <ele>975.8754883</ele>
        <time>2012-03-04T10:34:45Z</time>
      </trkpt>
      <trkpt lat="44.5154" lon="6.01183">
        <ele>976.8369141</ele>
        <time>2012-03-04T10:34:59Z</time>
      </trkpt>
      <trkpt lat="44.51536" lon="6.01181">
        <ele>976.8369141</ele>
        <time>2012-03-04T10:35:13Z</time>
      </trkpt>
      <trkpt lat="44.5153" lon="6.01176">
        <ele>976.8369141</ele>
        <time>2012-03-04T10:36:01Z</time>
      </trkpt>
      <trkpt lat="44.51512" lon="6.01136">
        <ele>975.8754883</ele>
        <time>2012-03-04T10:36:12Z</time>
      </trkpt>
      <trkpt lat="44.51509" lon="6.01124">
        <ele>977.7980957</ele>
        <time>2012-03-04T10:36:15Z</time>
      </trkpt>
      <trkpt lat="44.51507" lon="6.01116">
        <ele>979.7207031</ele>
        <time>2012-03-04T10:36:17Z</time>
      </trkpt>
      <trkpt lat="44.51497" lon="6.01085">
        <ele>981.6433105</ele>
        <time>2012-03-04T10:36:26Z</time>
      </trkpt>
      <trkpt lat="44.51466" lon="6.0103">
        <ele>982.6047363</ele>
        <time>2012-03-04T10:36:44Z</time>
      </trkpt>
      <trkpt lat="44.51409" lon="6.00997">
        <ele>985.4885254</ele>
        <time>2012-03-04T10:37:04Z</time>
      </trkpt>
      <trkpt lat="44.51336" lon="6.00957">
        <ele>987.8918457</ele>
        <time>2012-03-04T10:37:29Z</time>
      </trkpt>
      <trkpt lat="44.51322" lon="6.00948">
        <ele>990.2954102</ele>
        <time>2012-03-04T10:37:34Z</time>
      </trkpt>
      <trkpt lat="44.51267" lon="6.00891">
        <ele>990.7758789</ele>
        <time>2012-03-04T10:37:55Z</time>
      </trkpt>
      <trkpt lat="44.51246" lon="6.00822">
        <ele>992.2180176</ele>
        <time>2012-03-04T10:38:09Z</time>
      </trkpt>
      <trkpt lat="44.51229" lon="6.00698">
        <ele>993.1791992</ele>
        <time>2012-03-04T10:38:30Z</time>
      </trkpt>
      <trkpt lat="44.51214" lon="6.00613">
        <ele>990.2954102</ele>
        <time>2012-03-04T10:38:45Z</time>
      </trkpt>
      <trkpt lat="44.51203" lon="6.00544">
        <ele>993.6599121</ele>
        <time>2012-03-04T10:38:58Z</time>
      </trkpt>
      <trkpt lat="44.51199" lon="6.00524">
        <ele>995.5825195</ele>
        <time>2012-03-04T10:39:02Z</time>
      </trkpt>
      <trkpt lat="44.51174" lon="6.00386">
        <ele>996.0632324</ele>
        <time>2012-03-04T10:39:27Z</time>
      </trkpt>
      <trkpt lat="44.5117" lon="6.00369">
        <ele>995.5825195</ele>
        <time>2012-03-04T10:39:30Z</time>
      </trkpt>
      <trkpt lat="44.5116" lon="6.00303">
        <ele>997.0244141</ele>
        <time>2012-03-04T10:39:41Z</time>
      </trkpt>
      <trkpt lat="44.51156" lon="6.00203">
        <ele>998.4663086</ele>
        <time>2012-03-04T10:39:57Z</time>
      </trkpt>
      <trkpt lat="44.51158" lon="6.00178">
        <ele>995.5825195</ele>
        <time>2012-03-04T10:40:01Z</time>
      </trkpt>
      <trkpt lat="44.51168" lon="6.00085">
        <ele>997.505127</ele>
        <time>2012-03-04T10:40:16Z</time>
      </trkpt>
      <trkpt lat="44.51167" lon="6.00062">
        <ele>998.4663086</ele>
        <time>2012-03-04T10:40:20Z</time>
      </trkpt>
      <trkpt lat="44.51163" lon="6.00045">
        <ele>997.9858398</ele>
        <time>2012-03-04T10:40:23Z</time>
      </trkpt>
      <trkpt lat="44.5115" lon="6.00022">
        <ele>998.4663086</ele>
        <time>2012-03-04T10:40:28Z</time>
      </trkpt>
      <trkpt lat="44.5114" lon="6.00013">
        <ele>997.505127</ele>
        <time>2012-03-04T10:40:31Z</time>
      </trkpt>
      <trkpt lat="44.51085" lon="5.99962">
        <ele>998.9470215</ele>
        <time>2012-03-04T10:40:50Z</time>
      </trkpt>
      <trkpt lat="44.51047" lon="5.99873">
        <ele>1001.3503418</ele>
        <time>2012-03-04T10:41:12Z</time>
      </trkpt>
      <trkpt lat="44.51038" lon="5.998">
        <ele>1003.2729492</ele>
        <time>2012-03-04T10:41:28Z</time>
      </trkpt>
      <trkpt lat="44.51084" lon="5.99703">
        <ele>1003.2729492</ele>
        <time>2012-03-04T10:41:49Z</time>
      </trkpt>
      <trkpt lat="44.51094" lon="5.99685">
        <ele>1003.7536621</ele>
        <time>2012-03-04T10:41:53Z</time>
      </trkpt>
      <trkpt lat="44.51098" lon="5.99663">
        <ele>1003.7536621</ele>
        <time>2012-03-04T10:41:57Z</time>
      </trkpt>
      <trkpt lat="44.51086" lon="5.99618">
        <ele>1003.7536621</ele>
        <time>2012-03-04T10:42:05Z</time>
      </trkpt>
      <trkpt lat="44.51036" lon="5.99528">
        <ele>1005.1958008</ele>
        <time>2012-03-04T10:42:22Z</time>
      </trkpt>
      <trkpt lat="44.51005" lon="5.99465">
        <ele>1007.1184082</ele>
        <time>2012-03-04T10:42:37Z</time>
      </trkpt>
      <trkpt lat="44.51002" lon="5.99375">
        <ele>1009.5217285</ele>
        <time>2012-03-04T10:42:56Z</time>
      </trkpt>
      <trkpt lat="44.51007" lon="5.99278">
        <ele>1011.9250488</ele>
        <time>2012-03-04T10:43:17Z</time>
      </trkpt>
      <trkpt lat="44.50975" lon="5.99224">
        <ele>1013.8474121</ele>
        <time>2012-03-04T10:43:32Z</time>
      </trkpt>
      <trkpt lat="44.50924" lon="5.99214">
        <ele>1016.2507324</ele>
        <time>2012-03-04T10:43:48Z</time>
      </trkpt>
      <trkpt lat="44.50871" lon="5.99205">
        <ele>1017.692627</ele>
        <time>2012-03-04T10:44:06Z</time>
      </trkpt>
      <trkpt lat="44.50815" lon="5.99195">
        <ele>1020.0961914</ele>
        <time>2012-03-04T10:44:24Z</time>
      </trkpt>
      <trkpt lat="44.50756" lon="5.99209">
        <ele>1022.0187988</ele>
        <time>2012-03-04T10:44:42Z</time>
      </trkpt>
      <trkpt lat="44.5072" lon="5.99258">
        <ele>1022.4995117</ele>
        <time>2012-03-04T10:44:56Z</time>
      </trkpt>
      <trkpt lat="44.50686" lon="5.99314">
        <ele>1022.9802246</ele>
        <time>2012-03-04T10:45:10Z</time>
      </trkpt>
      <trkpt lat="44.50661" lon="5.99363">
        <ele>1024.4221191</ele>
        <time>2012-03-04T10:45:22Z</time>
      </trkpt>
      <trkpt lat="44.50649" lon="5.9939">
        <ele>1024.4221191</ele>
        <time>2012-03-04T10:45:27Z</time>
      </trkpt>
      <trkpt lat="44.50604" lon="5.9945">
        <ele>1024.902832</ele>
        <time>2012-03-04T10:45:40Z</time>
      </trkpt>
      <trkpt lat="44.50542" lon="5.99492">
        <ele>1026.3447266</ele>
        <time>2012-03-04T10:45:58Z</time>
      </trkpt>
      <trkpt lat="44.5051" lon="5.99505">
        <ele>1025.8640137</ele>
        <time>2012-03-04T10:46:07Z</time>
      </trkpt>
      <trkpt lat="44.50472" lon="5.99522">
        <ele>1025.8640137</ele>
        <time>2012-03-04T10:46:16Z</time>
      </trkpt>
      <trkpt lat="44.5045" lon="5.99525">
        <ele>1026.3447266</ele>
        <time>2012-03-04T10:46:21Z</time>
      </trkpt>
      <trkpt lat="44.50409" lon="5.99521">
        <ele>1027.3061523</ele>
        <time>2012-03-04T10:46:31Z</time>
      </trkpt>
      <trkpt lat="44.50383" lon="5.99518">
        <ele>1027.3061523</ele>
        <time>2012-03-04T10:46:37Z</time>
      </trkpt>
      <trkpt lat="44.50305" lon="5.99532">
        <ele>1028.7480469</ele>
        <time>2012-03-04T10:46:57Z</time>
      </trkpt>
      <trkpt lat="44.50254" lon="5.99535">
        <ele>1029.2285156</ele>
        <time>2012-03-04T10:47:09Z</time>
      </trkpt>
      <trkpt lat="44.50191" lon="5.99506">
        <ele>1030.1899414</ele>
        <time>2012-03-04T10:47:25Z</time>
      </trkpt>
      <trkpt lat="44.5012" lon="5.99489">
        <ele>1033.0737305</ele>
        <time>2012-03-04T10:47:45Z</time>
      </trkpt>
      <trkpt lat="44.50056" lon="5.99503">
        <ele>1034.5158691</ele>
        <time>2012-03-04T10:48:02Z</time>
      </trkpt>
      <trkpt lat="44.49985" lon="5.99524">
        <ele>1036.9191895</ele>
        <time>2012-03-04T10:48:23Z</time>
      </trkpt>
      <trkpt lat="44.4992" lon="5.99544">
        <ele>1038.842041</ele>
        <time>2012-03-04T10:48:42Z</time>
      </trkpt>
      <trkpt lat="44.49857" lon="5.99551">
        <ele>1041.2451172</ele>
        <time>2012-03-04T10:49:02Z</time>
      </trkpt>
      <trkpt lat="44.49778" lon="5.99544">
        <ele>1043.6484375</ele>
        <time>2012-03-04T10:49:27Z</time>
      </trkpt>
      <trkpt lat="44.49709" lon="5.99502">
        <ele>1045.5710449</ele>
        <time>2012-03-04T10:49:52Z</time>
      </trkpt>
      <trkpt lat="44.49703" lon="5.99489">
        <ele>1046.5324707</ele>
        <time>2012-03-04T10:49:56Z</time>
      </trkpt>
      <trkpt lat="44.49702" lon="5.9947">
        <ele>1046.0517578</ele>
        <time>2012-03-04T10:50:00Z</time>
      </trkpt>
      <trkpt lat="44.49722" lon="5.99408">
        <ele>1046.0517578</ele>
        <time>2012-03-04T10:50:12Z</time>
      </trkpt>
      <trkpt lat="44.49763" lon="5.99356">
        <ele>1046.0517578</ele>
        <time>2012-03-04T10:50:25Z</time>
      </trkpt>
      <trkpt lat="44.49798" lon="5.99243">
        <ele>1045.5710449</ele>
        <time>2012-03-04T10:50:46Z</time>
      </trkpt>
      <trkpt lat="44.49798" lon="5.99178">
        <ele>1045.5710449</ele>
        <time>2012-03-04T10:50:56Z</time>
      </trkpt>
      <trkpt lat="44.49786" lon="5.99055">
        <ele>1045.5710449</ele>
        <time>2012-03-04T10:51:14Z</time>
      </trkpt>
      <trkpt lat="44.49768" lon="5.98998">
        <ele>1045.090332</ele>
        <time>2012-03-04T10:51:23Z</time>
      </trkpt>
      <trkpt lat="44.49744" lon="5.98974">
        <ele>1046.0517578</ele>
        <time>2012-03-04T10:51:29Z</time>
      </trkpt>
      <trkpt lat="44.49683" lon="5.98928">
        <ele>1046.0517578</ele>
        <time>2012-03-04T10:51:44Z</time>
      </trkpt>
      <trkpt lat="44.49653" lon="5.98877">
        <ele>1046.0517578</ele>
        <time>2012-03-04T10:51:54Z</time>
      </trkpt>
      <trkpt lat="44.49627" lon="5.98766">
        <ele>1046.5324707</ele>
        <time>2012-03-04T10:52:11Z</time>
      </trkpt>
      <trkpt lat="44.49621" lon="5.98711">
        <ele>1046.5324707</ele>
        <time>2012-03-04T10:52:19Z</time>
      </trkpt>
      <trkpt lat="44.49596" lon="5.98666">
        <ele>1046.0517578</ele>
        <time>2012-03-04T10:52:27Z</time>
      </trkpt>
      <trkpt lat="44.49586" lon="5.98662">
        <ele>1046.5324707</ele>
        <time>2012-03-04T10:52:29Z</time>
      </trkpt>
      <trkpt lat="44.49553" lon="5.98653">
        <ele>1046.5324707</ele>
        <time>2012-03-04T10:52:35Z</time>
      </trkpt>
      <trkpt lat="44.49471" lon="5.98608">
        <ele>1046.0517578</ele>
        <time>2012-03-04T10:52:50Z</time>
      </trkpt>
      <trkpt lat="44.49361" lon="5.98583">
        <ele>1047.0129395</ele>
        <time>2012-03-04T10:53:11Z</time>
      </trkpt>
      <trkpt lat="44.49243" lon="5.98557">
        <ele>1046.0517578</ele>
        <time>2012-03-04T10:53:34Z</time>
      </trkpt>
      <trkpt lat="44.49141" lon="5.98536">
        <ele>1046.0517578</ele>
        <time>2012-03-04T10:53:54Z</time>
      </trkpt>
      <trkpt lat="44.49128" lon="5.98534">
        <ele>1046.0517578</ele>
        <time>2012-03-04T10:53:57Z</time>
      </trkpt>
      <trkpt lat="44.49031" lon="5.98553">
        <ele>1046.5324707</ele>
        <time>2012-03-04T10:54:21Z</time>
      </trkpt>
      <trkpt lat="44.49019" lon="5.98557">
        <ele>1047.0129395</ele>
        <time>2012-03-04T10:54:24Z</time>
      </trkpt>
      <trkpt lat="44.48922" lon="5.98581">
        <ele>1047.4936523</ele>
        <time>2012-03-04T10:54:47Z</time>
      </trkpt>
      <trkpt lat="44.48815" lon="5.98606">
        <ele>1047.4936523</ele>
        <time>2012-03-04T10:55:07Z</time>
      </trkpt>
      <trkpt lat="44.48729" lon="5.98628">
        <ele>1047.0129395</ele>
        <time>2012-03-04T10:55:23Z</time>
      </trkpt>
      <trkpt lat="44.48692" lon="5.98627">
        <ele>1046.5324707</ele>
        <time>2012-03-04T10:55:30Z</time>
      </trkpt>
      <trkpt lat="44.4867" lon="5.98622">
        <ele>1046.0517578</ele>
        <time>2012-03-04T10:55:34Z</time>
      </trkpt>
      <trkpt lat="44.48594" lon="5.986">
        <ele>1047.0129395</ele>
        <time>2012-03-04T10:55:48Z</time>
      </trkpt>
      <trkpt lat="44.48573" lon="5.98579">
        <ele>1047.0129395</ele>
        <time>2012-03-04T10:55:53Z</time>
      </trkpt>
      <trkpt lat="44.48538" lon="5.98523">
        <ele>1047.4936523</ele>
        <time>2012-03-04T10:56:03Z</time>
      </trkpt>
      <trkpt lat="44.48515" lon="5.98508">
        <ele>1047.4936523</ele>
        <time>2012-03-04T10:56:08Z</time>
      </trkpt>
      <trkpt lat="44.4843" lon="5.98496">
        <ele>1048.9355469</ele>
        <time>2012-03-04T10:56:27Z</time>
      </trkpt>
      <trkpt lat="44.48426" lon="5.98498">
        <ele>1048.9355469</ele>
        <time>2012-03-04T10:56:28Z</time>
      </trkpt>
      <trkpt lat="44.48379" lon="5.9852">
        <ele>1047.9743652</ele>
        <time>2012-03-04T10:56:39Z</time>
      </trkpt>
      <trkpt lat="44.48354" lon="5.98525">
        <ele>1048.9355469</ele>
        <time>2012-03-04T10:56:44Z</time>
      </trkpt>
      <trkpt lat="44.48333" lon="5.98516">
        <ele>1047.4936523</ele>
        <time>2012-03-04T10:56:48Z</time>
      </trkpt>
      <trkpt lat="44.48313" lon="5.98497">
        <ele>1046.5324707</ele>
        <time>2012-03-04T10:56:52Z</time>
      </trkpt>
      <trkpt lat="44.48302" lon="5.98483">
        <ele>1045.5710449</ele>
        <time>2012-03-04T10:56:54Z</time>
      </trkpt>
      <trkpt lat="44.48263" lon="5.9841">
        <ele>1042.206543</ele>
        <time>2012-03-04T10:57:02Z</time>
      </trkpt>
      <trkpt lat="44.48258" lon="5.984">
        <ele>1042.206543</ele>
        <time>2012-03-04T10:57:03Z</time>
      </trkpt>
      <trkpt lat="44.48247" lon="5.98379">
        <ele>1040.7644043</ele>
        <time>2012-03-04T10:57:05Z</time>
      </trkpt>
      <trkpt lat="44.4822" lon="5.98325">
        <ele>1037.8806152</ele>
        <time>2012-03-04T10:57:10Z</time>
      </trkpt>
      <trkpt lat="44.48186" lon="5.98259">
        <ele>1034.5158691</ele>
        <time>2012-03-04T10:57:16Z</time>
      </trkpt>
      <trkpt lat="44.4818" lon="5.98248">
        <ele>1034.0351563</ele>
        <time>2012-03-04T10:57:17Z</time>
      </trkpt>
      <trkpt lat="44.48157" lon="5.98204">
        <ele>1032.1125488</ele>
        <time>2012-03-04T10:57:21Z</time>
      </trkpt>
      <trkpt lat="44.48139" lon="5.98174">
        <ele>1030.1899414</ele>
        <time>2012-03-04T10:57:24Z</time>
      </trkpt>
      <trkpt lat="44.48113" lon="5.98135">
        <ele>1028.7480469</ele>
        <time>2012-03-04T10:57:28Z</time>
      </trkpt>
      <trkpt lat="44.48093" lon="5.98106">
        <ele>1026.3447266</ele>
        <time>2012-03-04T10:57:31Z</time>
      </trkpt>
      <trkpt lat="44.4806" lon="5.98056">
        <ele>1023.4609375</ele>
        <time>2012-03-04T10:57:36Z</time>
      </trkpt>
      <trkpt lat="44.48046" lon="5.98035">
        <ele>1022.4995117</ele>
        <time>2012-03-04T10:57:38Z</time>
      </trkpt>
      <trkpt lat="44.48022" lon="5.98">
        <ele>1020.5769043</ele>
        <time>2012-03-04T10:57:42Z</time>
      </trkpt>
      <trkpt lat="44.47994" lon="5.97957">
        <ele>1018.1733398</ele>
        <time>2012-03-04T10:57:47Z</time>
      </trkpt>
      <trkpt lat="44.47959" lon="5.97907">
        <ele>1014.328125</ele>
        <time>2012-03-04T10:57:53Z</time>
      </trkpt>
      <trkpt lat="44.47953" lon="5.97898">
        <ele>1014.328125</ele>
        <time>2012-03-04T10:57:54Z</time>
      </trkpt>
      <trkpt lat="44.47938" lon="5.97873">
        <ele>1015.2895508</ele>
        <time>2012-03-04T10:57:57Z</time>
      </trkpt>
      <trkpt lat="44.4792" lon="5.97858">
        <ele>1013.8474121</ele>
        <time>2012-03-04T10:58:00Z</time>
      </trkpt>
      <trkpt lat="44.47903" lon="5.97824">
        <ele>1013.3669434</ele>
        <time>2012-03-04T10:58:04Z</time>
      </trkpt>
      <trkpt lat="44.47849" lon="5.97745">
        <ele>1013.8474121</ele>
        <time>2012-03-04T10:58:19Z</time>
      </trkpt>
      <trkpt lat="44.47811" lon="5.97687">
        <ele>1016.7314453</ele>
        <time>2012-03-04T10:58:36Z</time>
      </trkpt>
      <trkpt lat="44.4778" lon="5.97628">
        <ele>1018.6540527</ele>
        <time>2012-03-04T10:58:52Z</time>
      </trkpt>
      <trkpt lat="44.47762" lon="5.97598">
        <ele>1018.1733398</ele>
        <time>2012-03-04T10:59:01Z</time>
      </trkpt>
      <trkpt lat="44.47732" lon="5.9754">
        <ele>1019.6154785</ele>
        <time>2012-03-04T10:59:20Z</time>
      </trkpt>
      <trkpt lat="44.47731" lon="5.97537">
        <ele>1021.0576172</ele>
        <time>2012-03-04T10:59:22Z</time>
      </trkpt>
      <trkpt lat="44.47728" lon="5.97529">
        <ele>1020.5769043</ele>
        <time>2012-03-04T10:59:34Z</time>
      </trkpt>
      <trkpt lat="44.47728" lon="5.97529">
        <ele>1022.4995117</ele>
        <time>2012-03-04T10:59:52Z</time>
      </trkpt>
      <trkpt lat="44.47728" lon="5.97529">
        <ele>1021.5380859</ele>
        <time>2012-03-04T11:00:21Z</time>
      </trkpt>
      <trkpt lat="44.47728" lon="5.97529">
        <ele>1022.4995117</ele>
        <time>2012-03-04T11:00:45Z</time>
      </trkpt>
      <trkpt lat="44.47728" lon="5.97529">
        <ele>1022.0187988</ele>
        <time>2012-03-04T11:01:08Z</time>
      </trkpt>
      <trkpt lat="44.47728" lon="5.97529">
        <ele>1022.0187988</ele>
        <time>2012-03-04T11:01:48Z</time>
      </trkpt>
      <trkpt lat="44.47728" lon="5.97529">
        <ele>1022.9802246</ele>
        <time>2012-03-04T11:03:06Z</time>
      </trkpt>
      <trkpt lat="44.47728" lon="5.97529">
        <ele>1021.5380859</ele>
        <time>2012-03-04T11:03:08Z</time>
      </trkpt>
      <trkpt lat="44.47728" lon="5.97529">
        <ele>1022.9802246</ele>
        <time>2012-03-04T11:03:27Z</time>
      </trkpt>
      <trkpt lat="44.47728" lon="5.97529">
        <ele>1021.0576172</ele>
        <time>2012-03-04T11:03:32Z</time>
      </trkpt>
      <trkpt lat="44.47728" lon="5.97529">
        <ele>1022.9802246</ele>
        <time>2012-03-04T11:03:36Z</time>
      </trkpt>
      <trkpt lat="44.47728" lon="5.97529">
        <ele>1021.0576172</ele>
        <time>2012-03-04T11:03:39Z</time>
      </trkpt>
      <trkpt lat="44.47728" lon="5.97529">
        <ele>1022.4995117</ele>
        <time>2012-03-04T11:03:41Z</time>
      </trkpt>
      <trkpt lat="44.47728" lon="5.97529">
        <ele>1020.5769043</ele>
        <time>2012-03-04T11:03:43Z</time>
      </trkpt>
      <trkpt lat="44.47728" lon="5.97529">
        <ele>1022.4995117</ele>
        <time>2012-03-04T11:03:53Z</time>
      </trkpt>
      <trkpt lat="44.47728" lon="5.97529">
        <ele>1020.5769043</ele>
        <time>2012-03-04T11:04:04Z</time>
      </trkpt>
      <trkpt lat="44.47728" lon="5.97529">
        <ele>1022.4995117</ele>
        <time>2012-03-04T11:04:18Z</time>
      </trkpt>
      <trkpt lat="44.47728" lon="5.97529">
        <ele>1024.4221191</ele>
        <time>2012-03-04T11:04:37Z</time>
      </trkpt>
      <trkpt lat="44.47728" lon="5.97529">
        <ele>1021.0576172</ele>
        <time>2012-03-04T11:04:38Z</time>
      </trkpt>
      <trkpt lat="44.47728" lon="5.97529">
        <ele>1021.0576172</ele>
        <time>2012-03-04T11:04:39Z</time>
      </trkpt>
      <trkpt lat="44.47728" lon="5.97529">
        <ele>1023.9414063</ele>
        <time>2012-03-04T11:06:00Z</time>
      </trkpt>
      <trkpt lat="44.47728" lon="5.97529">
        <ele>1021.5380859</ele>
        <time>2012-03-04T11:06:28Z</time>
      </trkpt>
      <trkpt lat="44.47728" lon="5.97529">
        <ele>1022.9802246</ele>
        <time>2012-03-04T11:07:33Z</time>
      </trkpt>
      <trkpt lat="44.47728" lon="5.97529">
        <ele>1024.4221191</ele>
        <time>2012-03-04T11:08:19Z</time>
      </trkpt>
      <trkpt lat="44.47727" lon="5.97519">
        <ele>1025.3833008</ele>
        <time>2012-03-04T11:08:24Z</time>
      </trkpt>
      <trkpt lat="44.47727" lon="5.9751">
        <ele>1024.902832</ele>
        <time>2012-03-04T11:08:28Z</time>
      </trkpt>
      <trkpt lat="44.47727" lon="5.97491">
        <ele>1025.3833008</ele>
        <time>2012-03-04T11:08:35Z</time>
      </trkpt>
      <trkpt lat="44.47727" lon="5.97482">
        <ele>1025.3833008</ele>
        <time>2012-03-04T11:08:38Z</time>
      </trkpt>
      <trkpt lat="44.47727" lon="5.97437">
        <ele>1024.902832</ele>
        <time>2012-03-04T11:08:52Z</time>
      </trkpt>
      <trkpt lat="44.47739" lon="5.97387">
        <ele>1024.902832</ele>
        <time>2012-03-04T11:09:05Z</time>
      </trkpt>
      <trkpt lat="44.47787" lon="5.97348">
        <ele>1024.4221191</ele>
        <time>2012-03-04T11:09:20Z</time>
      </trkpt>
      <trkpt lat="44.47796" lon="5.97328">
        <ele>1023.9414063</ele>
        <time>2012-03-04T11:09:24Z</time>
      </trkpt>
      <trkpt lat="44.47775" lon="5.97286">
        <ele>1023.9414063</ele>
        <time>2012-03-04T11:09:33Z</time>
      </trkpt>
      <trkpt lat="44.47767" lon="5.97282">
        <ele>1024.4221191</ele>
        <time>2012-03-04T11:09:35Z</time>
      </trkpt>
      <trkpt lat="44.47749" lon="5.97278">
        <ele>1024.4221191</ele>
        <time>2012-03-04T11:09:39Z</time>
      </trkpt>
      <trkpt lat="44.47716" lon="5.97256">
        <ele>1023.4609375</ele>
        <time>2012-03-04T11:09:47Z</time>
      </trkpt>
      <trkpt lat="44.47707" lon="5.97242">
        <ele>1023.4609375</ele>
        <time>2012-03-04T11:09:50Z</time>
      </trkpt>
      <trkpt lat="44.47659" lon="5.97142">
        <ele>1022.9802246</ele>
        <time>2012-03-04T11:10:09Z</time>
      </trkpt>
      <trkpt lat="44.47599" lon="5.97048">
        <ele>1023.4609375</ele>
        <time>2012-03-04T11:10:29Z</time>
      </trkpt>
      <trkpt lat="44.47512" lon="5.96954">
        <ele>1022.4995117</ele>
        <time>2012-03-04T11:10:53Z</time>
      </trkpt>
      <trkpt lat="44.47505" lon="5.96944">
        <ele>1022.4995117</ele>
        <time>2012-03-04T11:10:55Z</time>
      </trkpt>
      <trkpt lat="44.47503" lon="5.96905">
        <ele>1022.4995117</ele>
        <time>2012-03-04T11:11:03Z</time>
      </trkpt>
      <trkpt lat="44.47524" lon="5.96873">
        <ele>1021.0576172</ele>
        <time>2012-03-04T11:11:09Z</time>
      </trkpt>
      <trkpt lat="44.47539" lon="5.96843">
        <ele>1019.6154785</ele>
        <time>2012-03-04T11:11:13Z</time>
      </trkpt>
      <trkpt lat="44.47547" lon="5.96794">
        <ele>1018.6540527</ele>
        <time>2012-03-04T11:11:18Z</time>
      </trkpt>
      <trkpt lat="44.47548" lon="5.96774">
        <ele>1017.2121582</ele>
        <time>2012-03-04T11:11:20Z</time>
      </trkpt>
      <trkpt lat="44.4758" lon="5.96693">
        <ele>1015.7702637</ele>
        <time>2012-03-04T11:11:29Z</time>
      </trkpt>
      <trkpt lat="44.47568" lon="5.96646">
        <ele>1013.8474121</ele>
        <time>2012-03-04T11:11:37Z</time>
      </trkpt>
      <trkpt lat="44.47541" lon="5.96643">
        <ele>1014.328125</ele>
        <time>2012-03-04T11:11:43Z</time>
      </trkpt>
      <trkpt lat="44.47519" lon="5.96661">
        <ele>1014.8088379</ele>
        <time>2012-03-04T11:11:48Z</time>
      </trkpt>
      <trkpt lat="44.4748" lon="5.96701">
        <ele>1015.2895508</ele>
        <time>2012-03-04T11:12:01Z</time>
      </trkpt>
      <trkpt lat="44.47468" lon="5.96727">
        <ele>1014.328125</ele>
        <time>2012-03-04T11:12:06Z</time>
      </trkpt>
      <trkpt lat="44.47435" lon="5.96751">
        <ele>1015.7702637</ele>
        <time>2012-03-04T11:12:14Z</time>
      </trkpt>
      <trkpt lat="44.47367" lon="5.96749">
        <ele>1012.4055176</ele>
        <time>2012-03-04T11:12:26Z</time>
      </trkpt>
      <trkpt lat="44.4736" lon="5.9675">
        <ele>1012.4055176</ele>
        <time>2012-03-04T11:12:27Z</time>
      </trkpt>
      <trkpt lat="44.47311" lon="5.96761">
        <ele>1010.0021973</ele>
        <time>2012-03-04T11:12:34Z</time>
      </trkpt>
      <trkpt lat="44.4727" lon="5.96777">
        <ele>1007.5991211</ele>
        <time>2012-03-04T11:12:39Z</time>
      </trkpt>
      <trkpt lat="44.47241" lon="5.96777">
        <ele>1008.079834</ele>
        <time>2012-03-04T11:12:43Z</time>
      </trkpt>
      <trkpt lat="44.47171" lon="5.96758">
        <ele>1008.079834</ele>
        <time>2012-03-04T11:12:58Z</time>
      </trkpt>
      <trkpt lat="44.47111" lon="5.96762">
        <ele>1007.1184082</ele>
        <time>2012-03-04T11:13:08Z</time>
      </trkpt>
      <trkpt lat="44.47009" lon="5.96817">
        <ele>1003.7536621</ele>
        <time>2012-03-04T11:13:24Z</time>
      </trkpt>
      <trkpt lat="44.46961" lon="5.96837">
        <ele>1003.2729492</ele>
        <time>2012-03-04T11:13:32Z</time>
      </trkpt>
      <trkpt lat="44.46932" lon="5.96839">
        <ele>1002.3115234</ele>
        <time>2012-03-04T11:13:37Z</time>
      </trkpt>
      <trkpt lat="44.46849" lon="5.96803">
        <ele>999.9084473</ele>
        <time>2012-03-04T11:13:52Z</time>
      </trkpt>
      <trkpt lat="44.4675" lon="5.96757">
        <ele>998.4663086</ele>
        <time>2012-03-04T11:14:12Z</time>
      </trkpt>
      <trkpt lat="44.46745" lon="5.96755">
        <ele>998.4663086</ele>
        <time>2012-03-04T11:14:13Z</time>
      </trkpt>
      <trkpt lat="44.46641" lon="5.96708">
        <ele>998.4663086</ele>
        <time>2012-03-04T11:14:36Z</time>
      </trkpt>
      <trkpt lat="44.46541" lon="5.96663">
        <ele>999.9084473</ele>
        <time>2012-03-04T11:14:59Z</time>
      </trkpt>
      <trkpt lat="44.46532" lon="5.9666">
        <ele>998.9470215</ele>
        <time>2012-03-04T11:15:01Z</time>
      </trkpt>
      <trkpt lat="44.46508" lon="5.96661">
        <ele>999.4277344</ele>
        <time>2012-03-04T11:15:06Z</time>
      </trkpt>
      <trkpt lat="44.46499" lon="5.96667">
        <ele>998.9470215</ele>
        <time>2012-03-04T11:15:08Z</time>
      </trkpt>
      <trkpt lat="44.46464" lon="5.96712">
        <ele>998.9470215</ele>
        <time>2012-03-04T11:15:17Z</time>
      </trkpt>
      <trkpt lat="44.46434" lon="5.9673">
        <ele>998.4663086</ele>
        <time>2012-03-04T11:15:23Z</time>
      </trkpt>
      <trkpt lat="44.46359" lon="5.96756">
        <ele>999.4277344</ele>
        <time>2012-03-04T11:15:39Z</time>
      </trkpt>
      <trkpt lat="44.46315" lon="5.96763">
        <ele>999.9084473</ele>
        <time>2012-03-04T11:15:49Z</time>
      </trkpt>
      <trkpt lat="44.46287" lon="5.96781">
        <ele>1000.3891602</ele>
        <time>2012-03-04T11:15:57Z</time>
      </trkpt>
      <trkpt lat="44.46244" lon="5.96846">
        <ele>1000.8696289</ele>
        <time>2012-03-04T11:16:13Z</time>
      </trkpt>
      <trkpt lat="44.46241" lon="5.96851">
        <ele>1000.8696289</ele>
        <time>2012-03-04T11:16:14Z</time>
      </trkpt>
      <trkpt lat="44.46231" lon="5.96886">
        <ele>1001.3503418</ele>
        <time>2012-03-04T11:16:20Z</time>
      </trkpt>
      <trkpt lat="44.46221" lon="5.96936">
        <ele>1001.3503418</ele>
        <time>2012-03-04T11:16:29Z</time>
      </trkpt>
      <trkpt lat="44.46196" lon="5.96971">
        <ele>1001.3503418</ele>
        <time>2012-03-04T11:16:37Z</time>
      </trkpt>
      <trkpt lat="44.46175" lon="5.96978">
        <ele>1002.3115234</ele>
        <time>2012-03-04T11:16:42Z</time>
      </trkpt>
      <trkpt lat="44.46161" lon="5.96986">
        <ele>1001.8310547</ele>
        <time>2012-03-04T11:16:46Z</time>
      </trkpt>
      <trkpt lat="44.46144" lon="5.97008">
        <ele>1002.3115234</ele>
        <time>2012-03-04T11:16:51Z</time>
      </trkpt>
      <trkpt lat="44.46121" lon="5.97078">
        <ele>1002.7922363</ele>
        <time>2012-03-04T11:17:03Z</time>
      </trkpt>
      <trkpt lat="44.4609" lon="5.97118">
        <ele>1002.3115234</ele>
        <time>2012-03-04T11:17:13Z</time>
      </trkpt>
      <trkpt lat="44.46063" lon="5.97123">
        <ele>1002.7922363</ele>
        <time>2012-03-04T11:17:20Z</time>
      </trkpt>
      <trkpt lat="44.46042" lon="5.97142">
        <ele>1002.7922363</ele>
        <time>2012-03-04T11:17:26Z</time>
      </trkpt>
      <trkpt lat="44.45998" lon="5.97214">
        <ele>1003.7536621</ele>
        <time>2012-03-04T11:17:42Z</time>
      </trkpt>
      <trkpt lat="44.45978" lon="5.97272">
        <ele>1003.7536621</ele>
        <time>2012-03-04T11:17:52Z</time>
      </trkpt>
      <trkpt lat="44.45976" lon="5.97277">
        <ele>1003.7536621</ele>
        <time>2012-03-04T11:17:53Z</time>
      </trkpt>
      <trkpt lat="44.45962" lon="5.97316">
        <ele>1003.7536621</ele>
        <time>2012-03-04T11:18:00Z</time>
      </trkpt>
      <trkpt lat="44.45951" lon="5.97341">
        <ele>1004.2346191</ele>
        <time>2012-03-04T11:18:05Z</time>
      </trkpt>
      <trkpt lat="44.45946" lon="5.97372">
        <ele>1004.7150879</ele>
        <time>2012-03-04T11:18:11Z</time>
      </trkpt>
      <trkpt lat="44.45948" lon="5.97403">
        <ele>1004.7150879</ele>
        <time>2012-03-04T11:18:16Z</time>
      </trkpt>
      <trkpt lat="44.45966" lon="5.97438">
        <ele>1004.7150879</ele>
        <time>2012-03-04T11:18:23Z</time>
      </trkpt>
      <trkpt lat="44.46021" lon="5.97467">
        <ele>1004.7150879</ele>
        <time>2012-03-04T11:18:37Z</time>
      </trkpt>
      <trkpt lat="44.46037" lon="5.97517">
        <ele>1006.1569824</ele>
        <time>2012-03-04T11:18:47Z</time>
      </trkpt>
      <trkpt lat="44.46017" lon="5.97584">
        <ele>1005.6765137</ele>
        <time>2012-03-04T11:19:00Z</time>
      </trkpt>
      <trkpt lat="44.4601" lon="5.9761">
        <ele>1006.6376953</ele>
        <time>2012-03-04T11:19:05Z</time>
      </trkpt>
      <trkpt lat="44.45994" lon="5.97652">
        <ele>1007.1184082</ele>
        <time>2012-03-04T11:19:13Z</time>
      </trkpt>
      <trkpt lat="44.45947" lon="5.97688">
        <ele>1007.5991211</ele>
        <time>2012-03-04T11:19:26Z</time>
      </trkpt>
      <trkpt lat="44.45903" lon="5.97728">
        <ele>1008.079834</ele>
        <time>2012-03-04T11:19:40Z</time>
      </trkpt>
      <trkpt lat="44.45895" lon="5.9774">
        <ele>1008.079834</ele>
        <time>2012-03-04T11:19:43Z</time>
      </trkpt>
      <trkpt lat="44.45888" lon="5.97754">
        <ele>1007.5991211</ele>
        <time>2012-03-04T11:19:46Z</time>
      </trkpt>
      <trkpt lat="44.45881" lon="5.97833">
        <ele>1008.5603027</ele>
        <time>2012-03-04T11:20:01Z</time>
      </trkpt>
      <trkpt lat="44.45865" lon="5.97892">
        <ele>1009.5217285</ele>
        <time>2012-03-04T11:20:14Z</time>
      </trkpt>
      <trkpt lat="44.45825" lon="5.97975">
        <ele>1010.4829102</ele>
        <time>2012-03-04T11:20:35Z</time>
      </trkpt>
      <trkpt lat="44.45783" lon="5.98054">
        <ele>1010.963623</ele>
        <time>2012-03-04T11:20:56Z</time>
      </trkpt>
      <trkpt lat="44.45735" lon="5.98095">
        <ele>1013.3669434</ele>
        <time>2012-03-04T11:21:14Z</time>
      </trkpt>
      <trkpt lat="44.45694" lon="5.98128">
        <ele>1016.7314453</ele>
        <time>2012-03-04T11:21:34Z</time>
      </trkpt>
      <trkpt lat="44.45648" lon="5.98167">
        <ele>1019.1347656</ele>
        <time>2012-03-04T11:21:57Z</time>
      </trkpt>
      <trkpt lat="44.45605" lon="5.98181">
        <ele>1022.0187988</ele>
        <time>2012-03-04T11:22:18Z</time>
      </trkpt>
      <trkpt lat="44.45568" lon="5.98191">
        <ele>1025.3833008</ele>
        <time>2012-03-04T11:22:37Z</time>
      </trkpt>
      <trkpt lat="44.45533" lon="5.982">
        <ele>1028.267334</ele>
        <time>2012-03-04T11:22:55Z</time>
      </trkpt>
      <trkpt lat="44.45499" lon="5.98209">
        <ele>1030.6706543</ele>
        <time>2012-03-04T11:23:14Z</time>
      </trkpt>
      <trkpt lat="44.45467" lon="5.9822">
        <ele>1033.5544434</ele>
        <time>2012-03-04T11:23:32Z</time>
      </trkpt>
      <trkpt lat="44.45432" lon="5.98235">
        <ele>1036.9191895</ele>
        <time>2012-03-04T11:23:51Z</time>
      </trkpt>
      <trkpt lat="44.45389" lon="5.98242">
        <ele>1039.8032227</ele>
        <time>2012-03-04T11:24:13Z</time>
      </trkpt>
      <trkpt lat="44.45356" lon="5.98243">
        <ele>1043.1677246</ele>
        <time>2012-03-04T11:24:32Z</time>
      </trkpt>
      <trkpt lat="44.45327" lon="5.98236">
        <ele>1046.0517578</ele>
        <time>2012-03-04T11:24:47Z</time>
      </trkpt>
      <trkpt lat="44.45326" lon="5.98236">
        <ele>1046.0517578</ele>
        <time>2012-03-04T11:24:48Z</time>
      </trkpt>
      <trkpt lat="44.45298" lon="5.98227">
        <ele>1049.4162598</ele>
        <time>2012-03-04T11:25:03Z</time>
      </trkpt>
      <trkpt lat="44.45296" lon="5.98226">
        <ele>1049.4162598</ele>
        <time>2012-03-04T11:25:04Z</time>
      </trkpt>
      <trkpt lat="44.45283" lon="5.98222">
        <ele>1050.3776855</ele>
        <time>2012-03-04T11:25:11Z</time>
      </trkpt>
      <trkpt lat="44.45257" lon="5.98209">
        <ele>1051.8195801</ele>
        <time>2012-03-04T11:25:26Z</time>
      </trkpt>
      <trkpt lat="44.45218" lon="5.98179">
        <ele>1051.3388672</ele>
        <time>2012-03-04T11:25:44Z</time>
      </trkpt>
      <trkpt lat="44.45206" lon="5.98174">
        <ele>1050.3776855</ele>
        <time>2012-03-04T11:25:57Z</time>
      </trkpt>
      <trkpt lat="44.45206" lon="5.98174">
        <ele>1051.8195801</ele>
        <time>2012-03-04T11:26:20Z</time>
      </trkpt>
      <trkpt lat="44.45206" lon="5.98174">
        <ele>1051.8195801</ele>
        <time>2012-03-04T11:26:53Z</time>
      </trkpt>
      <trkpt lat="44.45206" lon="5.98174">
        <ele>1050.8581543</ele>
        <time>2012-03-04T11:27:20Z</time>
      </trkpt>
      <trkpt lat="44.45203" lon="5.98174">
        <ele>1050.8581543</ele>
        <time>2012-03-04T11:27:25Z</time>
      </trkpt>
      <trkpt lat="44.4519" lon="5.98179">
        <ele>1049.8969727</ele>
        <time>2012-03-04T11:27:28Z</time>
      </trkpt>
      <trkpt lat="44.45183" lon="5.98188">
        <ele>1048.9355469</ele>
        <time>2012-03-04T11:27:30Z</time>
      </trkpt>
      <trkpt lat="44.45162" lon="5.9823">
        <ele>1045.090332</ele>
        <time>2012-03-04T11:27:36Z</time>
      </trkpt>
      <trkpt lat="44.45158" lon="5.98238">
        <ele>1045.090332</ele>
        <time>2012-03-04T11:27:37Z</time>
      </trkpt>
      <trkpt lat="44.45155" lon="5.98244">
        <ele>1042.6872559</ele>
        <time>2012-03-04T11:27:38Z</time>
      </trkpt>
      <trkpt lat="44.45131" lon="5.98273">
        <ele>1039.8032227</ele>
        <time>2012-03-04T11:27:43Z</time>
      </trkpt>
      <trkpt lat="44.45124" lon="5.98279">
        <ele>1039.8032227</ele>
        <time>2012-03-04T11:27:44Z</time>
      </trkpt>
      <trkpt lat="44.45108" lon="5.98291">
        <ele>1038.3613281</ele>
        <time>2012-03-04T11:27:46Z</time>
      </trkpt>
      <trkpt lat="44.45074" lon="5.98304">
        <ele>1034.996582</ele>
        <time>2012-03-04T11:27:50Z</time>
      </trkpt>
      <trkpt lat="44.45055" lon="5.98308">
        <ele>1032.1125488</ele>
        <time>2012-03-04T11:27:52Z</time>
      </trkpt>
      <trkpt lat="44.45045" lon="5.98309">
        <ele>1032.1125488</ele>
        <time>2012-03-04T11:27:53Z</time>
      </trkpt>
      <trkpt lat="44.45027" lon="5.98311">
        <ele>1030.6706543</ele>
        <time>2012-03-04T11:27:55Z</time>
      </trkpt>
      <trkpt lat="44.45009" lon="5.98314">
        <ele>1028.267334</ele>
        <time>2012-03-04T11:27:57Z</time>
      </trkpt>
      <trkpt lat="44.44991" lon="5.98316">
        <ele>1025.3833008</ele>
        <time>2012-03-04T11:27:59Z</time>
      </trkpt>
      <trkpt lat="44.44981" lon="5.98317">
        <ele>1025.3833008</ele>
        <time>2012-03-04T11:28:00Z</time>
      </trkpt>
      <trkpt lat="44.44965" lon="5.9832">
        <ele>1023.9414063</ele>
        <time>2012-03-04T11:28:02Z</time>
      </trkpt>
      <trkpt lat="44.44949" lon="5.98322">
        <ele>1022.4995117</ele>
        <time>2012-03-04T11:28:04Z</time>
      </trkpt>
      <trkpt lat="44.44932" lon="5.98325">
        <ele>1019.1347656</ele>
        <time>2012-03-04T11:28:06Z</time>
      </trkpt>
      <trkpt lat="44.44912" lon="5.98332">
        <ele>1017.2121582</ele>
        <time>2012-03-04T11:28:09Z</time>
      </trkpt>
      <trkpt lat="44.44904" lon="5.9834">
        <ele>1015.7702637</ele>
        <time>2012-03-04T11:28:11Z</time>
      </trkpt>
      <trkpt lat="44.44901" lon="5.98343">
        <ele>1014.8088379</ele>
        <time>2012-03-04T11:28:12Z</time>
      </trkpt>
      <trkpt lat="44.44897" lon="5.98351">
        <ele>1013.8474121</ele>
        <time>2012-03-04T11:28:14Z</time>
      </trkpt>
      <trkpt lat="44.4489" lon="5.9838">
        <ele>1011.4443359</ele>
        <time>2012-03-04T11:28:19Z</time>
      </trkpt>
      <trkpt lat="44.4489" lon="5.98396">
        <ele>1010.0021973</ele>
        <time>2012-03-04T11:28:21Z</time>
      </trkpt>
      <trkpt lat="44.44881" lon="5.98447">
        <ele>1006.6376953</ele>
        <time>2012-03-04T11:28:27Z</time>
      </trkpt>
      <trkpt lat="44.44884" lon="5.98482">
        <ele>1004.2346191</ele>
        <time>2012-03-04T11:28:32Z</time>
      </trkpt>
      <trkpt lat="44.44896" lon="5.98521">
        <ele>1001.3503418</ele>
        <time>2012-03-04T11:28:37Z</time>
      </trkpt>
      <trkpt lat="44.44879" lon="5.98549">
        <ele>999.9084473</ele>
        <time>2012-03-04T11:28:41Z</time>
      </trkpt>
      <trkpt lat="44.44859" lon="5.98556">
        <ele>997.505127</ele>
        <time>2012-03-04T11:28:44Z</time>
      </trkpt>
      <trkpt lat="44.44835" lon="5.9856">
        <ele>993.6599121</ele>
        <time>2012-03-04T11:28:51Z</time>
      </trkpt>
      <trkpt lat="44.4483" lon="5.9856">
        <ele>992.6987305</ele>
        <time>2012-03-04T11:29:02Z</time>
      </trkpt>
      <trkpt lat="44.4483" lon="5.9856">
        <ele>993.1791992</ele>
        <time>2012-03-04T11:30:43Z</time>
      </trkpt>
      <trkpt lat="44.44814" lon="5.98558">
        <ele>991.7373047</ele>
        <time>2012-03-04T11:30:48Z</time>
      </trkpt>
      <trkpt lat="44.44774" lon="5.98559">
        <ele>987.4111328</ele>
        <time>2012-03-04T11:30:55Z</time>
      </trkpt>
      <trkpt lat="44.44766" lon="5.98558">
        <ele>987.4111328</ele>
        <time>2012-03-04T11:30:56Z</time>
      </trkpt>
      <trkpt lat="44.44749" lon="5.98557">
        <ele>985.9692383</ele>
        <time>2012-03-04T11:30:58Z</time>
      </trkpt>
      <trkpt lat="44.4473" lon="5.98555">
        <ele>984.5273438</ele>
        <time>2012-03-04T11:31:00Z</time>
      </trkpt>
      <trkpt lat="44.44712" lon="5.98553">
        <ele>981.1628418</ele>
        <time>2012-03-04T11:31:02Z</time>
      </trkpt>
      <trkpt lat="44.44702" lon="5.98555">
        <ele>981.1628418</ele>
        <time>2012-03-04T11:31:03Z</time>
      </trkpt>
      <trkpt lat="44.44694" lon="5.98556">
        <ele>978.7595215</ele>
        <time>2012-03-04T11:31:04Z</time>
      </trkpt>
      <trkpt lat="44.44668" lon="5.98563">
        <ele>976.8369141</ele>
        <time>2012-03-04T11:31:07Z</time>
      </trkpt>
      <trkpt lat="44.44643" lon="5.98575">
        <ele>974.9143066</ele>
        <time>2012-03-04T11:31:10Z</time>
      </trkpt>
      <trkpt lat="44.44611" lon="5.98592">
        <ele>972.0302734</ele>
        <time>2012-03-04T11:31:14Z</time>
      </trkpt>
      <trkpt lat="44.44588" lon="5.98604">
        <ele>969.6269531</ele>
        <time>2012-03-04T11:31:17Z</time>
      </trkpt>
      <trkpt lat="44.44581" lon="5.98608">
        <ele>968.6655273</ele>
        <time>2012-03-04T11:31:18Z</time>
      </trkpt>
      <trkpt lat="44.4456" lon="5.98614">
        <ele>967.2236328</ele>
        <time>2012-03-04T11:31:21Z</time>
      </trkpt>
      <trkpt lat="44.44537" lon="5.9862">
        <ele>965.3010254</ele>
        <time>2012-03-04T11:31:24Z</time>
      </trkpt>
      <trkpt lat="44.44521" lon="5.98624">
        <ele>963.8588867</ele>
        <time>2012-03-04T11:31:26Z</time>
      </trkpt>
      <trkpt lat="44.44492" lon="5.98638">
        <ele>961.4558105</ele>
        <time>2012-03-04T11:31:30Z</time>
      </trkpt>
      <trkpt lat="44.4447" lon="5.98646">
        <ele>959.5332031</ele>
        <time>2012-03-04T11:31:33Z</time>
      </trkpt>
      <trkpt lat="44.44444" lon="5.98668">
        <ele>956.6491699</ele>
        <time>2012-03-04T11:31:37Z</time>
      </trkpt>
      <trkpt lat="44.44423" lon="5.98676">
        <ele>955.2070313</ele>
        <time>2012-03-04T11:31:40Z</time>
      </trkpt>
      <trkpt lat="44.44392" lon="5.98682">
        <ele>952.8037109</ele>
        <time>2012-03-04T11:31:44Z</time>
      </trkpt>
      <trkpt lat="44.44369" lon="5.98682">
        <ele>950.4006348</ele>
        <time>2012-03-04T11:31:47Z</time>
      </trkpt>
      <trkpt lat="44.44354" lon="5.9868">
        <ele>948.9584961</ele>
        <time>2012-03-04T11:31:49Z</time>
      </trkpt>
      <trkpt lat="44.44322" lon="5.98676">
        <ele>945.5939941</ele>
        <time>2012-03-04T11:31:53Z</time>
      </trkpt>
      <trkpt lat="44.44314" lon="5.98674">
        <ele>945.5939941</ele>
        <time>2012-03-04T11:31:54Z</time>
      </trkpt>
      <trkpt lat="44.44298" lon="5.98672">
        <ele>944.1520996</ele>
        <time>2012-03-04T11:31:56Z</time>
      </trkpt>
      <trkpt lat="44.44283" lon="5.98669">
        <ele>943.1906738</ele>
        <time>2012-03-04T11:31:58Z</time>
      </trkpt>
      <trkpt lat="44.44277" lon="5.98668">
        <ele>941.7487793</ele>
        <time>2012-03-04T11:31:59Z</time>
      </trkpt>
      <trkpt lat="44.44263" lon="5.98664">
        <ele>940.7873535</ele>
        <time>2012-03-04T11:32:01Z</time>
      </trkpt>
      <trkpt lat="44.44257" lon="5.98661">
        <ele>939.8259277</ele>
        <time>2012-03-04T11:32:02Z</time>
      </trkpt>
      <trkpt lat="44.44224" lon="5.98657">
        <ele>937.9033203</ele>
        <time>2012-03-04T11:32:07Z</time>
      </trkpt>
      <trkpt lat="44.44208" lon="5.98668">
        <ele>935.5</ele>
        <time>2012-03-04T11:32:10Z</time>
      </trkpt>
      <trkpt lat="44.44202" lon="5.98674">
        <ele>935.0195313</ele>
        <time>2012-03-04T11:32:11Z</time>
      </trkpt>
      <trkpt lat="44.44156" lon="5.98674">
        <ele>931.6547852</ele>
        <time>2012-03-04T11:32:17Z</time>
      </trkpt>
      <trkpt lat="44.4413" lon="5.98656">
        <ele>928.7709961</ele>
        <time>2012-03-04T11:32:21Z</time>
      </trkpt>
      <trkpt lat="44.44116" lon="5.98634">
        <ele>926.3676758</ele>
        <time>2012-03-04T11:32:24Z</time>
      </trkpt>
      <trkpt lat="44.44092" lon="5.98591">
        <ele>922.5222168</ele>
        <time>2012-03-04T11:32:30Z</time>
      </trkpt>
      <trkpt lat="44.44089" lon="5.98584">
        <ele>922.5222168</ele>
        <time>2012-03-04T11:32:31Z</time>
      </trkpt>
      <trkpt lat="44.44069" lon="5.98562">
        <ele>920.1188965</ele>
        <time>2012-03-04T11:32:35Z</time>
      </trkpt>
      <trkpt lat="44.44052" lon="5.98549">
        <ele>918.677002</ele>
        <time>2012-03-04T11:32:38Z</time>
      </trkpt>
      <trkpt lat="44.44027" lon="5.98533">
        <ele>915.7932129</ele>
        <time>2012-03-04T11:32:42Z</time>
      </trkpt>
      <trkpt lat="44.44009" lon="5.98523">
        <ele>913.8703613</ele>
        <time>2012-03-04T11:32:45Z</time>
      </trkpt>
      <trkpt lat="44.43964" lon="5.98496">
        <ele>910.0251465</ele>
        <time>2012-03-04T11:32:52Z</time>
      </trkpt>
      <trkpt lat="44.43949" lon="5.98487">
        <ele>909.0639648</ele>
        <time>2012-03-04T11:32:54Z</time>
      </trkpt>
      <trkpt lat="44.43935" lon="5.98478">
        <ele>907.6218262</ele>
        <time>2012-03-04T11:32:56Z</time>
      </trkpt>
      <trkpt lat="44.43911" lon="5.98459">
        <ele>904.737793</ele>
        <time>2012-03-04T11:33:00Z</time>
      </trkpt>
      <trkpt lat="44.43906" lon="5.98454">
        <ele>904.737793</ele>
        <time>2012-03-04T11:33:01Z</time>
      </trkpt>
      <trkpt lat="44.43894" lon="5.98445">
        <ele>903.2958984</ele>
        <time>2012-03-04T11:33:03Z</time>
      </trkpt>
      <trkpt lat="44.43875" lon="5.98432">
        <ele>900.4121094</ele>
        <time>2012-03-04T11:33:07Z</time>
      </trkpt>
      <trkpt lat="44.4385" lon="5.98433">
        <ele>898.4892578</ele>
        <time>2012-03-04T11:33:13Z</time>
      </trkpt>
      <trkpt lat="44.4384" lon="5.98441">
        <ele>898.0087891</ele>
        <time>2012-03-04T11:33:15Z</time>
      </trkpt>
      <trkpt lat="44.43827" lon="5.98458">
        <ele>896.0861816</ele>
        <time>2012-03-04T11:33:18Z</time>
      </trkpt>
      <trkpt lat="44.43802" lon="5.98459">
        <ele>893.2021484</ele>
        <time>2012-03-04T11:33:22Z</time>
      </trkpt>
      <trkpt lat="44.43796" lon="5.98453">
        <ele>892.2409668</ele>
        <time>2012-03-04T11:33:23Z</time>
      </trkpt>
      <trkpt lat="44.4377" lon="5.98441">
        <ele>890.798584</ele>
        <time>2012-03-04T11:33:27Z</time>
      </trkpt>
      <trkpt lat="44.43757" lon="5.98431">
        <ele>889.8374023</ele>
        <time>2012-03-04T11:33:29Z</time>
      </trkpt>
      <trkpt lat="44.43744" lon="5.98416">
        <ele>887.9147949</ele>
        <time>2012-03-04T11:33:31Z</time>
      </trkpt>
      <trkpt lat="44.43731" lon="5.98401">
        <ele>886.4729004</ele>
        <time>2012-03-04T11:33:33Z</time>
      </trkpt>
      <trkpt lat="44.43718" lon="5.98387">
        <ele>885.5114746</ele>
        <time>2012-03-04T11:33:35Z</time>
      </trkpt>
      <trkpt lat="44.43707" lon="5.98375">
        <ele>883.1081543</ele>
        <time>2012-03-04T11:33:37Z</time>
      </trkpt>
      <trkpt lat="44.43675" lon="5.98358">
        <ele>879.7436523</ele>
        <time>2012-03-04T11:33:46Z</time>
      </trkpt>
      <trkpt lat="44.43664" lon="5.98361">
        <ele>878.3017578</ele>
        <time>2012-03-04T11:33:56Z</time>
      </trkpt>
      <trkpt lat="44.43664" lon="5.98361">
        <ele>878.3017578</ele>
        <time>2012-03-04T11:34:59Z</time>
      </trkpt>
      <trkpt lat="44.43657" lon="5.98366">
        <ele>877.8210449</ele>
        <time>2012-03-04T11:35:03Z</time>
      </trkpt>
      <trkpt lat="44.43622" lon="5.9841">
        <ele>873.9755859</ele>
        <time>2012-03-04T11:35:11Z</time>
      </trkpt>
      <trkpt lat="44.43611" lon="5.98424">
        <ele>872.5336914</ele>
        <time>2012-03-04T11:35:13Z</time>
      </trkpt>
      <trkpt lat="44.436" lon="5.98439">
        <ele>871.0917969</ele>
        <time>2012-03-04T11:35:15Z</time>
      </trkpt>
      <trkpt lat="44.43564" lon="5.98472">
        <ele>866.7658691</ele>
        <time>2012-03-04T11:35:21Z</time>
      </trkpt>
      <trkpt lat="44.43558" lon="5.98476">
        <ele>866.7658691</ele>
        <time>2012-03-04T11:35:22Z</time>
      </trkpt>
      <trkpt lat="44.43547" lon="5.98484">
        <ele>864.3625488</ele>
        <time>2012-03-04T11:35:24Z</time>
      </trkpt>
      <trkpt lat="44.43524" lon="5.98501">
        <ele>861.4787598</ele>
        <time>2012-03-04T11:35:28Z</time>
      </trkpt>
      <trkpt lat="44.43519" lon="5.98504">
        <ele>861.4787598</ele>
        <time>2012-03-04T11:35:29Z</time>
      </trkpt>
      <trkpt lat="44.4351" lon="5.98508">
        <ele>859.5559082</ele>
        <time>2012-03-04T11:35:31Z</time>
      </trkpt>
      <trkpt lat="44.43495" lon="5.98495">
        <ele>857.6333008</ele>
        <time>2012-03-04T11:35:34Z</time>
      </trkpt>
      <trkpt lat="44.43494" lon="5.98462">
        <ele>856.1911621</ele>
        <time>2012-03-04T11:35:38Z</time>
      </trkpt>
      <trkpt lat="44.43502" lon="5.98403">
        <ele>851.8654785</ele>
        <time>2012-03-04T11:35:46Z</time>
      </trkpt>
      <trkpt lat="44.43508" lon="5.98325">
        <ele>849.9428711</ele>
        <time>2012-03-04T11:35:54Z</time>
      </trkpt>
      <trkpt lat="44.43508" lon="5.98276">
        <ele>848.9814453</ele>
        <time>2012-03-04T11:35:59Z</time>
      </trkpt>
      <trkpt lat="44.43507" lon="5.98264">
        <ele>847.0588379</ele>
        <time>2012-03-04T11:36:01Z</time>
      </trkpt>
      <trkpt lat="44.43505" lon="5.9825">
        <ele>849.4621582</ele>
        <time>2012-03-04T11:36:04Z</time>
      </trkpt>
      <trkpt lat="44.43503" lon="5.98226">
        <ele>848.0202637</ele>
        <time>2012-03-04T11:36:10Z</time>
      </trkpt>
      <trkpt lat="44.43501" lon="5.98205">
        <ele>845.1362305</ele>
        <time>2012-03-04T11:36:15Z</time>
      </trkpt>
      <trkpt lat="44.43503" lon="5.98195">
        <ele>843.2133789</ele>
        <time>2012-03-04T11:36:17Z</time>
      </trkpt>
      <trkpt lat="44.43513" lon="5.98163">
        <ele>842.7329102</ele>
        <time>2012-03-04T11:36:22Z</time>
      </trkpt>
      <trkpt lat="44.43521" lon="5.98145">
        <ele>841.7714844</ele>
        <time>2012-03-04T11:36:26Z</time>
      </trkpt>
      <trkpt lat="44.43522" lon="5.9814">
        <ele>841.2907715</ele>
        <time>2012-03-04T11:36:38Z</time>
      </trkpt>
      <trkpt lat="44.43523" lon="5.98137">
        <ele>841.7714844</ele>
        <time>2012-03-04T11:37:36Z</time>
      </trkpt>
      <trkpt lat="44.43554" lon="5.98137">
        <ele>841.7714844</ele>
        <time>2012-03-04T11:37:41Z</time>
      </trkpt>
      <trkpt lat="44.4359" lon="5.98142">
        <ele>838.8876953</ele>
        <time>2012-03-04T11:37:47Z</time>
      </trkpt>
      <trkpt lat="44.43604" lon="5.98143">
        <ele>838.8876953</ele>
        <time>2012-03-04T11:37:49Z</time>
      </trkpt>
      <trkpt lat="44.43637" lon="5.98136">
        <ele>837.9262695</ele>
        <time>2012-03-04T11:37:54Z</time>
      </trkpt>
      <trkpt lat="44.43662" lon="5.9815">
        <ele>837.4455566</ele>
        <time>2012-03-04T11:37:59Z</time>
      </trkpt>
      <trkpt lat="44.43687" lon="5.98178">
        <ele>835.5229492</ele>
        <time>2012-03-04T11:38:04Z</time>
      </trkpt>
      <trkpt lat="44.43702" lon="5.98195">
        <ele>833.6003418</ele>
        <time>2012-03-04T11:38:07Z</time>
      </trkpt>
      <trkpt lat="44.4371" lon="5.98204">
        <ele>832.1584473</ele>
        <time>2012-03-04T11:38:09Z</time>
      </trkpt>
      <trkpt lat="44.43747" lon="5.98188">
        <ele>829.755127</ele>
        <time>2012-03-04T11:38:15Z</time>
      </trkpt>
      <trkpt lat="44.43765" lon="5.9815">
        <ele>827.8322754</ele>
        <time>2012-03-04T11:38:19Z</time>
      </trkpt>
      <trkpt lat="44.43778" lon="5.9811">
        <ele>825.909668</ele>
        <time>2012-03-04T11:38:23Z</time>
      </trkpt>
      <trkpt lat="44.43798" lon="5.98057">
        <ele>822.0644531</ele>
        <time>2012-03-04T11:38:28Z</time>
      </trkpt>
      <trkpt lat="44.43806" lon="5.98031">
        <ele>820.1418457</ele>
        <time>2012-03-04T11:38:30Z</time>
      </trkpt>
      <trkpt lat="44.43819" lon="5.97981">
        <ele>817.7385254</ele>
        <time>2012-03-04T11:38:34Z</time>
      </trkpt>
      <trkpt lat="44.43821" lon="5.97971">
        <ele>817.2580566</ele>
        <time>2012-03-04T11:38:35Z</time>
      </trkpt>
      <trkpt lat="44.4382" lon="5.97946">
        <ele>815.3354492</ele>
        <time>2012-03-04T11:38:38Z</time>
      </trkpt>
      <trkpt lat="44.43809" lon="5.97922">
        <ele>815.3354492</ele>
        <time>2012-03-04T11:38:41Z</time>
      </trkpt>
      <trkpt lat="44.43784" lon="5.97882">
        <ele>813.8933105</ele>
        <time>2012-03-04T11:38:46Z</time>
      </trkpt>
      <trkpt lat="44.43775" lon="5.97865">
        <ele>811.0092773</ele>
        <time>2012-03-04T11:38:48Z</time>
      </trkpt>
      <trkpt lat="44.43775" lon="5.9781">
        <ele>810.5285645</ele>
        <time>2012-03-04T11:38:53Z</time>
      </trkpt>
      <trkpt lat="44.43783" lon="5.97789">
        <ele>808.605957</ele>
        <time>2012-03-04T11:38:55Z</time>
      </trkpt>
      <trkpt lat="44.43804" lon="5.97735">
        <ele>807.6447754</ele>
        <time>2012-03-04T11:39:00Z</time>
      </trkpt>
      <trkpt lat="44.43831" lon="5.97663">
        <ele>808.1254883</ele>
        <time>2012-03-04T11:39:07Z</time>
      </trkpt>
      <trkpt lat="44.4385" lon="5.97614">
        <ele>803.3188477</ele>
        <time>2012-03-04T11:39:12Z</time>
      </trkpt>
      <trkpt lat="44.43854" lon="5.97604">
        <ele>804.2802734</ele>
        <time>2012-03-04T11:39:13Z</time>
      </trkpt>
      <trkpt lat="44.43894" lon="5.97461">
        <ele>804.2802734</ele>
        <time>2012-03-04T11:39:28Z</time>
      </trkpt>
      <trkpt lat="44.43898" lon="5.9744">
        <ele>803.3188477</ele>
        <time>2012-03-04T11:39:30Z</time>
      </trkpt>
      <trkpt lat="44.43899" lon="5.97431">
        <ele>802.3574219</ele>
        <time>2012-03-04T11:39:31Z</time>
      </trkpt>
      <trkpt lat="44.43922" lon="5.97324">
        <ele>799.9543457</ele>
        <time>2012-03-04T11:39:42Z</time>
      </trkpt>
      <trkpt lat="44.4394" lon="5.97229">
        <ele>797.5510254</ele>
        <time>2012-03-04T11:39:51Z</time>
      </trkpt>
      <trkpt lat="44.43947" lon="5.97195">
        <ele>795.6281738</ele>
        <time>2012-03-04T11:39:54Z</time>
      </trkpt>
      <trkpt lat="44.43961" lon="5.97155">
        <ele>792.7443848</ele>
        <time>2012-03-04T11:39:58Z</time>
      </trkpt>
      <trkpt lat="44.43968" lon="5.97146">
        <ele>791.3022461</ele>
        <time>2012-03-04T11:39:59Z</time>
      </trkpt>
      <trkpt lat="44.4398" lon="5.97126">
        <ele>790.3410645</ele>
        <time>2012-03-04T11:40:01Z</time>
      </trkpt>
      <trkpt lat="44.4398" lon="5.97073">
        <ele>789.3796387</ele>
        <time>2012-03-04T11:40:07Z</time>
      </trkpt>
      <trkpt lat="44.43975" lon="5.97067">
        <ele>790.3410645</ele>
        <time>2012-03-04T11:40:08Z</time>
      </trkpt>
      <trkpt lat="44.43947" lon="5.97022">
        <ele>791.782959</ele>
        <time>2012-03-04T11:40:16Z</time>
      </trkpt>
      <trkpt lat="44.43942" lon="5.96992">
        <ele>791.782959</ele>
        <time>2012-03-04T11:40:21Z</time>
      </trkpt>
      <trkpt lat="44.43942" lon="5.96979">
        <ele>792.2636719</ele>
        <time>2012-03-04T11:40:23Z</time>
      </trkpt>
      <trkpt lat="44.43933" lon="5.96873">
        <ele>795.6281738</ele>
        <time>2012-03-04T11:40:43Z</time>
      </trkpt>
      <trkpt lat="44.43929" lon="5.96781">
        <ele>797.5510254</ele>
        <time>2012-03-04T11:41:00Z</time>
      </trkpt>
      <trkpt lat="44.43934" lon="5.96745">
        <ele>797.5510254</ele>
        <time>2012-03-04T11:41:06Z</time>
      </trkpt>
      <trkpt lat="44.43953" lon="5.96623">
        <ele>794.666748</ele>
        <time>2012-03-04T11:41:22Z</time>
      </trkpt>
      <trkpt lat="44.43958" lon="5.96596">
        <ele>793.2248535</ele>
        <time>2012-03-04T11:41:25Z</time>
      </trkpt>
      <trkpt lat="44.43983" lon="5.9651">
        <ele>788.418457</ele>
        <time>2012-03-04T11:41:33Z</time>
      </trkpt>
      <trkpt lat="44.43993" lon="5.96484">
        <ele>786.9763184</ele>
        <time>2012-03-04T11:41:35Z</time>
      </trkpt>
      <trkpt lat="44.44023" lon="5.9641">
        <ele>787.4570313</ele>
        <time>2012-03-04T11:41:42Z</time>
      </trkpt>
      <trkpt lat="44.44047" lon="5.96336">
        <ele>790.3410645</ele>
        <time>2012-03-04T11:41:54Z</time>
      </trkpt>
      <trkpt lat="44.44079" lon="5.96232">
        <ele>793.2248535</ele>
        <time>2012-03-04T11:42:15Z</time>
      </trkpt>
      <trkpt lat="44.44106" lon="5.96145">
        <ele>795.1474609</ele>
        <time>2012-03-04T11:42:33Z</time>
      </trkpt>
      <trkpt lat="44.44115" lon="5.96123">
        <ele>795.6281738</ele>
        <time>2012-03-04T11:42:37Z</time>
      </trkpt>
      <trkpt lat="44.44134" lon="5.96108">
        <ele>796.1091309</ele>
        <time>2012-03-04T11:42:42Z</time>
      </trkpt>
      <trkpt lat="44.44171" lon="5.96106">
        <ele>796.5898438</ele>
        <time>2012-03-04T11:42:50Z</time>
      </trkpt>
      <trkpt lat="44.44197" lon="5.96081">
        <ele>795.1474609</ele>
        <time>2012-03-04T11:42:56Z</time>
      </trkpt>
      <trkpt lat="44.44193" lon="5.96052">
        <ele>793.7055664</ele>
        <time>2012-03-04T11:42:59Z</time>
      </trkpt>
      <trkpt lat="44.44203" lon="5.96002">
        <ele>792.2636719</ele>
        <time>2012-03-04T11:43:04Z</time>
      </trkpt>
      <trkpt lat="44.44217" lon="5.95977">
        <ele>791.3022461</ele>
        <time>2012-03-04T11:43:07Z</time>
      </trkpt>
      <trkpt lat="44.44226" lon="5.95936">
        <ele>789.3796387</ele>
        <time>2012-03-04T11:43:11Z</time>
      </trkpt>
      <trkpt lat="44.44233" lon="5.95915">
        <ele>788.8991699</ele>
        <time>2012-03-04T11:43:14Z</time>
      </trkpt>
      <trkpt lat="44.44247" lon="5.95898">
        <ele>787.4570313</ele>
        <time>2012-03-04T11:43:17Z</time>
      </trkpt>
      <trkpt lat="44.44254" lon="5.95894">
        <ele>787.4570313</ele>
        <time>2012-03-04T11:43:18Z</time>
      </trkpt>
      <trkpt lat="44.44267" lon="5.95882">
        <ele>786.0151367</ele>
        <time>2012-03-04T11:43:20Z</time>
      </trkpt>
      <trkpt lat="44.44286" lon="5.95853">
        <ele>782.1699219</ele>
        <time>2012-03-04T11:43:23Z</time>
      </trkpt>
      <trkpt lat="44.44293" lon="5.95844">
        <ele>782.1699219</ele>
        <time>2012-03-04T11:43:24Z</time>
      </trkpt>
      <trkpt lat="44.44305" lon="5.95827">
        <ele>780.7280273</ele>
        <time>2012-03-04T11:43:26Z</time>
      </trkpt>
      <trkpt lat="44.44331" lon="5.95813">
        <ele>782.1699219</ele>
        <time>2012-03-04T11:43:31Z</time>
      </trkpt>
      <trkpt lat="44.4434" lon="5.95813">
        <ele>782.1699219</ele>
        <time>2012-03-04T11:43:33Z</time>
      </trkpt>
      <trkpt lat="44.44362" lon="5.95812">
        <ele>781.2087402</ele>
        <time>2012-03-04T11:43:37Z</time>
      </trkpt>
      <trkpt lat="44.44375" lon="5.95811">
        <ele>780.7280273</ele>
        <time>2012-03-04T11:43:39Z</time>
      </trkpt>
      <trkpt lat="44.44405" lon="5.95782">
        <ele>778.3244629</ele>
        <time>2012-03-04T11:43:46Z</time>
      </trkpt>
      <trkpt lat="44.44401" lon="5.95725">
        <ele>776.4018555</ele>
        <time>2012-03-04T11:43:55Z</time>
      </trkpt>
      <trkpt lat="44.44368" lon="5.9568">
        <ele>776.4018555</ele>
        <time>2012-03-04T11:44:06Z</time>
      </trkpt>
      <trkpt lat="44.44361" lon="5.95675">
        <ele>776.4018555</ele>
        <time>2012-03-04T11:44:08Z</time>
      </trkpt>
      <trkpt lat="44.44276" lon="5.95638">
        <ele>779.2856445</ele>
        <time>2012-03-04T11:44:31Z</time>
      </trkpt>
      <trkpt lat="44.44224" lon="5.9563">
        <ele>780.7280273</ele>
        <time>2012-03-04T11:44:46Z</time>
      </trkpt>
      <trkpt lat="44.44199" lon="5.95651">
        <ele>781.2087402</ele>
        <time>2012-03-04T11:44:57Z</time>
      </trkpt>
      <trkpt lat="44.44149" lon="5.95705">
        <ele>783.1311035</ele>
        <time>2012-03-04T11:45:13Z</time>
      </trkpt>
      <trkpt lat="44.44108" lon="5.95763">
        <ele>784.5732422</ele>
        <time>2012-03-04T11:45:30Z</time>
      </trkpt>
      <trkpt lat="44.44077" lon="5.95792">
        <ele>786.4958496</ele>
        <time>2012-03-04T11:45:42Z</time>
      </trkpt>
      <trkpt lat="44.44045" lon="5.95751">
        <ele>787.4570313</ele>
        <time>2012-03-04T11:45:55Z</time>
      </trkpt>
      <trkpt lat="44.44041" lon="5.95658">
        <ele>789.8603516</ele>
        <time>2012-03-04T11:46:14Z</time>
      </trkpt>
      <trkpt lat="44.44013" lon="5.95579">
        <ele>791.3022461</ele>
        <time>2012-03-04T11:46:32Z</time>
      </trkpt>
      <trkpt lat="44.43983" lon="5.95505">
        <ele>791.782959</ele>
        <time>2012-03-04T11:46:48Z</time>
      </trkpt>
      <trkpt lat="44.43979" lon="5.95469">
        <ele>791.782959</ele>
        <time>2012-03-04T11:46:54Z</time>
      </trkpt>
      <trkpt lat="44.43981" lon="5.95409">
        <ele>792.7443848</ele>
        <time>2012-03-04T11:47:04Z</time>
      </trkpt>
      <trkpt lat="44.43996" lon="5.95289">
        <ele>793.7055664</ele>
        <time>2012-03-04T11:47:23Z</time>
      </trkpt>
      <trkpt lat="44.43993" lon="5.95226">
        <ele>795.1474609</ele>
        <time>2012-03-04T11:47:33Z</time>
      </trkpt>
      <trkpt lat="44.4398" lon="5.95204">
        <ele>794.1862793</ele>
        <time>2012-03-04T11:47:37Z</time>
      </trkpt>
      <trkpt lat="44.43942" lon="5.95157">
        <ele>794.666748</ele>
        <time>2012-03-04T11:47:48Z</time>
      </trkpt>
      <trkpt lat="44.43931" lon="5.95146">
        <ele>794.1862793</ele>
        <time>2012-03-04T11:47:51Z</time>
      </trkpt>
      <trkpt lat="44.43906" lon="5.95122">
        <ele>794.1862793</ele>
        <time>2012-03-04T11:47:58Z</time>
      </trkpt>
      <trkpt lat="44.43863" lon="5.95105">
        <ele>794.1862793</ele>
        <time>2012-03-04T11:48:08Z</time>
      </trkpt>
      <trkpt lat="44.43813" lon="5.95088">
        <ele>796.1091309</ele>
        <time>2012-03-04T11:48:20Z</time>
      </trkpt>
      <trkpt lat="44.43793" lon="5.9508">
        <ele>796.5898438</ele>
        <time>2012-03-04T11:48:25Z</time>
      </trkpt>
      <trkpt lat="44.43762" lon="5.95063">
        <ele>793.7055664</ele>
        <time>2012-03-04T11:48:33Z</time>
      </trkpt>
      <trkpt lat="44.43759" lon="5.95061">
        <ele>793.7055664</ele>
        <time>2012-03-04T11:48:34Z</time>
      </trkpt>
      <trkpt lat="44.43737" lon="5.9505">
        <ele>794.666748</ele>
        <time>2012-03-04T11:48:41Z</time>
      </trkpt>
      <trkpt lat="44.43694" lon="5.95004">
        <ele>791.782959</ele>
        <time>2012-03-04T11:48:50Z</time>
      </trkpt>
      <trkpt lat="44.43674" lon="5.94965">
        <ele>786.9763184</ele>
        <time>2012-03-04T11:48:56Z</time>
      </trkpt>
      <trkpt lat="44.43661" lon="5.94948">
        <ele>785.5344238</ele>
        <time>2012-03-04T11:48:59Z</time>
      </trkpt>
      <trkpt lat="44.43643" lon="5.94937">
        <ele>784.0925293</ele>
        <time>2012-03-04T11:49:02Z</time>
      </trkpt>
      <trkpt lat="44.43636" lon="5.94936">
        <ele>781.689209</ele>
        <time>2012-03-04T11:49:03Z</time>
      </trkpt>
      <trkpt lat="44.43566" lon="5.94917">
        <ele>780.7280273</ele>
        <time>2012-03-04T11:49:12Z</time>
      </trkpt>
      <trkpt lat="44.43534" lon="5.94927">
        <ele>779.2856445</ele>
        <time>2012-03-04T11:49:18Z</time>
      </trkpt>
      <trkpt lat="44.43509" lon="5.94955">
        <ele>776.8825684</ele>
        <time>2012-03-04T11:49:24Z</time>
      </trkpt>
      <trkpt lat="44.43472" lon="5.94956">
        <ele>774.479248</ele>
        <time>2012-03-04T11:49:30Z</time>
      </trkpt>
      <trkpt lat="44.43449" lon="5.94945">
        <ele>772.0759277</ele>
        <time>2012-03-04T11:49:34Z</time>
      </trkpt>
      <trkpt lat="44.43439" lon="5.94942">
        <ele>770.1533203</ele>
        <time>2012-03-04T11:49:36Z</time>
      </trkpt>
      <trkpt lat="44.43435" lon="5.9494">
        <ele>769.6728516</ele>
        <time>2012-03-04T11:49:37Z</time>
      </trkpt>
      <trkpt lat="44.43424" lon="5.94936">
        <ele>768.7114258</ele>
        <time>2012-03-04T11:49:39Z</time>
      </trkpt>
      <trkpt lat="44.43412" lon="5.94932">
        <ele>767.2695313</ele>
        <time>2012-03-04T11:49:41Z</time>
      </trkpt>
      <trkpt lat="44.4339" lon="5.9493">
        <ele>764.385498</ele>
        <time>2012-03-04T11:49:44Z</time>
      </trkpt>
      <trkpt lat="44.43376" lon="5.94929">
        <ele>763.4240723</ele>
        <time>2012-03-04T11:49:46Z</time>
      </trkpt>
      <trkpt lat="44.43361" lon="5.94931">
        <ele>761.5014648</ele>
        <time>2012-03-04T11:49:48Z</time>
      </trkpt>
      <trkpt lat="44.43333" lon="5.94935">
        <ele>758.6174316</ele>
        <time>2012-03-04T11:49:52Z</time>
      </trkpt>
      <trkpt lat="44.43327" lon="5.94936">
        <ele>758.6174316</ele>
        <time>2012-03-04T11:49:53Z</time>
      </trkpt>
      <trkpt lat="44.43312" lon="5.94937">
        <ele>757.1755371</ele>
        <time>2012-03-04T11:49:55Z</time>
      </trkpt>
      <trkpt lat="44.43299" lon="5.94939">
        <ele>756.2141113</ele>
        <time>2012-03-04T11:49:57Z</time>
      </trkpt>
      <trkpt lat="44.43266" lon="5.94938">
        <ele>753.3303223</ele>
        <time>2012-03-04T11:50:02Z</time>
      </trkpt>
      <trkpt lat="44.43255" lon="5.94939">
        <ele>751.8884277</ele>
        <time>2012-03-04T11:50:04Z</time>
      </trkpt>
      <trkpt lat="44.43239" lon="5.94964">
        <ele>748.5236816</ele>
        <time>2012-03-04T11:50:08Z</time>
      </trkpt>
      <trkpt lat="44.43237" lon="5.94975">
        <ele>748.5236816</ele>
        <time>2012-03-04T11:50:09Z</time>
      </trkpt>
      <trkpt lat="44.43232" lon="5.94998">
        <ele>747.081543</ele>
        <time>2012-03-04T11:50:11Z</time>
      </trkpt>
      <trkpt lat="44.43225" lon="5.9502">
        <ele>744.6782227</ele>
        <time>2012-03-04T11:50:13Z</time>
      </trkpt>
      <trkpt lat="44.43221" lon="5.9503">
        <ele>743.2363281</ele>
        <time>2012-03-04T11:50:14Z</time>
      </trkpt>
      <trkpt lat="44.43212" lon="5.95047">
        <ele>741.7944336</ele>
        <time>2012-03-04T11:50:16Z</time>
      </trkpt>
      <trkpt lat="44.43198" lon="5.95056">
        <ele>741.3137207</ele>
        <time>2012-03-04T11:50:18Z</time>
      </trkpt>
      <trkpt lat="44.43182" lon="5.95058">
        <ele>739.8718262</ele>
        <time>2012-03-04T11:50:20Z</time>
      </trkpt>
      <trkpt lat="44.43174" lon="5.95062">
        <ele>739.3911133</ele>
        <time>2012-03-04T11:50:21Z</time>
      </trkpt>
      <trkpt lat="44.43158" lon="5.95095">
        <ele>739.3911133</ele>
        <time>2012-03-04T11:50:25Z</time>
      </trkpt>
      <trkpt lat="44.43127" lon="5.95153">
        <ele>736.987793</ele>
        <time>2012-03-04T11:50:33Z</time>
      </trkpt>
      <trkpt lat="44.43096" lon="5.95221">
        <ele>734.1040039</ele>
        <time>2012-03-04T11:50:42Z</time>
      </trkpt>
      <trkpt lat="44.43092" lon="5.95229">
        <ele>734.1040039</ele>
        <time>2012-03-04T11:50:43Z</time>
      </trkpt>
      <trkpt lat="44.43085" lon="5.95268">
        <ele>733.623291</ele>
        <time>2012-03-04T11:50:48Z</time>
      </trkpt>
      <trkpt lat="44.43055" lon="5.9531">
        <ele>732.1813965</ele>
        <time>2012-03-04T11:50:55Z</time>
      </trkpt>
      <trkpt lat="44.43031" lon="5.95317">
        <ele>729.777832</ele>
        <time>2012-03-04T11:50:58Z</time>
      </trkpt>
      <trkpt lat="44.43013" lon="5.95311">
        <ele>728.3359375</ele>
        <time>2012-03-04T11:51:00Z</time>
      </trkpt>
      <trkpt lat="44.43004" lon="5.95314">
        <ele>727.3747559</ele>
        <time>2012-03-04T11:51:01Z</time>
      </trkpt>
      <trkpt lat="44.42981" lon="5.95327">
        <ele>725.9326172</ele>
        <time>2012-03-04T11:51:04Z</time>
      </trkpt>
      <trkpt lat="44.42965" lon="5.95352">
        <ele>723.0488281</ele>
        <time>2012-03-04T11:51:07Z</time>
      </trkpt>
      <trkpt lat="44.42961" lon="5.95361">
        <ele>721.6066895</ele>
        <time>2012-03-04T11:51:08Z</time>
      </trkpt>
      <trkpt lat="44.42947" lon="5.95399">
        <ele>719.6843262</ele>
        <time>2012-03-04T11:51:12Z</time>
      </trkpt>
      <trkpt lat="44.42942" lon="5.95419">
        <ele>718.2421875</ele>
        <time>2012-03-04T11:51:14Z</time>
      </trkpt>
      <trkpt lat="44.42942" lon="5.9544">
        <ele>717.2810059</ele>
        <time>2012-03-04T11:51:16Z</time>
      </trkpt>
      <trkpt lat="44.42941" lon="5.95461">
        <ele>716.3195801</ele>
        <time>2012-03-04T11:51:18Z</time>
      </trkpt>
      <trkpt lat="44.42932" lon="5.95488">
        <ele>713.4355469</ele>
        <time>2012-03-04T11:51:21Z</time>
      </trkpt>
      <trkpt lat="44.42924" lon="5.95506">
        <ele>712.954834</ele>
        <time>2012-03-04T11:51:23Z</time>
      </trkpt>
      <trkpt lat="44.42922" lon="5.95527">
        <ele>711.5129395</ele>
        <time>2012-03-04T11:51:25Z</time>
      </trkpt>
      <trkpt lat="44.4292" lon="5.95547">
        <ele>709.590332</ele>
        <time>2012-03-04T11:51:27Z</time>
      </trkpt>
      <trkpt lat="44.4292" lon="5.95565">
        <ele>708.6289063</ele>
        <time>2012-03-04T11:51:29Z</time>
      </trkpt>
      <trkpt lat="44.42911" lon="5.95593">
        <ele>707.1870117</ele>
        <time>2012-03-04T11:51:32Z</time>
      </trkpt>
      <trkpt lat="44.42906" lon="5.956">
        <ele>706.7062988</ele>
        <time>2012-03-04T11:51:33Z</time>
      </trkpt>
      <trkpt lat="44.42889" lon="5.95623">
        <ele>703.3417969</ele>
        <time>2012-03-04T11:51:36Z</time>
      </trkpt>
      <trkpt lat="44.42883" lon="5.9563">
        <ele>703.3417969</ele>
        <time>2012-03-04T11:51:37Z</time>
      </trkpt>
      <trkpt lat="44.42878" lon="5.95637">
        <ele>702.861084</ele>
        <time>2012-03-04T11:51:38Z</time>
      </trkpt>
      <trkpt lat="44.42844" lon="5.95661">
        <ele>699.4963379</ele>
        <time>2012-03-04T11:51:43Z</time>
      </trkpt>
      <trkpt lat="44.42836" lon="5.9566">
        <ele>699.4963379</ele>
        <time>2012-03-04T11:51:44Z</time>
      </trkpt>
      <trkpt lat="44.42818" lon="5.95657">
        <ele>697.5737305</ele>
        <time>2012-03-04T11:51:46Z</time>
      </trkpt>
      <trkpt lat="44.42778" lon="5.95656">
        <ele>693.2478027</ele>
        <time>2012-03-04T11:51:50Z</time>
      </trkpt>
      <trkpt lat="44.42767" lon="5.95658">
        <ele>693.2478027</ele>
        <time>2012-03-04T11:51:51Z</time>
      </trkpt>
      <trkpt lat="44.42746" lon="5.9566">
        <ele>691.3251953</ele>
        <time>2012-03-04T11:51:53Z</time>
      </trkpt>
      <trkpt lat="44.42737" lon="5.95661">
        <ele>689.4025879</ele>
        <time>2012-03-04T11:51:54Z</time>
      </trkpt>
      <trkpt lat="44.42709" lon="5.9567">
        <ele>686.9992676</ele>
        <time>2012-03-04T11:51:57Z</time>
      </trkpt>
      <trkpt lat="44.42684" lon="5.95671">
        <ele>686.0380859</ele>
        <time>2012-03-04T11:52:00Z</time>
      </trkpt>
      <trkpt lat="44.42668" lon="5.95669">
        <ele>684.1154785</ele>
        <time>2012-03-04T11:52:02Z</time>
      </trkpt>
      <trkpt lat="44.42653" lon="5.95666">
        <ele>683.1538086</ele>
        <time>2012-03-04T11:52:04Z</time>
      </trkpt>
      <trkpt lat="44.42613" lon="5.95678">
        <ele>680.7507324</ele>
        <time>2012-03-04T11:52:10Z</time>
      </trkpt>
      <trkpt lat="44.42601" lon="5.95688">
        <ele>679.7893066</ele>
        <time>2012-03-04T11:52:12Z</time>
      </trkpt>
      <trkpt lat="44.42588" lon="5.95693">
        <ele>678.828125</ele>
        <time>2012-03-04T11:52:14Z</time>
      </trkpt>
      <trkpt lat="44.42582" lon="5.95695">
        <ele>677.3862305</ele>
        <time>2012-03-04T11:52:15Z</time>
      </trkpt>
      <trkpt lat="44.42555" lon="5.95695">
        <ele>676.4248047</ele>
        <time>2012-03-04T11:52:19Z</time>
      </trkpt>
      <trkpt lat="44.42543" lon="5.95693">
        <ele>675.4633789</ele>
        <time>2012-03-04T11:52:21Z</time>
      </trkpt>
      <trkpt lat="44.42529" lon="5.95684">
        <ele>673.5410156</ele>
        <time>2012-03-04T11:52:28Z</time>
      </trkpt>
      <trkpt lat="44.42508" lon="5.95676">
        <ele>672.5795898</ele>
        <time>2012-03-04T11:52:50Z</time>
      </trkpt>
      <trkpt lat="44.42497" lon="5.95675">
        <ele>671.6181641</ele>
        <time>2012-03-04T11:52:53Z</time>
      </trkpt>
      <trkpt lat="44.4248" lon="5.95659">
        <ele>669.6958008</ele>
        <time>2012-03-04T11:52:57Z</time>
      </trkpt>
      <trkpt lat="44.42442" lon="5.95624">
        <ele>666.8115234</ele>
        <time>2012-03-04T11:53:04Z</time>
      </trkpt>
      <trkpt lat="44.4242" lon="5.95601">
        <ele>664.888916</ele>
        <time>2012-03-04T11:53:08Z</time>
      </trkpt>
      <trkpt lat="44.42398" lon="5.95581">
        <ele>664.4082031</ele>
        <time>2012-03-04T11:53:12Z</time>
      </trkpt>
      <trkpt lat="44.42387" lon="5.95582">
        <ele>662.9663086</ele>
        <time>2012-03-04T11:53:14Z</time>
      </trkpt>
      <trkpt lat="44.42377" lon="5.95586">
        <ele>662.4855957</ele>
        <time>2012-03-04T11:53:16Z</time>
      </trkpt>
      <trkpt lat="44.42361" lon="5.95588">
        <ele>662.005127</ele>
        <time>2012-03-04T11:53:19Z</time>
      </trkpt>
      <trkpt lat="44.4235" lon="5.95597">
        <ele>660.0822754</ele>
        <time>2012-03-04T11:53:21Z</time>
      </trkpt>
      <trkpt lat="44.42317" lon="5.95629">
        <ele>657.1984863</ele>
        <time>2012-03-04T11:53:26Z</time>
      </trkpt>
      <trkpt lat="44.42284" lon="5.95657">
        <ele>655.2758789</ele>
        <time>2012-03-04T11:53:31Z</time>
      </trkpt>
      <trkpt lat="44.42277" lon="5.95669">
        <ele>653.8339844</ele>
        <time>2012-03-04T11:53:33Z</time>
      </trkpt>
      <trkpt lat="44.42273" lon="5.95682">
        <ele>653.8339844</ele>
        <time>2012-03-04T11:53:35Z</time>
      </trkpt>
      <trkpt lat="44.42267" lon="5.95704">
        <ele>652.8725586</ele>
        <time>2012-03-04T11:53:38Z</time>
      </trkpt>
      <trkpt lat="44.42251" lon="5.95727">
        <ele>651.4304199</ele>
        <time>2012-03-04T11:53:42Z</time>
      </trkpt>
      <trkpt lat="44.42242" lon="5.95739">
        <ele>649.5078125</ele>
        <time>2012-03-04T11:53:44Z</time>
      </trkpt>
      <trkpt lat="44.42215" lon="5.95783">
        <ele>645.6625977</ele>
        <time>2012-03-04T11:53:50Z</time>
      </trkpt>
      <trkpt lat="44.4219" lon="5.95808">
        <ele>643.2592773</ele>
        <time>2012-03-04T11:53:54Z</time>
      </trkpt>
      <trkpt lat="44.42174" lon="5.95819">
        <ele>642.2980957</ele>
        <time>2012-03-04T11:53:56Z</time>
      </trkpt>
      <trkpt lat="44.42134" lon="5.95852">
        <ele>638.4528809</ele>
        <time>2012-03-04T11:54:01Z</time>
      </trkpt>
      <trkpt lat="44.4212" lon="5.95864">
        <ele>637.0107422</ele>
        <time>2012-03-04T11:54:03Z</time>
      </trkpt>
      <trkpt lat="44.42106" lon="5.95876">
        <ele>636.0495605</ele>
        <time>2012-03-04T11:54:05Z</time>
      </trkpt>
      <trkpt lat="44.42074" lon="5.95886">
        <ele>632.6848145</ele>
        <time>2012-03-04T11:54:10Z</time>
      </trkpt>
      <trkpt lat="44.42059" lon="5.95881">
        <ele>631.2429199</ele>
        <time>2012-03-04T11:54:12Z</time>
      </trkpt>
      <trkpt lat="44.42043" lon="5.95875">
        <ele>629.8007813</ele>
        <time>2012-03-04T11:54:14Z</time>
      </trkpt>
      <trkpt lat="44.42016" lon="5.95866">
        <ele>627.3977051</ele>
        <time>2012-03-04T11:54:17Z</time>
      </trkpt>
      <trkpt lat="44.41998" lon="5.95862">
        <ele>625.4748535</ele>
        <time>2012-03-04T11:54:19Z</time>
      </trkpt>
      <trkpt lat="44.41974" lon="5.95858">
        <ele>625.4748535</ele>
        <time>2012-03-04T11:54:22Z</time>
      </trkpt>
      <trkpt lat="44.41914" lon="5.95804">
        <ele>624.5136719</ele>
        <time>2012-03-04T11:54:33Z</time>
      </trkpt>
      <trkpt lat="44.41847" lon="5.95759">
        <ele>623.5524902</ele>
        <time>2012-03-04T11:54:45Z</time>
      </trkpt>
      <trkpt lat="44.41797" lon="5.9573">
        <ele>623.5524902</ele>
        <time>2012-03-04T11:54:54Z</time>
      </trkpt>
      <trkpt lat="44.41792" lon="5.95731">
        <ele>623.5524902</ele>
        <time>2012-03-04T11:54:55Z</time>
      </trkpt>
      <trkpt lat="44.41756" lon="5.9571">
        <ele>623.0717773</ele>
        <time>2012-03-04T11:55:02Z</time>
      </trkpt>
      <trkpt lat="44.41745" lon="5.9569">
        <ele>621.6296387</ele>
        <time>2012-03-04T11:55:05Z</time>
      </trkpt>
      <trkpt lat="44.41713" lon="5.95689">
        <ele>622.1103516</ele>
        <time>2012-03-04T11:55:10Z</time>
      </trkpt>
      <trkpt lat="44.41682" lon="5.95677">
        <ele>621.6296387</ele>
        <time>2012-03-04T11:55:16Z</time>
      </trkpt>
      <trkpt lat="44.41674" lon="5.95667">
        <ele>621.6296387</ele>
        <time>2012-03-04T11:55:18Z</time>
      </trkpt>
      <trkpt lat="44.41642" lon="5.95654">
        <ele>621.6296387</ele>
        <time>2012-03-04T11:55:24Z</time>
      </trkpt>
      <trkpt lat="44.41624" lon="5.95659">
        <ele>620.668457</ele>
        <time>2012-03-04T11:55:27Z</time>
      </trkpt>
      <trkpt lat="44.41599" lon="5.9565">
        <ele>619.2263184</ele>
        <time>2012-03-04T11:55:31Z</time>
      </trkpt>
      <trkpt lat="44.41592" lon="5.95647">
        <ele>618.7456055</ele>
        <time>2012-03-04T11:55:32Z</time>
      </trkpt>
      <trkpt lat="44.41561" lon="5.95646">
        <ele>617.7841797</ele>
        <time>2012-03-04T11:55:36Z</time>
      </trkpt>
      <trkpt lat="44.41545" lon="5.95648">
        <ele>616.3422852</ele>
        <time>2012-03-04T11:55:38Z</time>
      </trkpt>
      <trkpt lat="44.41488" lon="5.95655">
        <ele>612.9777832</ele>
        <time>2012-03-04T11:55:45Z</time>
      </trkpt>
      <trkpt lat="44.41472" lon="5.95656">
        <ele>611.5358887</ele>
        <time>2012-03-04T11:55:47Z</time>
      </trkpt>
      <trkpt lat="44.41464" lon="5.95656">
        <ele>612.0166016</ele>
        <time>2012-03-04T11:55:48Z</time>
      </trkpt>
      <trkpt lat="44.4143" lon="5.95636">
        <ele>610.09375</ele>
        <time>2012-03-04T11:55:54Z</time>
      </trkpt>
      <trkpt lat="44.41403" lon="5.95599">
        <ele>609.1325684</ele>
        <time>2012-03-04T11:56:00Z</time>
      </trkpt>
      <trkpt lat="44.41391" lon="5.9557">
        <ele>608.6518555</ele>
        <time>2012-03-04T11:56:04Z</time>
      </trkpt>
      <trkpt lat="44.4136" lon="5.95538">
        <ele>606.729248</ele>
        <time>2012-03-04T11:56:11Z</time>
      </trkpt>
      <trkpt lat="44.41343" lon="5.95535">
        <ele>608.6518555</ele>
        <time>2012-03-04T11:56:14Z</time>
      </trkpt>
      <trkpt lat="44.41333" lon="5.95532">
        <ele>608.6518555</ele>
        <time>2012-03-04T11:56:16Z</time>
      </trkpt>
      <trkpt lat="44.41295" lon="5.95524">
        <ele>612.0166016</ele>
        <time>2012-03-04T11:56:29Z</time>
      </trkpt>
      <trkpt lat="44.41279" lon="5.95521">
        <ele>611.5358887</ele>
        <time>2012-03-04T11:56:43Z</time>
      </trkpt>
      <trkpt lat="44.41279" lon="5.95521">
        <ele>611.5358887</ele>
        <time>2012-03-04T11:57:40Z</time>
      </trkpt>
      <trkpt lat="44.41279" lon="5.95553">
        <ele>610.09375</ele>
        <time>2012-03-04T11:57:46Z</time>
      </trkpt>
      <trkpt lat="44.41285" lon="5.95591">
        <ele>605.7680664</ele>
        <time>2012-03-04T11:57:51Z</time>
      </trkpt>
      <trkpt lat="44.41285" lon="5.95598">
        <ele>605.7680664</ele>
        <time>2012-03-04T11:57:52Z</time>
      </trkpt>
      <trkpt lat="44.41283" lon="5.95666">
        <ele>604.8066406</ele>
        <time>2012-03-04T11:58:04Z</time>
      </trkpt>
      <trkpt lat="44.41283" lon="5.95682">
        <ele>603.8452148</ele>
        <time>2012-03-04T11:58:06Z</time>
      </trkpt>
      <trkpt lat="44.41282" lon="5.95701">
        <ele>602.8837891</ele>
        <time>2012-03-04T11:58:08Z</time>
      </trkpt>
      <trkpt lat="44.41279" lon="5.95753">
        <ele>600.4807129</ele>
        <time>2012-03-04T11:58:13Z</time>
      </trkpt>
      <trkpt lat="44.41278" lon="5.95868">
        <ele>595.6740723</ele>
        <time>2012-03-04T11:58:23Z</time>
      </trkpt>
      <trkpt lat="44.41277" lon="5.95879">
        <ele>595.6740723</ele>
        <time>2012-03-04T11:58:24Z</time>
      </trkpt>
      <trkpt lat="44.41277" lon="5.96007">
        <ele>595.6740723</ele>
        <time>2012-03-04T11:58:36Z</time>
      </trkpt>
      <trkpt lat="44.41281" lon="5.96102">
        <ele>594.2321777</ele>
        <time>2012-03-04T11:58:46Z</time>
      </trkpt>
      <trkpt lat="44.41265" lon="5.96201">
        <ele>591.3481445</ele>
        <time>2012-03-04T11:58:57Z</time>
      </trkpt>
      <trkpt lat="44.41257" lon="5.96251">
        <ele>589.90625</ele>
        <time>2012-03-04T11:59:03Z</time>
      </trkpt>
      <trkpt lat="44.41244" lon="5.96274">
        <ele>588.4643555</ele>
        <time>2012-03-04T11:59:09Z</time>
      </trkpt>
      <trkpt lat="44.41243" lon="5.96273">
        <ele>588.9450684</ele>
        <time>2012-03-04T11:59:12Z</time>
      </trkpt>
      <trkpt lat="44.41249" lon="5.96273">
        <ele>587.9833984</ele>
        <time>2012-03-04T11:59:18Z</time>
      </trkpt>
      <trkpt lat="44.41265" lon="5.96204">
        <ele>589.90625</ele>
        <time>2012-03-04T11:59:35Z</time>
      </trkpt>
      <trkpt lat="44.41277" lon="5.96139">
        <ele>592.7902832</ele>
        <time>2012-03-04T11:59:51Z</time>
      </trkpt>
      <trkpt lat="44.4129" lon="5.9614">
        <ele>593.7514648</ele>
        <time>2012-03-04T11:59:55Z</time>
      </trkpt>
      <trkpt lat="44.41275" lon="5.96148">
        <ele>594.2321777</ele>
        <time>2012-03-04T11:59:58Z</time>
      </trkpt>
      <trkpt lat="44.41273" lon="5.96156">
        <ele>593.7514648</ele>
        <time>2012-03-04T12:00:00Z</time>
      </trkpt>
      <trkpt lat="44.41269" lon="5.96173">
        <ele>593.270752</ele>
        <time>2012-03-04T12:00:03Z</time>
      </trkpt>
      <trkpt lat="44.41326" lon="5.96276">
        <ele>593.270752</ele>
        <time>2012-03-04T12:00:19Z</time>
      </trkpt>
      <trkpt lat="44.41329" lon="5.96296">
        <ele>593.7514648</ele>
        <time>2012-03-04T12:00:22Z</time>
      </trkpt>
      <trkpt lat="44.41334" lon="5.96338">
        <ele>593.270752</ele>
        <time>2012-03-04T12:00:28Z</time>
      </trkpt>
      <trkpt lat="44.41318" lon="5.96467">
        <ele>592.7902832</ele>
        <time>2012-03-04T12:00:47Z</time>
      </trkpt>
      <trkpt lat="44.41266" lon="5.96562">
        <ele>592.3095703</ele>
        <time>2012-03-04T12:01:04Z</time>
      </trkpt>
      <trkpt lat="44.41222" lon="5.96635">
        <ele>590.3869629</ele>
        <time>2012-03-04T12:01:16Z</time>
      </trkpt>
      <trkpt lat="44.41211" lon="5.96653">
        <ele>588.4643555</ele>
        <time>2012-03-04T12:01:20Z</time>
      </trkpt>
      <trkpt lat="44.41174" lon="5.96716">
        <ele>584.6188965</ele>
        <time>2012-03-04T12:01:29Z</time>
      </trkpt>
      <trkpt lat="44.41169" lon="5.96725">
        <ele>584.6188965</ele>
        <time>2012-03-04T12:01:30Z</time>
      </trkpt>
      <trkpt lat="44.41159" lon="5.96742">
        <ele>582.2155762</ele>
        <time>2012-03-04T12:01:32Z</time>
      </trkpt>
      <trkpt lat="44.41142" lon="5.96774">
        <ele>580.2929688</ele>
        <time>2012-03-04T12:01:36Z</time>
      </trkpt>
      <trkpt lat="44.41129" lon="5.96787">
        <ele>578.3703613</ele>
        <time>2012-03-04T12:01:39Z</time>
      </trkpt>
      <trkpt lat="44.41116" lon="5.96798">
        <ele>578.8510742</ele>
        <time>2012-03-04T12:01:47Z</time>
      </trkpt>
      <trkpt lat="44.41116" lon="5.96798">
        <ele>578.8510742</ele>
        <time>2012-03-04T12:02:14Z</time>
      </trkpt>
      <trkpt lat="44.41126" lon="5.96812">
        <ele>578.8510742</ele>
        <time>2012-03-04T12:02:18Z</time>
      </trkpt>
      <trkpt lat="44.41124" lon="5.96829">
        <ele>577.8896484</ele>
        <time>2012-03-04T12:02:23Z</time>
      </trkpt>
      <trkpt lat="44.41171" lon="5.96924">
        <ele>579.8122559</ele>
        <time>2012-03-04T12:02:43Z</time>
      </trkpt>
      <trkpt lat="44.4123" lon="5.97036">
        <ele>580.2929688</ele>
        <time>2012-03-04T12:03:04Z</time>
      </trkpt>
      <trkpt lat="44.41258" lon="5.97092">
        <ele>577.8896484</ele>
        <time>2012-03-04T12:03:11Z</time>
      </trkpt>
      <trkpt lat="44.41353" lon="5.97285">
        <ele>575.0058594</ele>
        <time>2012-03-04T12:03:31Z</time>
      </trkpt>
      <trkpt lat="44.41383" lon="5.97364">
        <ele>573.083252</ele>
        <time>2012-03-04T12:03:39Z</time>
      </trkpt>
      <trkpt lat="44.4143" lon="5.97507">
        <ele>573.5639648</ele>
        <time>2012-03-04T12:03:53Z</time>
      </trkpt>
      <trkpt lat="44.41496" lon="5.97706">
        <ele>572.1218262</ele>
        <time>2012-03-04T12:04:14Z</time>
      </trkpt>
      <trkpt lat="44.4156" lon="5.97902">
        <ele>575.0058594</ele>
        <time>2012-03-04T12:04:39Z</time>
      </trkpt>
      <trkpt lat="44.41592" lon="5.98">
        <ele>578.3703613</ele>
        <time>2012-03-04T12:04:57Z</time>
      </trkpt>
      <trkpt lat="44.41646" lon="5.98169">
        <ele>579.8122559</ele>
        <time>2012-03-04T12:05:25Z</time>
      </trkpt>
      <trkpt lat="44.417" lon="5.98329">
        <ele>578.8510742</ele>
        <time>2012-03-04T12:05:45Z</time>
      </trkpt>
      <trkpt lat="44.41759" lon="5.98493">
        <ele>579.8122559</ele>
        <time>2012-03-04T12:06:08Z</time>
      </trkpt>
      <trkpt lat="44.41782" lon="5.98591">
        <ele>582.6962891</ele>
        <time>2012-03-04T12:06:27Z</time>
      </trkpt>
      <trkpt lat="44.41794" lon="5.98682">
        <ele>586.060791</ele>
        <time>2012-03-04T12:06:46Z</time>
      </trkpt>
      <trkpt lat="44.418" lon="5.98785">
        <ele>589.4255371</ele>
        <time>2012-03-04T12:07:09Z</time>
      </trkpt>
      <trkpt lat="44.41807" lon="5.98904">
        <ele>591.8288574</ele>
        <time>2012-03-04T12:07:35Z</time>
      </trkpt>
      <trkpt lat="44.41815" lon="5.99035">
        <ele>592.7902832</ele>
        <time>2012-03-04T12:08:01Z</time>
      </trkpt>
      <trkpt lat="44.41818" lon="5.99075">
        <ele>591.8288574</ele>
        <time>2012-03-04T12:08:08Z</time>
      </trkpt>
      <trkpt lat="44.41822" lon="5.99193">
        <ele>592.7902832</ele>
        <time>2012-03-04T12:08:25Z</time>
      </trkpt>
      <trkpt lat="44.4182" lon="5.99272">
        <ele>590.8674316</ele>
        <time>2012-03-04T12:08:34Z</time>
      </trkpt>
      <trkpt lat="44.41815" lon="5.99336">
        <ele>590.8674316</ele>
        <time>2012-03-04T12:08:42Z</time>
      </trkpt>
      <trkpt lat="44.41837" lon="5.99352">
        <ele>590.3869629</ele>
        <time>2012-03-04T12:08:49Z</time>
      </trkpt>
      <trkpt lat="44.41848" lon="5.99356">
        <ele>588.4643555</ele>
        <time>2012-03-04T12:08:51Z</time>
      </trkpt>
      <trkpt lat="44.41886" lon="5.99365">
        <ele>587.5026855</ele>
        <time>2012-03-04T12:08:56Z</time>
      </trkpt>
      <trkpt lat="44.4191" lon="5.99368">
        <ele>585.0996094</ele>
        <time>2012-03-04T12:08:59Z</time>
      </trkpt>
      <trkpt lat="44.41958" lon="5.99376">
        <ele>587.5026855</ele>
        <time>2012-03-04T12:09:06Z</time>
      </trkpt>
      <trkpt lat="44.41967" lon="5.99378">
        <ele>589.4255371</ele>
        <time>2012-03-04T12:09:08Z</time>
      </trkpt>
      <trkpt lat="44.42025" lon="5.99402">
        <ele>590.8674316</ele>
        <time>2012-03-04T12:09:26Z</time>
      </trkpt>
      <trkpt lat="44.42039" lon="5.99414">
        <ele>591.3481445</ele>
        <time>2012-03-04T12:09:30Z</time>
      </trkpt>
      <trkpt lat="44.42061" lon="5.99447">
        <ele>591.8288574</ele>
        <time>2012-03-04T12:09:37Z</time>
      </trkpt>
      <trkpt lat="44.42096" lon="5.99551">
        <ele>589.4255371</ele>
        <time>2012-03-04T12:09:53Z</time>
      </trkpt>
      <trkpt lat="44.42105" lon="5.99578">
        <ele>591.3481445</ele>
        <time>2012-03-04T12:09:57Z</time>
      </trkpt>
      <trkpt lat="44.42123" lon="5.99632">
        <ele>591.8288574</ele>
        <time>2012-03-04T12:10:05Z</time>
      </trkpt>
      <trkpt lat="44.42172" lon="5.99779">
        <ele>592.7902832</ele>
        <time>2012-03-04T12:10:26Z</time>
      </trkpt>
      <trkpt lat="44.42245" lon="5.99995">
        <ele>591.8288574</ele>
        <time>2012-03-04T12:10:53Z</time>
      </trkpt>
      <trkpt lat="44.42271" lon="6.00072">
        <ele>589.90625</ele>
        <time>2012-03-04T12:11:04Z</time>
      </trkpt>
      <trkpt lat="44.42315" lon="6.00197">
        <ele>590.8674316</ele>
        <time>2012-03-04T12:11:22Z</time>
      </trkpt>
      <trkpt lat="44.42348" lon="6.0029">
        <ele>593.270752</ele>
        <time>2012-03-04T12:11:38Z</time>
      </trkpt>
      <trkpt lat="44.42365" lon="6.0035">
        <ele>594.7126465</ele>
        <time>2012-03-04T12:11:48Z</time>
      </trkpt>
      <trkpt lat="44.42399" lon="6.00463">
        <ele>596.635498</ele>
        <time>2012-03-04T12:12:09Z</time>
      </trkpt>
      <trkpt lat="44.42428" lon="6.00555">
        <ele>597.1159668</ele>
        <time>2012-03-04T12:12:26Z</time>
      </trkpt>
      <trkpt lat="44.42445" lon="6.00606">
        <ele>596.635498</ele>
        <time>2012-03-04T12:12:33Z</time>
      </trkpt>
      <trkpt lat="44.42459" lon="6.00649">
        <ele>595.1933594</ele>
        <time>2012-03-04T12:12:40Z</time>
      </trkpt>
      <trkpt lat="44.42472" lon="6.00684">
        <ele>594.7126465</ele>
        <time>2012-03-04T12:12:45Z</time>
      </trkpt>
      <trkpt lat="44.42478" lon="6.00702">
        <ele>595.6740723</ele>
        <time>2012-03-04T12:12:48Z</time>
      </trkpt>
      <trkpt lat="44.42479" lon="6.00724">
        <ele>596.1547852</ele>
        <time>2012-03-04T12:12:52Z</time>
      </trkpt>
      <trkpt lat="44.42478" lon="6.00771">
        <ele>594.7126465</ele>
        <time>2012-03-04T12:12:58Z</time>
      </trkpt>
      <trkpt lat="44.42487" lon="6.00807">
        <ele>593.270752</ele>
        <time>2012-03-04T12:13:02Z</time>
      </trkpt>
      <trkpt lat="44.42493" lon="6.00815">
        <ele>592.7902832</ele>
        <time>2012-03-04T12:13:03Z</time>
      </trkpt>
      <trkpt lat="44.42538" lon="6.00876">
        <ele>588.9450684</ele>
        <time>2012-03-04T12:13:12Z</time>
      </trkpt>
      <trkpt lat="44.42627" lon="6.00991">
        <ele>586.5415039</ele>
        <time>2012-03-04T12:13:27Z</time>
      </trkpt>
      <trkpt lat="44.42681" lon="6.01064">
        <ele>586.060791</ele>
        <time>2012-03-04T12:13:38Z</time>
      </trkpt>
      <trkpt lat="44.42722" lon="6.01152">
        <ele>585.0996094</ele>
        <time>2012-03-04T12:13:50Z</time>
      </trkpt>
      <trkpt lat="44.42756" lon="6.0124">
        <ele>587.9833984</ele>
        <time>2012-03-04T12:14:05Z</time>
      </trkpt>
      <trkpt lat="44.42774" lon="6.01285">
        <ele>590.8674316</ele>
        <time>2012-03-04T12:14:18Z</time>
      </trkpt>
      <trkpt lat="44.428" lon="6.01352">
        <ele>590.8674316</ele>
        <time>2012-03-04T12:14:31Z</time>
      </trkpt>
      <trkpt lat="44.42861" lon="6.01463">
        <ele>591.8288574</ele>
        <time>2012-03-04T12:14:50Z</time>
      </trkpt>
      <trkpt lat="44.42931" lon="6.01554">
        <ele>592.7902832</ele>
        <time>2012-03-04T12:15:10Z</time>
      </trkpt>
      <trkpt lat="44.42954" lon="6.01581">
        <ele>593.270752</ele>
        <time>2012-03-04T12:15:17Z</time>
      </trkpt>
      <trkpt lat="44.43039" lon="6.01687">
        <ele>593.270752</ele>
        <time>2012-03-04T12:15:39Z</time>
      </trkpt>
      <trkpt lat="44.43125" lon="6.01802">
        <ele>592.3095703</ele>
        <time>2012-03-04T12:15:58Z</time>
      </trkpt>
      <trkpt lat="44.43197" lon="6.01947">
        <ele>591.8288574</ele>
        <time>2012-03-04T12:16:17Z</time>
      </trkpt>
      <trkpt lat="44.43254" lon="6.02112">
        <ele>593.270752</ele>
        <time>2012-03-04T12:16:39Z</time>
      </trkpt>
      <trkpt lat="44.43265" lon="6.02151">
        <ele>593.7514648</ele>
        <time>2012-03-04T12:16:45Z</time>
      </trkpt>
      <trkpt lat="44.43267" lon="6.02189">
        <ele>593.270752</ele>
        <time>2012-03-04T12:16:52Z</time>
      </trkpt>
      <trkpt lat="44.4325" lon="6.02202">
        <ele>593.7514648</ele>
        <time>2012-03-04T12:17:04Z</time>
      </trkpt>
      <trkpt lat="44.4325" lon="6.02202">
        <ele>596.1547852</ele>
        <time>2012-03-04T12:17:07Z</time>
      </trkpt>
      <trkpt lat="44.43267" lon="6.02225">
        <ele>595.1933594</ele>
        <time>2012-03-04T12:17:17Z</time>
      </trkpt>
      <trkpt lat="44.43291" lon="6.02256">
        <ele>594.2321777</ele>
        <time>2012-03-04T12:17:24Z</time>
      </trkpt>
      <trkpt lat="44.43381" lon="6.02363">
        <ele>594.2321777</ele>
        <time>2012-03-04T12:17:45Z</time>
      </trkpt>
      <trkpt lat="44.43493" lon="6.02432">
        <ele>592.7902832</ele>
        <time>2012-03-04T12:18:03Z</time>
      </trkpt>
      <trkpt lat="44.43602" lon="6.02463">
        <ele>591.3481445</ele>
        <time>2012-03-04T12:18:18Z</time>
      </trkpt>
      <trkpt lat="44.43624" lon="6.02469">
        <ele>591.3481445</ele>
        <time>2012-03-04T12:18:22Z</time>
      </trkpt>
      <trkpt lat="44.43656" lon="6.02477">
        <ele>591.8288574</ele>
        <time>2012-03-04T12:18:29Z</time>
      </trkpt>
      <trkpt lat="44.4367" lon="6.02481">
        <ele>592.3095703</ele>
        <time>2012-03-04T12:18:32Z</time>
      </trkpt>
      <trkpt lat="44.4377" lon="6.02512">
        <ele>592.3095703</ele>
        <time>2012-03-04T12:18:52Z</time>
      </trkpt>
      <trkpt lat="44.43864" lon="6.02542">
        <ele>592.3095703</ele>
        <time>2012-03-04T12:19:11Z</time>
      </trkpt>
      <trkpt lat="44.43968" lon="6.02605">
        <ele>592.7902832</ele>
        <time>2012-03-04T12:19:32Z</time>
      </trkpt>
      <trkpt lat="44.4407" lon="6.0269">
        <ele>594.2321777</ele>
        <time>2012-03-04T12:19:55Z</time>
      </trkpt>
      <trkpt lat="44.44156" lon="6.02732">
        <ele>595.6740723</ele>
        <time>2012-03-04T12:20:15Z</time>
      </trkpt>
      <trkpt lat="44.44177" lon="6.02745">
        <ele>596.635498</ele>
        <time>2012-03-04T12:20:20Z</time>
      </trkpt>
      <trkpt lat="44.44177" lon="6.0277">
        <ele>597.1159668</ele>
        <time>2012-03-04T12:20:31Z</time>
      </trkpt>
      <trkpt lat="44.4418" lon="6.0278">
        <ele>597.1159668</ele>
        <time>2012-03-04T12:20:42Z</time>
      </trkpt>
      <trkpt lat="44.44205" lon="6.02844">
        <ele>598.0773926</ele>
        <time>2012-03-04T12:20:52Z</time>
      </trkpt>
      <trkpt lat="44.44233" lon="6.02818">
        <ele>598.5578613</ele>
        <time>2012-03-04T12:20:59Z</time>
      </trkpt>
      <trkpt lat="44.44231" lon="6.02784">
        <ele>598.5578613</ele>
        <time>2012-03-04T12:21:05Z</time>
      </trkpt>
      <trkpt lat="44.44233" lon="6.02744">
        <ele>597.5966797</ele>
        <time>2012-03-04T12:21:10Z</time>
      </trkpt>
      <trkpt lat="44.44243" lon="6.02717">
        <ele>596.635498</ele>
        <time>2012-03-04T12:21:15Z</time>
      </trkpt>
      <trkpt lat="44.44252" lon="6.02696">
        <ele>597.1159668</ele>
        <time>2012-03-04T12:21:19Z</time>
      </trkpt>
      <trkpt lat="44.4429" lon="6.0264">
        <ele>599.5192871</ele>
        <time>2012-03-04T12:21:33Z</time>
      </trkpt>
      <trkpt lat="44.44294" lon="6.02633">
        <ele>598.0773926</ele>
        <time>2012-03-04T12:21:35Z</time>
      </trkpt>
      <trkpt lat="44.44294" lon="6.02598">
        <ele>598.5578613</ele>
        <time>2012-03-04T12:21:44Z</time>
      </trkpt>
      <trkpt lat="44.44271" lon="6.02556">
        <ele>598.0773926</ele>
        <time>2012-03-04T12:21:53Z</time>
      </trkpt>
      <trkpt lat="44.44283" lon="6.02529">
        <ele>597.1159668</ele>
        <time>2012-03-04T12:21:58Z</time>
      </trkpt>
      <trkpt lat="44.44292" lon="6.02527">
        <ele>597.1159668</ele>
        <time>2012-03-04T12:22:00Z</time>
      </trkpt>
      <trkpt lat="44.4434" lon="6.02516">
        <ele>599.0385742</ele>
        <time>2012-03-04T12:22:11Z</time>
      </trkpt>
      <trkpt lat="44.44392" lon="6.02501">
        <ele>600.4807129</ele>
        <time>2012-03-04T12:22:23Z</time>
      </trkpt>
      <trkpt lat="44.44458" lon="6.02473">
        <ele>601.4418945</ele>
        <time>2012-03-04T12:22:38Z</time>
      </trkpt>
      <trkpt lat="44.44502" lon="6.0242">
        <ele>602.8837891</ele>
        <time>2012-03-04T12:22:52Z</time>
      </trkpt>
      <trkpt lat="44.44508" lon="6.02413">
        <ele>602.8837891</ele>
        <time>2012-03-04T12:22:54Z</time>
      </trkpt>
      <trkpt lat="44.44543" lon="6.02374">
        <ele>603.8452148</ele>
        <time>2012-03-04T12:23:05Z</time>
      </trkpt>
      <trkpt lat="44.44564" lon="6.02353">
        <ele>603.8452148</ele>
        <time>2012-03-04T12:23:11Z</time>
      </trkpt>
      <trkpt lat="44.44634" lon="6.02317">
        <ele>604.8066406</ele>
        <time>2012-03-04T12:23:29Z</time>
      </trkpt>
      <trkpt lat="44.44667" lon="6.02294">
        <ele>606.729248</ele>
        <time>2012-03-04T12:23:38Z</time>
      </trkpt>
      <trkpt lat="44.44691" lon="6.02274">
        <ele>605.7680664</ele>
        <time>2012-03-04T12:23:45Z</time>
      </trkpt>
      <trkpt lat="44.44701" lon="6.02264">
        <ele>608.1713867</ele>
        <time>2012-03-04T12:23:48Z</time>
      </trkpt>
      <trkpt lat="44.44734" lon="6.02229">
        <ele>607.2099609</ele>
        <time>2012-03-04T12:23:59Z</time>
      </trkpt>
      <trkpt lat="44.44776" lon="6.02181">
        <ele>608.1713867</ele>
        <time>2012-03-04T12:24:14Z</time>
      </trkpt>
      <trkpt lat="44.44812" lon="6.02141">
        <ele>611.0551758</ele>
        <time>2012-03-04T12:24:27Z</time>
      </trkpt>
      <trkpt lat="44.44865" lon="6.0211">
        <ele>612.9777832</ele>
        <time>2012-03-04T12:24:44Z</time>
      </trkpt>
      <trkpt lat="44.44921" lon="6.0209">
        <ele>615.3811035</ele>
        <time>2012-03-04T12:25:01Z</time>
      </trkpt>
      <trkpt lat="44.4494" lon="6.02042">
        <ele>616.822998</ele>
        <time>2012-03-04T12:25:13Z</time>
      </trkpt>
      <trkpt lat="44.44963" lon="6.02021">
        <ele>618.2648926</ele>
        <time>2012-03-04T12:25:22Z</time>
      </trkpt>
      <trkpt lat="44.45025" lon="6.01981">
        <ele>620.668457</ele>
        <time>2012-03-04T12:25:44Z</time>
      </trkpt>
      <trkpt lat="44.45062" lon="6.01938">
        <ele>622.5910645</ele>
        <time>2012-03-04T12:26:00Z</time>
      </trkpt>
      <trkpt lat="44.45091" lon="6.01876">
        <ele>624.9943848</ele>
        <time>2012-03-04T12:26:19Z</time>
      </trkpt>
      <trkpt lat="44.4511" lon="6.01816">
        <ele>627.8781738</ele>
        <time>2012-03-04T12:26:37Z</time>
      </trkpt>
      <trkpt lat="44.45146" lon="6.01789">
        <ele>630.2814941</ele>
        <time>2012-03-04T12:26:52Z</time>
      </trkpt>
      <trkpt lat="44.45202" lon="6.01797">
        <ele>631.2429199</ele>
        <time>2012-03-04T12:27:09Z</time>
      </trkpt>
      <trkpt lat="44.45248" lon="6.01799">
        <ele>632.2041016</ele>
        <time>2012-03-04T12:27:22Z</time>
      </trkpt>
      <trkpt lat="44.45285" lon="6.018">
        <ele>633.1652832</ele>
        <time>2012-03-04T12:27:34Z</time>
      </trkpt>
      <trkpt lat="44.45338" lon="6.01781">
        <ele>633.1652832</ele>
        <time>2012-03-04T12:27:48Z</time>
      </trkpt>
      <trkpt lat="44.45354" lon="6.01772">
        <ele>632.6848145</ele>
        <time>2012-03-04T12:27:54Z</time>
      </trkpt>
      <trkpt lat="44.45367" lon="6.01792">
        <ele>633.1652832</ele>
        <time>2012-03-04T12:28:00Z</time>
      </trkpt>
      <trkpt lat="44.45374" lon="6.01829">
        <ele>630.762207</ele>
        <time>2012-03-04T12:28:05Z</time>
      </trkpt>
      <trkpt lat="44.45378" lon="6.01848">
        <ele>629.3200684</ele>
        <time>2012-03-04T12:28:07Z</time>
      </trkpt>
      <trkpt lat="44.45391" lon="6.01916">
        <ele>625.9555664</ele>
        <time>2012-03-04T12:28:13Z</time>
      </trkpt>
      <trkpt lat="44.45393" lon="6.01929">
        <ele>625.9555664</ele>
        <time>2012-03-04T12:28:14Z</time>
      </trkpt>
      <trkpt lat="44.45418" lon="6.02066">
        <ele>622.5910645</ele>
        <time>2012-03-04T12:28:25Z</time>
      </trkpt>
      <trkpt lat="44.45437" lon="6.02173">
        <ele>623.5524902</ele>
        <time>2012-03-04T12:28:38Z</time>
      </trkpt>
      <trkpt lat="44.45439" lon="6.02196">
        <ele>623.0717773</ele>
        <time>2012-03-04T12:28:41Z</time>
      </trkpt>
      <trkpt lat="44.45419" lon="6.02234">
        <ele>621.6296387</ele>
        <time>2012-03-04T12:28:47Z</time>
      </trkpt>
      <trkpt lat="44.45399" lon="6.02236">
        <ele>622.1103516</ele>
        <time>2012-03-04T12:28:50Z</time>
      </trkpt>
      <trkpt lat="44.4537" lon="6.02264">
        <ele>620.668457</ele>
        <time>2012-03-04T12:28:56Z</time>
      </trkpt>
      <trkpt lat="44.45369" lon="6.02283">
        <ele>619.2263184</ele>
        <time>2012-03-04T12:28:58Z</time>
      </trkpt>
      <trkpt lat="44.45366" lon="6.02336">
        <ele>618.2648926</ele>
        <time>2012-03-04T12:29:03Z</time>
      </trkpt>
      <trkpt lat="44.45355" lon="6.02409">
        <ele>615.8618164</ele>
        <time>2012-03-04T12:29:10Z</time>
      </trkpt>
      <trkpt lat="44.45343" lon="6.02482">
        <ele>614.9003906</ele>
        <time>2012-03-04T12:29:17Z</time>
      </trkpt>
      <trkpt lat="44.45346" lon="6.02503">
        <ele>616.3422852</ele>
        <time>2012-03-04T12:29:19Z</time>
      </trkpt>
      <trkpt lat="44.4535" lon="6.02523">
        <ele>615.3811035</ele>
        <time>2012-03-04T12:29:21Z</time>
      </trkpt>
      <trkpt lat="44.45396" lon="6.02658">
        <ele>613.4584961</ele>
        <time>2012-03-04T12:29:36Z</time>
      </trkpt>
      <trkpt lat="44.455" lon="6.02838">
        <ele>610.09375</ele>
        <time>2012-03-04T12:29:57Z</time>
      </trkpt>
      <trkpt lat="44.45594" lon="6.03005">
        <ele>609.1325684</ele>
        <time>2012-03-04T12:30:16Z</time>
      </trkpt>
      <trkpt lat="44.45614" lon="6.03037">
        <ele>609.1325684</ele>
        <time>2012-03-04T12:30:20Z</time>
      </trkpt>
      <trkpt lat="44.45652" lon="6.03111">
        <ele>609.1325684</ele>
        <time>2012-03-04T12:30:29Z</time>
      </trkpt>
      <trkpt lat="44.45693" lon="6.03224">
        <ele>610.5744629</ele>
        <time>2012-03-04T12:30:46Z</time>
      </trkpt>
      <trkpt lat="44.45703" lon="6.03297">
        <ele>610.09375</ele>
        <time>2012-03-04T12:31:02Z</time>
      </trkpt>
      <trkpt lat="44.45712" lon="6.0334">
        <ele>609.6132813</ele>
        <time>2012-03-04T12:31:12Z</time>
      </trkpt>
      <trkpt lat="44.45702" lon="6.03347">
        <ele>611.0551758</ele>
        <time>2012-03-04T12:31:16Z</time>
      </trkpt>
      <trkpt lat="44.45626" lon="6.03336">
        <ele>610.09375</ele>
        <time>2012-03-04T12:31:33Z</time>
      </trkpt>
      <trkpt lat="44.45548" lon="6.03326">
        <ele>610.09375</ele>
        <time>2012-03-04T12:31:51Z</time>
      </trkpt>
      <trkpt lat="44.45516" lon="6.03322">
        <ele>609.1325684</ele>
        <time>2012-03-04T12:31:58Z</time>
      </trkpt>
      <trkpt lat="44.45491" lon="6.03358">
        <ele>609.1325684</ele>
        <time>2012-03-04T12:32:07Z</time>
      </trkpt>
      <trkpt lat="44.45503" lon="6.03389">
        <ele>606.729248</ele>
        <time>2012-03-04T12:32:14Z</time>
      </trkpt>
      <trkpt lat="44.45517" lon="6.03426">
        <ele>607.2099609</ele>
        <time>2012-03-04T12:32:28Z</time>
      </trkpt>
      <trkpt lat="44.45515" lon="6.03435">
        <ele>608.6518555</ele>
        <time>2012-03-04T12:32:42Z</time>
      </trkpt>
      <trkpt lat="44.45515" lon="6.03434">
        <ele>608.1713867</ele>
        <time>2012-03-04T12:33:26Z</time>
      </trkpt>
      <trkpt lat="44.45515" lon="6.03434">
        <ele>608.1713867</ele>
        <time>2012-03-04T12:33:27Z</time>
      </trkpt>
      <trkpt lat="44.4552" lon="6.03406">
        <ele>608.1713867</ele>
        <time>2012-03-04T12:33:37Z</time>
      </trkpt>
      <trkpt lat="44.45515" lon="6.03399">
        <ele>607.2099609</ele>
        <time>2012-03-04T12:33:40Z</time>
      </trkpt>
      <trkpt lat="44.45517" lon="6.03382">
        <ele>607.6906738</ele>
        <time>2012-03-04T12:33:45Z</time>
      </trkpt>
      <trkpt lat="44.45519" lon="6.0335">
        <ele>607.2099609</ele>
        <time>2012-03-04T12:33:54Z</time>
      </trkpt>
      <trkpt lat="44.45506" lon="6.03336">
        <ele>607.6906738</ele>
        <time>2012-03-04T12:34:04Z</time>
      </trkpt>
      <trkpt lat="44.45501" lon="6.03329">
        <ele>607.6906738</ele>
        <time>2012-03-04T12:34:30Z</time>
      </trkpt>
      <trkpt lat="44.45511" lon="6.03326">
        <ele>608.1713867</ele>
        <time>2012-03-04T12:34:35Z</time>
      </trkpt>
      <trkpt lat="44.45587" lon="6.03331">
        <ele>609.1325684</ele>
        <time>2012-03-04T12:34:53Z</time>
      </trkpt>
      <trkpt lat="44.45704" lon="6.03348">
        <ele>610.09375</ele>
        <time>2012-03-04T12:35:18Z</time>
      </trkpt>
      <trkpt lat="44.45781" lon="6.03358">
        <ele>610.5744629</ele>
        <time>2012-03-04T12:35:34Z</time>
      </trkpt>
      <trkpt lat="44.45814" lon="6.03362">
        <ele>611.0551758</ele>
        <time>2012-03-04T12:35:41Z</time>
      </trkpt>
      <trkpt lat="44.45935" lon="6.03377">
        <ele>612.9777832</ele>
        <time>2012-03-04T12:36:06Z</time>
      </trkpt>
      <trkpt lat="44.45977" lon="6.03383">
        <ele>614.9003906</ele>
        <time>2012-03-04T12:36:16Z</time>
      </trkpt>
      <trkpt lat="44.46008" lon="6.03387">
        <ele>616.3422852</ele>
        <time>2012-03-04T12:36:25Z</time>
      </trkpt>
      <trkpt lat="44.46078" lon="6.03398">
        <ele>619.7070313</ele>
        <time>2012-03-04T12:36:50Z</time>
      </trkpt>
      <trkpt lat="44.46096" lon="6.034">
        <ele>620.1877441</ele>
        <time>2012-03-04T12:36:57Z</time>
      </trkpt>
      <trkpt lat="44.46086" lon="6.03395">
        <ele>620.668457</ele>
        <time>2012-03-04T12:37:09Z</time>
      </trkpt>
      <trkpt lat="44.46086" lon="6.03395">
        <ele>620.668457</ele>
        <time>2012-03-04T12:37:11Z</time>
      </trkpt>
      <trkpt lat="44.46104" lon="6.03377">
        <ele>620.1877441</ele>
        <time>2012-03-04T12:37:15Z</time>
      </trkpt>
      <trkpt lat="44.46134" lon="6.03384">
        <ele>620.1877441</ele>
        <time>2012-03-04T12:37:27Z</time>
      </trkpt>
      <trkpt lat="44.46152" lon="6.03389">
        <ele>619.7070313</ele>
        <time>2012-03-04T12:37:32Z</time>
      </trkpt>
      <trkpt lat="44.46175" lon="6.03399">
        <ele>618.2648926</ele>
        <time>2012-03-04T12:37:37Z</time>
      </trkpt>
      <trkpt lat="44.46275" lon="6.03302">
        <ele>615.8618164</ele>
        <time>2012-03-04T12:37:53Z</time>
      </trkpt>
      <trkpt lat="44.46299" lon="6.03286">
        <ele>614.9003906</ele>
        <time>2012-03-04T12:37:58Z</time>
      </trkpt>
      <trkpt lat="44.46324" lon="6.03265">
        <ele>614.9003906</ele>
        <time>2012-03-04T12:38:04Z</time>
      </trkpt>
      <trkpt lat="44.46364" lon="6.03223">
        <ele>618.2648926</ele>
        <time>2012-03-04T12:38:17Z</time>
      </trkpt>
      <trkpt lat="44.46366" lon="6.0322">
        <ele>618.2648926</ele>
        <time>2012-03-04T12:38:18Z</time>
      </trkpt>
      <trkpt lat="44.46396" lon="6.03191">
        <ele>617.3037109</ele>
        <time>2012-03-04T12:38:28Z</time>
      </trkpt>
      <trkpt lat="44.46446" lon="6.03136">
        <ele>616.822998</ele>
        <time>2012-03-04T12:38:41Z</time>
      </trkpt>
      <trkpt lat="44.46489" lon="6.03094">
        <ele>618.7456055</ele>
        <time>2012-03-04T12:38:55Z</time>
      </trkpt>
      <trkpt lat="44.46516" lon="6.03069">
        <ele>620.1877441</ele>
        <time>2012-03-04T12:39:05Z</time>
      </trkpt>
      <trkpt lat="44.46558" lon="6.03041">
        <ele>622.1103516</ele>
        <time>2012-03-04T12:39:21Z</time>
      </trkpt>
      <trkpt lat="44.46586" lon="6.03023">
        <ele>624.9943848</ele>
        <time>2012-03-04T12:39:34Z</time>
      </trkpt>
      <trkpt lat="44.46622" lon="6.03">
        <ele>626.4362793</ele>
        <time>2012-03-04T12:39:51Z</time>
      </trkpt>
      <trkpt lat="44.46647" lon="6.02982">
        <ele>630.2814941</ele>
        <time>2012-03-04T12:40:04Z</time>
      </trkpt>
      <trkpt lat="44.46648" lon="6.0298">
        <ele>630.2814941</ele>
        <time>2012-03-04T12:40:05Z</time>
      </trkpt>
      <trkpt lat="44.46691" lon="6.02944">
        <ele>633.6459961</ele>
        <time>2012-03-04T12:40:27Z</time>
      </trkpt>
      <trkpt lat="44.46693" lon="6.02943">
        <ele>633.6459961</ele>
        <time>2012-03-04T12:40:28Z</time>
      </trkpt>
      <trkpt lat="44.46721" lon="6.02935">
        <ele>636.0495605</ele>
        <time>2012-03-04T12:40:40Z</time>
      </trkpt>
      <trkpt lat="44.46763" lon="6.02947">
        <ele>638.9335938</ele>
        <time>2012-03-04T12:40:59Z</time>
      </trkpt>
      <trkpt lat="44.4678" lon="6.02943">
        <ele>640.3754883</ele>
        <time>2012-03-04T12:41:07Z</time>
      </trkpt>
      <trkpt lat="44.46786" lon="6.02941">
        <ele>641.3366699</ele>
        <time>2012-03-04T12:41:10Z</time>
      </trkpt>
      <trkpt lat="44.46787" lon="6.02941">
        <ele>642.2980957</ele>
        <time>2012-03-04T12:41:11Z</time>
      </trkpt>
      <trkpt lat="44.46834" lon="6.02923">
        <ele>645.1818848</ele>
        <time>2012-03-04T12:41:34Z</time>
      </trkpt>
      <trkpt lat="44.46847" lon="6.02913">
        <ele>646.1433105</ele>
        <time>2012-03-04T12:41:42Z</time>
      </trkpt>
      <trkpt lat="44.46851" lon="6.02863">
        <ele>648.5463867</ele>
        <time>2012-03-04T12:42:00Z</time>
      </trkpt>
      <trkpt lat="44.46861" lon="6.02809">
        <ele>651.4304199</ele>
        <time>2012-03-04T12:42:16Z</time>
      </trkpt>
      <trkpt lat="44.46878" lon="6.02804">
        <ele>652.3918457</ele>
        <time>2012-03-04T12:42:23Z</time>
      </trkpt>
      <trkpt lat="44.46927" lon="6.02802">
        <ele>655.7565918</ele>
        <time>2012-03-04T12:42:44Z</time>
      </trkpt>
      <trkpt lat="44.46977" lon="6.02796">
        <ele>656.7177734</ele>
        <time>2012-03-04T12:43:04Z</time>
      </trkpt>
      <trkpt lat="44.47026" lon="6.02772">
        <ele>658.1599121</ele>
        <time>2012-03-04T12:43:22Z</time>
      </trkpt>
      <trkpt lat="44.47049" lon="6.02734">
        <ele>660.0822754</ele>
        <time>2012-03-04T12:43:38Z</time>
      </trkpt>
      <trkpt lat="44.47063" lon="6.0271">
        <ele>662.9663086</ele>
        <time>2012-03-04T12:43:48Z</time>
      </trkpt>
      <trkpt lat="44.47098" lon="6.02681">
        <ele>666.3308105</ele>
        <time>2012-03-04T12:44:07Z</time>
      </trkpt>
      <trkpt lat="44.47135" lon="6.02651">
        <ele>668.2536621</ele>
        <time>2012-03-04T12:44:25Z</time>
      </trkpt>
      <trkpt lat="44.47177" lon="6.02623">
        <ele>671.1376953</ele>
        <time>2012-03-04T12:44:43Z</time>
      </trkpt>
      <trkpt lat="44.47226" lon="6.02615">
        <ele>674.0214844</ele>
        <time>2012-03-04T12:45:03Z</time>
      </trkpt>
      <trkpt lat="44.47259" lon="6.02574">
        <ele>675.9440918</ele>
        <time>2012-03-04T12:45:22Z</time>
      </trkpt>
      <trkpt lat="44.47295" lon="6.02535">
        <ele>678.828125</ele>
        <time>2012-03-04T12:45:40Z</time>
      </trkpt>
      <trkpt lat="44.47334" lon="6.02542">
        <ele>681.7119141</ele>
        <time>2012-03-04T12:45:56Z</time>
      </trkpt>
      <trkpt lat="44.47372" lon="6.02522">
        <ele>684.1154785</ele>
        <time>2012-03-04T12:46:14Z</time>
      </trkpt>
      <trkpt lat="44.47384" lon="6.02471">
        <ele>686.9992676</ele>
        <time>2012-03-04T12:46:32Z</time>
      </trkpt>
      <trkpt lat="44.47403" lon="6.02419">
        <ele>687.4799805</ele>
        <time>2012-03-04T12:46:48Z</time>
      </trkpt>
      <trkpt lat="44.47426" lon="6.02356">
        <ele>689.8833008</ele>
        <time>2012-03-04T12:47:08Z</time>
      </trkpt>
      <trkpt lat="44.47429" lon="6.023">
        <ele>693.2478027</ele>
        <time>2012-03-04T12:47:26Z</time>
      </trkpt>
      <trkpt lat="44.47437" lon="6.02262">
        <ele>696.6125488</ele>
        <time>2012-03-04T12:47:40Z</time>
      </trkpt>
      <trkpt lat="44.47464" lon="6.02234">
        <ele>698.5349121</ele>
        <time>2012-03-04T12:47:56Z</time>
      </trkpt>
      <trkpt lat="44.47493" lon="6.02203">
        <ele>700.4580078</ele>
        <time>2012-03-04T12:48:13Z</time>
      </trkpt>
      <trkpt lat="44.47516" lon="6.02162">
        <ele>703.8225098</ele>
        <time>2012-03-04T12:48:31Z</time>
      </trkpt>
      <trkpt lat="44.47552" lon="6.02126">
        <ele>707.1870117</ele>
        <time>2012-03-04T12:48:52Z</time>
      </trkpt>
      <trkpt lat="44.4758" lon="6.0209">
        <ele>710.0708008</ele>
        <time>2012-03-04T12:49:11Z</time>
      </trkpt>
      <trkpt lat="44.47583" lon="6.02083">
        <ele>711.0322266</ele>
        <time>2012-03-04T12:49:15Z</time>
      </trkpt>
      <trkpt lat="44.4761" lon="6.02055">
        <ele>710.0708008</ele>
        <time>2012-03-04T12:49:29Z</time>
      </trkpt>
      <trkpt lat="44.47676" lon="6.02055">
        <ele>707.6677246</ele>
        <time>2012-03-04T12:49:44Z</time>
      </trkpt>
      <trkpt lat="44.47698" lon="6.02053">
        <ele>706.7062988</ele>
        <time>2012-03-04T12:49:48Z</time>
      </trkpt>
      <trkpt lat="44.47713" lon="6.02054">
        <ele>704.7836914</ele>
        <time>2012-03-04T12:49:51Z</time>
      </trkpt>
      <trkpt lat="44.47761" lon="6.0207">
        <ele>702.861084</ele>
        <time>2012-03-04T12:49:59Z</time>
      </trkpt>
      <trkpt lat="44.47775" lon="6.02086">
        <ele>702.3803711</ele>
        <time>2012-03-04T12:50:02Z</time>
      </trkpt>
      <trkpt lat="44.47807" lon="6.02092">
        <ele>699.9770508</ele>
        <time>2012-03-04T12:50:07Z</time>
      </trkpt>
      <trkpt lat="44.4782" lon="6.02092">
        <ele>699.015625</ele>
        <time>2012-03-04T12:50:09Z</time>
      </trkpt>
      <trkpt lat="44.4783" lon="6.02095">
        <ele>697.0930176</ele>
        <time>2012-03-04T12:50:11Z</time>
      </trkpt>
      <trkpt lat="44.47834" lon="6.02097">
        <ele>698.0544434</ele>
        <time>2012-03-04T12:50:12Z</time>
      </trkpt>
      <trkpt lat="44.47842" lon="6.02098">
        <ele>699.015625</ele>
        <time>2012-03-04T12:50:14Z</time>
      </trkpt>
      <trkpt lat="44.47848" lon="6.0208">
        <ele>697.0930176</ele>
        <time>2012-03-04T12:50:17Z</time>
      </trkpt>
      <trkpt lat="44.47852" lon="6.02057">
        <ele>697.0930176</ele>
        <time>2012-03-04T12:50:20Z</time>
      </trkpt>
      <trkpt lat="44.47864" lon="6.02016">
        <ele>696.6125488</ele>
        <time>2012-03-04T12:50:27Z</time>
      </trkpt>
      <trkpt lat="44.47877" lon="6.01976">
        <ele>699.9770508</ele>
        <time>2012-03-04T12:50:40Z</time>
      </trkpt>
      <trkpt lat="44.47903" lon="6.01954">
        <ele>700.4580078</ele>
        <time>2012-03-04T12:50:53Z</time>
      </trkpt>
      <trkpt lat="44.47909" lon="6.01954">
        <ele>701.8999023</ele>
        <time>2012-03-04T12:50:55Z</time>
      </trkpt>
      <trkpt lat="44.47921" lon="6.0194">
        <ele>703.8225098</ele>
        <time>2012-03-04T12:51:05Z</time>
      </trkpt>
      <trkpt lat="44.47921" lon="6.0194">
        <ele>701.4191895</ele>
        <time>2012-03-04T12:51:35Z</time>
      </trkpt>
      <trkpt lat="44.47921" lon="6.0194">
        <ele>703.3417969</ele>
        <time>2012-03-04T12:51:46Z</time>
      </trkpt>
      <trkpt lat="44.47921" lon="6.0194">
        <ele>705.2644043</ele>
        <time>2012-03-04T12:53:07Z</time>
      </trkpt>
      <trkpt lat="44.47921" lon="6.0194">
        <ele>702.3803711</ele>
        <time>2012-03-04T12:53:10Z</time>
      </trkpt>
      <trkpt lat="44.47921" lon="6.0194">
        <ele>703.8225098</ele>
        <time>2012-03-04T12:53:47Z</time>
      </trkpt>
      <trkpt lat="44.47921" lon="6.0194">
        <ele>702.3803711</ele>
        <time>2012-03-04T12:54:58Z</time>
      </trkpt>
      <trkpt lat="44.47927" lon="6.01903">
        <ele>704.7836914</ele>
        <time>2012-03-04T12:55:14Z</time>
      </trkpt>
      <trkpt lat="44.47931" lon="6.01879">
        <ele>708.1484375</ele>
        <time>2012-03-04T12:55:23Z</time>
      </trkpt>
      <trkpt lat="44.47936" lon="6.01841">
        <ele>709.590332</ele>
        <time>2012-03-04T12:55:38Z</time>
      </trkpt>
      <trkpt lat="44.47939" lon="6.01803">
        <ele>712.4741211</ele>
        <time>2012-03-04T12:55:52Z</time>
      </trkpt>
      <trkpt lat="44.4793" lon="6.01773">
        <ele>715.3581543</ele>
        <time>2012-03-04T12:56:05Z</time>
      </trkpt>
      <trkpt lat="44.47929" lon="6.01772">
        <ele>715.3581543</ele>
        <time>2012-03-04T12:56:06Z</time>
      </trkpt>
      <trkpt lat="44.47917" lon="6.01758">
        <ele>716.800293</ele>
        <time>2012-03-04T12:56:15Z</time>
      </trkpt>
      <trkpt lat="44.4789" lon="6.01729">
        <ele>718.7229004</ele>
        <time>2012-03-04T12:56:34Z</time>
      </trkpt>
      <trkpt lat="44.4788" lon="6.01714">
        <ele>720.6455078</ele>
        <time>2012-03-04T12:56:47Z</time>
      </trkpt>
      <trkpt lat="44.4788" lon="6.01714">
        <ele>723.529541</ele>
        <time>2012-03-04T12:57:09Z</time>
      </trkpt>
      <trkpt lat="44.4788" lon="6.01714">
        <ele>726.894043</ele>
        <time>2012-03-04T12:57:26Z</time>
      </trkpt>
      <trkpt lat="44.4788" lon="6.01714">
        <ele>729.777832</ele>
        <time>2012-03-04T12:57:47Z</time>
      </trkpt>
      <trkpt lat="44.4788" lon="6.01714">
        <ele>733.1425781</ele>
        <time>2012-03-04T12:58:12Z</time>
      </trkpt>
      <trkpt lat="44.4782" lon="6.01619">
        <ele>736.5073242</ele>
        <time>2012-03-04T12:58:31Z</time>
      </trkpt>
      <trkpt lat="44.4782" lon="6.01619">
        <ele>739.8718262</ele>
        <time>2012-03-04T12:58:53Z</time>
      </trkpt>
      <trkpt lat="44.4782" lon="6.01619">
        <ele>742.7558594</ele>
        <time>2012-03-04T12:59:10Z</time>
      </trkpt>
      <trkpt lat="44.4782" lon="6.01619">
        <ele>746.1203613</ele>
        <time>2012-03-04T12:59:33Z</time>
      </trkpt>
      <trkpt lat="44.4782" lon="6.01619">
        <ele>749.4851074</ele>
        <time>2012-03-04T12:59:58Z</time>
      </trkpt>
      <trkpt lat="44.47741" lon="6.01555">
        <ele>751.8884277</ele>
        <time>2012-03-04T13:00:21Z</time>
      </trkpt>
      <trkpt lat="44.47741" lon="6.01555">
        <ele>754.291748</ele>
        <time>2012-03-04T13:00:46Z</time>
      </trkpt>
      <trkpt lat="44.47741" lon="6.01555">
        <ele>755.7336426</ele>
        <time>2012-03-04T13:01:02Z</time>
      </trkpt>
      <trkpt lat="44.47741" lon="6.01555">
        <ele>755.2529297</ele>
        <time>2012-03-04T13:01:21Z</time>
      </trkpt>
      <trkpt lat="44.47741" lon="6.01555">
        <ele>755.2529297</ele>
        <time>2012-03-04T13:01:25Z</time>
      </trkpt>
      <trkpt lat="44.47741" lon="6.01491">
        <ele>757.1755371</ele>
        <time>2012-03-04T13:01:34Z</time>
      </trkpt>
      <trkpt lat="44.47753" lon="6.01459">
        <ele>760.5400391</ele>
        <time>2012-03-04T13:01:49Z</time>
      </trkpt>
      <trkpt lat="44.47755" lon="6.0145">
        <ele>761.020752</ele>
        <time>2012-03-04T13:01:53Z</time>
      </trkpt>
      <trkpt lat="44.47762" lon="6.01408">
        <ele>763.4240723</ele>
        <time>2012-03-04T13:02:11Z</time>
      </trkpt>
      <trkpt lat="44.47762" lon="6.01383">
        <ele>766.3081055</ele>
        <time>2012-03-04T13:02:21Z</time>
      </trkpt>
      <trkpt lat="44.47756" lon="6.01344">
        <ele>768.7114258</ele>
        <time>2012-03-04T13:02:37Z</time>
      </trkpt>
      <trkpt lat="44.47751" lon="6.01305">
        <ele>772.0759277</ele>
        <time>2012-03-04T13:02:54Z</time>
      </trkpt>
      <trkpt lat="44.47748" lon="6.0128">
        <ele>773.9985352</ele>
        <time>2012-03-04T13:03:05Z</time>
      </trkpt>
      <trkpt lat="44.47748" lon="6.0124">
        <ele>776.4018555</ele>
        <time>2012-03-04T13:03:24Z</time>
      </trkpt>
      <trkpt lat="44.47773" lon="6.01193">
        <ele>779.2856445</ele>
        <time>2012-03-04T13:03:48Z</time>
      </trkpt>
      <trkpt lat="44.47803" lon="6.01166">
        <ele>781.689209</ele>
        <time>2012-03-04T13:04:08Z</time>
      </trkpt>
      <trkpt lat="44.47829" lon="6.01151">
        <ele>784.0925293</ele>
        <time>2012-03-04T13:04:23Z</time>
      </trkpt>
      <trkpt lat="44.47849" lon="6.01136">
        <ele>786.9763184</ele>
        <time>2012-03-04T13:04:36Z</time>
      </trkpt>
      <trkpt lat="44.47863" lon="6.01128">
        <ele>789.8603516</ele>
        <time>2012-03-04T13:04:46Z</time>
      </trkpt>
      <trkpt lat="44.47872" lon="6.01126">
        <ele>790.3410645</ele>
        <time>2012-03-04T13:05:00Z</time>
      </trkpt>
      <trkpt lat="44.47872" lon="6.01126">
        <ele>792.2636719</ele>
        <time>2012-03-04T13:05:19Z</time>
      </trkpt>
      <trkpt lat="44.47872" lon="6.01126">
        <ele>794.1862793</ele>
        <time>2012-03-04T13:05:25Z</time>
      </trkpt>
      <trkpt lat="44.47872" lon="6.01126">
        <ele>796.1091309</ele>
        <time>2012-03-04T13:05:31Z</time>
      </trkpt>
      <trkpt lat="44.47872" lon="6.01126">
        <ele>795.1474609</ele>
        <time>2012-03-04T13:05:33Z</time>
      </trkpt>
      <trkpt lat="44.47872" lon="6.01126">
        <ele>796.5898438</ele>
        <time>2012-03-04T13:05:38Z</time>
      </trkpt>
      <trkpt lat="44.47872" lon="6.01126">
        <ele>800.4350586</ele>
        <time>2012-03-04T13:06:00Z</time>
      </trkpt>
      <trkpt lat="44.47872" lon="6.01126">
        <ele>800.4350586</ele>
        <time>2012-03-04T13:06:01Z</time>
      </trkpt>
      <trkpt lat="44.47872" lon="6.01126">
        <ele>802.8381348</ele>
        <time>2012-03-04T13:06:18Z</time>
      </trkpt>
      <trkpt lat="44.47963" lon="6.01137">
        <ele>805.722168</ele>
        <time>2012-03-04T13:06:38Z</time>
      </trkpt>
      <trkpt lat="44.47963" lon="6.01137">
        <ele>807.1640625</ele>
        <time>2012-03-04T13:06:47Z</time>
      </trkpt>
      <trkpt lat="44.47963" lon="6.01137">
        <ele>810.5285645</ele>
        <time>2012-03-04T13:07:05Z</time>
      </trkpt>
      <trkpt lat="44.47963" lon="6.01137">
        <ele>814.3740234</ele>
        <time>2012-03-04T13:07:28Z</time>
      </trkpt>
      <trkpt lat="44.47963" lon="6.01137">
        <ele>816.2966309</ele>
        <time>2012-03-04T13:07:50Z</time>
      </trkpt>
      <trkpt lat="44.48046" lon="6.01083">
        <ele>819.661377</ele>
        <time>2012-03-04T13:08:18Z</time>
      </trkpt>
      <trkpt lat="44.48046" lon="6.01083">
        <ele>821.5837402</ele>
        <time>2012-03-04T13:08:36Z</time>
      </trkpt>
      <trkpt lat="44.48046" lon="6.01083">
        <ele>824.9484863</ele>
        <time>2012-03-04T13:08:55Z</time>
      </trkpt>
      <trkpt lat="44.48046" lon="6.01083">
        <ele>823.0258789</ele>
        <time>2012-03-04T13:09:04Z</time>
      </trkpt>
      <trkpt lat="44.48046" lon="6.01083">
        <ele>823.5065918</ele>
        <time>2012-03-04T13:09:45Z</time>
      </trkpt>
      <trkpt lat="44.48046" lon="6.01083">
        <ele>825.4289551</ele>
        <time>2012-03-04T13:10:16Z</time>
      </trkpt>
      <trkpt lat="44.48072" lon="6.01038">
        <ele>826.3903809</ele>
        <time>2012-03-04T13:10:18Z</time>
      </trkpt>
      <trkpt lat="44.48089" lon="6.01017">
        <ele>824.9484863</ele>
        <time>2012-03-04T13:10:27Z</time>
      </trkpt>
      <trkpt lat="44.48118" lon="6.01001">
        <ele>828.3132324</ele>
        <time>2012-03-04T13:10:42Z</time>
      </trkpt>
      <trkpt lat="44.48165" lon="6.00991">
        <ele>831.6777344</ele>
        <time>2012-03-04T13:11:01Z</time>
      </trkpt>
      <trkpt lat="44.48168" lon="6.01008">
        <ele>832.1584473</ele>
        <time>2012-03-04T13:11:11Z</time>
      </trkpt>
      <trkpt lat="44.48179" lon="6.01058">
        <ele>833.6003418</ele>
        <time>2012-03-04T13:11:24Z</time>
      </trkpt>
      <trkpt lat="44.48184" lon="6.01068">
        <ele>832.6391602</ele>
        <time>2012-03-04T13:11:27Z</time>
      </trkpt>
      <trkpt lat="44.48197" lon="6.01081">
        <ele>833.6003418</ele>
        <time>2012-03-04T13:11:34Z</time>
      </trkpt>
      <trkpt lat="44.48197" lon="6.01081">
        <ele>833.1196289</ele>
        <time>2012-03-04T13:12:33Z</time>
      </trkpt>
      <trkpt lat="44.48197" lon="6.01081">
        <ele>834.5617676</ele>
        <time>2012-03-04T13:12:36Z</time>
      </trkpt>
      <trkpt lat="44.48197" lon="6.01081">
        <ele>833.1196289</ele>
        <time>2012-03-04T13:13:14Z</time>
      </trkpt>
      <trkpt lat="44.48238" lon="6.01095">
        <ele>833.6003418</ele>
        <time>2012-03-04T13:13:26Z</time>
      </trkpt>
      <trkpt lat="44.48301" lon="6.01108">
        <ele>834.0810547</ele>
        <time>2012-03-04T13:13:42Z</time>
      </trkpt>
      <trkpt lat="44.48346" lon="6.01126">
        <ele>834.0810547</ele>
        <time>2012-03-04T13:13:51Z</time>
      </trkpt>
      <trkpt lat="44.48455" lon="6.01199">
        <ele>832.6391602</ele>
        <time>2012-03-04T13:14:12Z</time>
      </trkpt>
      <trkpt lat="44.48565" lon="6.01238">
        <ele>833.6003418</ele>
        <time>2012-03-04T13:14:30Z</time>
      </trkpt>
      <trkpt lat="44.48627" lon="6.01264">
        <ele>833.6003418</ele>
        <time>2012-03-04T13:14:41Z</time>
      </trkpt>
      <trkpt lat="44.48651" lon="6.01255">
        <ele>833.6003418</ele>
        <time>2012-03-04T13:14:46Z</time>
      </trkpt>
      <trkpt lat="44.48666" lon="6.01243">
        <ele>833.6003418</ele>
        <time>2012-03-04T13:14:49Z</time>
      </trkpt>
      <trkpt lat="44.48691" lon="6.01261">
        <ele>832.1584473</ele>
        <time>2012-03-04T13:14:55Z</time>
      </trkpt>
      <trkpt lat="44.48695" lon="6.01276">
        <ele>832.6391602</ele>
        <time>2012-03-04T13:14:57Z</time>
      </trkpt>
      <trkpt lat="44.48753" lon="6.01322">
        <ele>832.6391602</ele>
        <time>2012-03-04T13:15:08Z</time>
      </trkpt>
      <trkpt lat="44.48883" lon="6.01376">
        <ele>831.6777344</ele>
        <time>2012-03-04T13:15:29Z</time>
      </trkpt>
      <trkpt lat="44.49006" lon="6.01429">
        <ele>830.2358398</ele>
        <time>2012-03-04T13:15:48Z</time>
      </trkpt>
      <trkpt lat="44.49051" lon="6.01493">
        <ele>828.3132324</ele>
        <time>2012-03-04T13:15:56Z</time>
      </trkpt>
      <trkpt lat="44.49111" lon="6.01568">
        <ele>824.4677734</ele>
        <time>2012-03-04T13:16:06Z</time>
      </trkpt>
      <trkpt lat="44.49159" lon="6.01618">
        <ele>821.1032715</ele>
        <time>2012-03-04T13:16:13Z</time>
      </trkpt>
      <trkpt lat="44.49186" lon="6.01648">
        <ele>819.1806641</ele>
        <time>2012-03-04T13:16:17Z</time>
      </trkpt>
      <trkpt lat="44.49206" lon="6.01668">
        <ele>816.7773438</ele>
        <time>2012-03-04T13:16:20Z</time>
      </trkpt>
      <trkpt lat="44.49226" lon="6.01681">
        <ele>814.8547363</ele>
        <time>2012-03-04T13:16:23Z</time>
      </trkpt>
      <trkpt lat="44.49239" lon="6.01703">
        <ele>813.8933105</ele>
        <time>2012-03-04T13:16:26Z</time>
      </trkpt>
      <trkpt lat="44.49275" lon="6.01721">
        <ele>810.5285645</ele>
        <time>2012-03-04T13:16:31Z</time>
      </trkpt>
      <trkpt lat="44.49291" lon="6.01725">
        <ele>809.0866699</ele>
        <time>2012-03-04T13:16:33Z</time>
      </trkpt>
      <trkpt lat="44.49326" lon="6.0173">
        <ele>806.6833496</ele>
        <time>2012-03-04T13:16:37Z</time>
      </trkpt>
      <trkpt lat="44.49334" lon="6.01732">
        <ele>805.2414551</ele>
        <time>2012-03-04T13:16:38Z</time>
      </trkpt>
      <trkpt lat="44.49348" lon="6.01739">
        <ele>804.2802734</ele>
        <time>2012-03-04T13:16:40Z</time>
      </trkpt>
      <trkpt lat="44.49362" lon="6.01749">
        <ele>802.3574219</ele>
        <time>2012-03-04T13:16:42Z</time>
      </trkpt>
      <trkpt lat="44.49369" lon="6.01753">
        <ele>800.9155273</ele>
        <time>2012-03-04T13:16:43Z</time>
      </trkpt>
      <trkpt lat="44.49399" lon="6.01759">
        <ele>799.4736328</ele>
        <time>2012-03-04T13:16:47Z</time>
      </trkpt>
      <trkpt lat="44.49442" lon="6.01797">
        <ele>794.1862793</ele>
        <time>2012-03-04T13:16:55Z</time>
      </trkpt>
      <trkpt lat="44.49448" lon="6.01804">
        <ele>794.1862793</ele>
        <time>2012-03-04T13:16:56Z</time>
      </trkpt>
      <trkpt lat="44.49475" lon="6.01813">
        <ele>791.3022461</ele>
        <time>2012-03-04T13:17:00Z</time>
      </trkpt>
      <trkpt lat="44.49495" lon="6.01809">
        <ele>789.8603516</ele>
        <time>2012-03-04T13:17:03Z</time>
      </trkpt>
      <trkpt lat="44.49514" lon="6.01827">
        <ele>786.9763184</ele>
        <time>2012-03-04T13:17:08Z</time>
      </trkpt>
      <trkpt lat="44.49515" lon="6.01834">
        <ele>786.0151367</ele>
        <time>2012-03-04T13:17:09Z</time>
      </trkpt>
      <trkpt lat="44.49518" lon="6.0185">
        <ele>785.0539551</ele>
        <time>2012-03-04T13:17:11Z</time>
      </trkpt>
      <trkpt lat="44.49533" lon="6.01877">
        <ele>783.6118164</ele>
        <time>2012-03-04T13:17:14Z</time>
      </trkpt>
      <trkpt lat="44.49553" lon="6.019">
        <ele>780.7280273</ele>
        <time>2012-03-04T13:17:17Z</time>
      </trkpt>
      <trkpt lat="44.49568" lon="6.01914">
        <ele>779.2856445</ele>
        <time>2012-03-04T13:17:19Z</time>
      </trkpt>
      <trkpt lat="44.49582" lon="6.01929">
        <ele>777.84375</ele>
        <time>2012-03-04T13:17:21Z</time>
      </trkpt>
      <trkpt lat="44.49604" lon="6.0195">
        <ele>775.4404297</ele>
        <time>2012-03-04T13:17:24Z</time>
      </trkpt>
      <trkpt lat="44.49618" lon="6.01963">
        <ele>773.9985352</ele>
        <time>2012-03-04T13:17:26Z</time>
      </trkpt>
      <trkpt lat="44.49632" lon="6.01975">
        <ele>772.5566406</ele>
        <time>2012-03-04T13:17:28Z</time>
      </trkpt>
      <trkpt lat="44.49638" lon="6.0198">
        <ele>771.5952148</ele>
        <time>2012-03-04T13:17:29Z</time>
      </trkpt>
      <trkpt lat="44.49652" lon="6.01987">
        <ele>769.6728516</ele>
        <time>2012-03-04T13:17:31Z</time>
      </trkpt>
      <trkpt lat="44.4967" lon="6.01992">
        <ele>768.2307129</ele>
        <time>2012-03-04T13:17:34Z</time>
      </trkpt>
      <trkpt lat="44.49666" lon="6.02016">
        <ele>766.3081055</ele>
        <time>2012-03-04T13:17:41Z</time>
      </trkpt>
      <trkpt lat="44.49656" lon="6.02019">
        <ele>765.3469238</ele>
        <time>2012-03-04T13:17:43Z</time>
      </trkpt>
      <trkpt lat="44.49646" lon="6.02021">
        <ele>763.904541</ele>
        <time>2012-03-04T13:17:45Z</time>
      </trkpt>
      <trkpt lat="44.49633" lon="6.02022">
        <ele>761.9821777</ele>
        <time>2012-03-04T13:17:47Z</time>
      </trkpt>
      <trkpt lat="44.49618" lon="6.02024">
        <ele>763.4240723</ele>
        <time>2012-03-04T13:17:49Z</time>
      </trkpt>
      <trkpt lat="44.49602" lon="6.02026">
        <ele>761.020752</ele>
        <time>2012-03-04T13:17:51Z</time>
      </trkpt>
      <trkpt lat="44.49577" lon="6.02031">
        <ele>759.0981445</ele>
        <time>2012-03-04T13:17:54Z</time>
      </trkpt>
      <trkpt lat="44.49537" lon="6.02049">
        <ele>756.2141113</ele>
        <time>2012-03-04T13:17:59Z</time>
      </trkpt>
      <trkpt lat="44.49521" lon="6.02052">
        <ele>754.291748</ele>
        <time>2012-03-04T13:18:01Z</time>
      </trkpt>
      <trkpt lat="44.49506" lon="6.02053">
        <ele>751.4077148</ele>
        <time>2012-03-04T13:18:03Z</time>
      </trkpt>
      <trkpt lat="44.49491" lon="6.02053">
        <ele>750.4465332</ele>
        <time>2012-03-04T13:18:05Z</time>
      </trkpt>
      <trkpt lat="44.49484" lon="6.02053">
        <ele>748.0432129</ele>
        <time>2012-03-04T13:18:06Z</time>
      </trkpt>
      <trkpt lat="44.49457" lon="6.02067">
        <ele>749.4851074</ele>
        <time>2012-03-04T13:18:10Z</time>
      </trkpt>
      <trkpt lat="44.49445" lon="6.02082">
        <ele>747.5622559</ele>
        <time>2012-03-04T13:18:12Z</time>
      </trkpt>
      <trkpt lat="44.49416" lon="6.02114">
        <ele>744.1977539</ele>
        <time>2012-03-04T13:18:16Z</time>
      </trkpt>
      <trkpt lat="44.49409" lon="6.02122">
        <ele>744.1977539</ele>
        <time>2012-03-04T13:18:17Z</time>
      </trkpt>
      <trkpt lat="44.49401" lon="6.02129">
        <ele>743.717041</ele>
        <time>2012-03-04T13:18:18Z</time>
      </trkpt>
      <trkpt lat="44.49374" lon="6.02146">
        <ele>740.8330078</ele>
        <time>2012-03-04T13:18:22Z</time>
      </trkpt>
      <trkpt lat="44.4936" lon="6.0215">
        <ele>739.8718262</ele>
        <time>2012-03-04T13:18:24Z</time>
      </trkpt>
      <trkpt lat="44.49345" lon="6.02152">
        <ele>737.4685059</ele>
        <time>2012-03-04T13:18:26Z</time>
      </trkpt>
      <trkpt lat="44.49296" lon="6.02158">
        <ele>733.623291</ele>
        <time>2012-03-04T13:18:32Z</time>
      </trkpt>
      <trkpt lat="44.49279" lon="6.02157">
        <ele>728.3359375</ele>
        <time>2012-03-04T13:18:34Z</time>
      </trkpt>
      <trkpt lat="44.49264" lon="6.02152">
        <ele>726.4133301</ele>
        <time>2012-03-04T13:18:36Z</time>
      </trkpt>
      <trkpt lat="44.49248" lon="6.02149">
        <ele>725.4519043</ele>
        <time>2012-03-04T13:18:38Z</time>
      </trkpt>
      <trkpt lat="44.49216" lon="6.02146">
        <ele>726.4133301</ele>
        <time>2012-03-04T13:18:42Z</time>
      </trkpt>
      <trkpt lat="44.49209" lon="6.02147">
        <ele>722.5681152</ele>
        <time>2012-03-04T13:18:43Z</time>
      </trkpt>
      <trkpt lat="44.49195" lon="6.02147">
        <ele>720.6455078</ele>
        <time>2012-03-04T13:18:45Z</time>
      </trkpt>
      <trkpt lat="44.49174" lon="6.02164">
        <ele>721.6066895</ele>
        <time>2012-03-04T13:18:49Z</time>
      </trkpt>
      <trkpt lat="44.49172" lon="6.02173">
        <ele>721.1262207</ele>
        <time>2012-03-04T13:18:50Z</time>
      </trkpt>
      <trkpt lat="44.49159" lon="6.02238">
        <ele>717.2810059</ele>
        <time>2012-03-04T13:18:57Z</time>
      </trkpt>
      <trkpt lat="44.49158" lon="6.02247">
        <ele>716.800293</ele>
        <time>2012-03-04T13:18:58Z</time>
      </trkpt>
      <trkpt lat="44.49152" lon="6.02289">
        <ele>715.3581543</ele>
        <time>2012-03-04T13:19:08Z</time>
      </trkpt>
      <trkpt lat="44.49197" lon="6.02297">
        <ele>717.2810059</ele>
        <time>2012-03-04T13:19:19Z</time>
      </trkpt>
      <trkpt lat="44.49247" lon="6.0229">
        <ele>717.2810059</ele>
        <time>2012-03-04T13:19:31Z</time>
      </trkpt>
      <trkpt lat="44.49262" lon="6.02279">
        <ele>717.2810059</ele>
        <time>2012-03-04T13:19:35Z</time>
      </trkpt>
      <trkpt lat="44.49289" lon="6.02258">
        <ele>717.7614746</ele>
        <time>2012-03-04T13:19:42Z</time>
      </trkpt>
      <trkpt lat="44.49365" lon="6.02259">
        <ele>719.2036133</ele>
        <time>2012-03-04T13:19:58Z</time>
      </trkpt>
      <trkpt lat="44.49425" lon="6.02265">
        <ele>720.6455078</ele>
        <time>2012-03-04T13:20:09Z</time>
      </trkpt>
      <trkpt lat="44.49491" lon="6.02306">
        <ele>718.7229004</ele>
        <time>2012-03-04T13:20:20Z</time>
      </trkpt>
      <trkpt lat="44.49506" lon="6.02318">
        <ele>717.7614746</ele>
        <time>2012-03-04T13:20:22Z</time>
      </trkpt>
      <trkpt lat="44.4955" lon="6.02346">
        <ele>716.3195801</ele>
        <time>2012-03-04T13:20:27Z</time>
      </trkpt>
      <trkpt lat="44.49568" lon="6.02362">
        <ele>713.9160156</ele>
        <time>2012-03-04T13:20:29Z</time>
      </trkpt>
      <trkpt lat="44.4961" lon="6.02389">
        <ele>710.5515137</ele>
        <time>2012-03-04T13:20:33Z</time>
      </trkpt>
      <trkpt lat="44.49621" lon="6.02395">
        <ele>710.5515137</ele>
        <time>2012-03-04T13:20:34Z</time>
      </trkpt>
      <trkpt lat="44.49643" lon="6.02405">
        <ele>709.1096191</ele>
        <time>2012-03-04T13:20:36Z</time>
      </trkpt>
      <trkpt lat="44.49699" lon="6.02413">
        <ele>706.7062988</ele>
        <time>2012-03-04T13:20:41Z</time>
      </trkpt>
      <trkpt lat="44.49758" lon="6.02417">
        <ele>704.7836914</ele>
        <time>2012-03-04T13:20:47Z</time>
      </trkpt>
      <trkpt lat="44.49784" lon="6.02375">
        <ele>703.8225098</ele>
        <time>2012-03-04T13:20:53Z</time>
      </trkpt>
      <trkpt lat="44.49796" lon="6.02322">
        <ele>704.3032227</ele>
        <time>2012-03-04T13:20:58Z</time>
      </trkpt>
      <trkpt lat="44.49841" lon="6.02274">
        <ele>703.8225098</ele>
        <time>2012-03-04T13:21:06Z</time>
      </trkpt>
      <trkpt lat="44.49897" lon="6.02254">
        <ele>703.3417969</ele>
        <time>2012-03-04T13:21:15Z</time>
      </trkpt>
      <trkpt lat="44.49916" lon="6.02248">
        <ele>702.861084</ele>
        <time>2012-03-04T13:21:19Z</time>
      </trkpt>
      <trkpt lat="44.49949" lon="6.02279">
        <ele>703.3417969</ele>
        <time>2012-03-04T13:21:28Z</time>
      </trkpt>
      <trkpt lat="44.49949" lon="6.02284">
        <ele>703.3417969</ele>
        <time>2012-03-04T13:21:29Z</time>
      </trkpt>
      <trkpt lat="44.49946" lon="6.02336">
        <ele>706.7062988</ele>
        <time>2012-03-04T13:21:44Z</time>
      </trkpt>
      <trkpt lat="44.49956" lon="6.02378">
        <ele>709.590332</ele>
        <time>2012-03-04T13:22:00Z</time>
      </trkpt>
      <trkpt lat="44.49978" lon="6.02386">
        <ele>712.4741211</ele>
        <time>2012-03-04T13:22:12Z</time>
      </trkpt>
      <trkpt lat="44.50022" lon="6.02385">
        <ele>715.3581543</ele>
        <time>2012-03-04T13:22:35Z</time>
      </trkpt>
      <trkpt lat="44.50053" lon="6.02379">
        <ele>718.7229004</ele>
        <time>2012-03-04T13:22:52Z</time>
      </trkpt>
      <trkpt lat="44.50085" lon="6.02376">
        <ele>721.1262207</ele>
        <time>2012-03-04T13:23:09Z</time>
      </trkpt>
      <trkpt lat="44.50116" lon="6.02366">
        <ele>724.0100098</ele>
        <time>2012-03-04T13:23:26Z</time>
      </trkpt>
      <trkpt lat="44.50151" lon="6.02349">
        <ele>727.3747559</ele>
        <time>2012-03-04T13:23:45Z</time>
      </trkpt>
      <trkpt lat="44.50178" lon="6.02341">
        <ele>730.2585449</ele>
        <time>2012-03-04T13:24:01Z</time>
      </trkpt>
      <trkpt lat="44.50211" lon="6.02341">
        <ele>733.1425781</ele>
        <time>2012-03-04T13:24:19Z</time>
      </trkpt>
      <trkpt lat="44.50252" lon="6.0236">
        <ele>735.5458984</ele>
        <time>2012-03-04T13:24:39Z</time>
      </trkpt>
      <trkpt lat="44.50301" lon="6.02403">
        <ele>737.4685059</ele>
        <time>2012-03-04T13:25:01Z</time>
      </trkpt>
      <trkpt lat="44.50365" lon="6.02455">
        <ele>740.8330078</ele>
        <time>2012-03-04T13:25:27Z</time>
      </trkpt>
      <trkpt lat="44.50415" lon="6.02494">
        <ele>742.7558594</ele>
        <time>2012-03-04T13:25:47Z</time>
      </trkpt>
      <trkpt lat="44.50475" lon="6.0254">
        <ele>744.1977539</ele>
        <time>2012-03-04T13:26:08Z</time>
      </trkpt>
      <trkpt lat="44.50555" lon="6.0257">
        <ele>745.6396484</ele>
        <time>2012-03-04T13:26:29Z</time>
      </trkpt>
      <trkpt lat="44.5058" lon="6.0259">
        <ele>745.6396484</ele>
        <time>2012-03-04T13:26:36Z</time>
      </trkpt>
      <trkpt lat="44.50611" lon="6.02606">
        <ele>746.1203613</ele>
        <time>2012-03-04T13:26:43Z</time>
      </trkpt>
      <trkpt lat="44.50687" lon="6.02692">
        <ele>744.6782227</ele>
        <time>2012-03-04T13:26:59Z</time>
      </trkpt>
      <trkpt lat="44.50738" lon="6.02769">
        <ele>746.1203613</ele>
        <time>2012-03-04T13:27:16Z</time>
      </trkpt>
      <trkpt lat="44.50806" lon="6.02858">
        <ele>742.7558594</ele>
        <time>2012-03-04T13:27:34Z</time>
      </trkpt>
      <trkpt lat="44.50837" lon="6.02896">
        <ele>739.8718262</ele>
        <time>2012-03-04T13:27:39Z</time>
      </trkpt>
      <trkpt lat="44.50843" lon="6.02907">
        <ele>739.8718262</ele>
        <time>2012-03-04T13:27:40Z</time>
      </trkpt>
      <trkpt lat="44.50856" lon="6.02927">
        <ele>738.4299316</ele>
        <time>2012-03-04T13:27:42Z</time>
      </trkpt>
      <trkpt lat="44.50867" lon="6.02952">
        <ele>737.4685059</ele>
        <time>2012-03-04T13:27:44Z</time>
      </trkpt>
      <trkpt lat="44.50885" lon="6.02989">
        <ele>735.0654297</ele>
        <time>2012-03-04T13:27:47Z</time>
      </trkpt>
      <trkpt lat="44.5091" lon="6.0305">
        <ele>733.623291</ele>
        <time>2012-03-04T13:27:52Z</time>
      </trkpt>
      <trkpt lat="44.50985" lon="6.03137">
        <ele>733.623291</ele>
        <time>2012-03-04T13:28:04Z</time>
      </trkpt>
      <trkpt lat="44.51037" lon="6.03187">
        <ele>736.0266113</ele>
        <time>2012-03-04T13:28:17Z</time>
      </trkpt>
      <trkpt lat="44.51064" lon="6.03219">
        <ele>738.9106445</ele>
        <time>2012-03-04T13:28:27Z</time>
      </trkpt>
      <trkpt lat="44.51108" lon="6.03263">
        <ele>740.3525391</ele>
        <time>2012-03-04T13:28:46Z</time>
      </trkpt>
      <trkpt lat="44.51185" lon="6.03305">
        <ele>739.3911133</ele>
        <time>2012-03-04T13:29:07Z</time>
      </trkpt>
      <trkpt lat="44.51262" lon="6.03342">
        <ele>736.0266113</ele>
        <time>2012-03-04T13:29:18Z</time>
      </trkpt>
      <trkpt lat="44.51301" lon="6.03361">
        <ele>733.1425781</ele>
        <time>2012-03-04T13:29:22Z</time>
      </trkpt>
      <trkpt lat="44.51322" lon="6.03373">
        <ele>731.7004395</ele>
        <time>2012-03-04T13:29:24Z</time>
      </trkpt>
      <trkpt lat="44.51344" lon="6.03389">
        <ele>730.2585449</ele>
        <time>2012-03-04T13:29:26Z</time>
      </trkpt>
      <trkpt lat="44.51365" lon="6.03408">
        <ele>728.8166504</ele>
        <time>2012-03-04T13:29:28Z</time>
      </trkpt>
      <trkpt lat="44.51397" lon="6.03438">
        <ele>726.894043</ele>
        <time>2012-03-04T13:29:31Z</time>
      </trkpt>
      <trkpt lat="44.51471" lon="6.03488">
        <ele>724.4907227</ele>
        <time>2012-03-04T13:29:38Z</time>
      </trkpt>
      <trkpt lat="44.51547" lon="6.03511">
        <ele>722.0874023</ele>
        <time>2012-03-04T13:29:45Z</time>
      </trkpt>
      <trkpt lat="44.51653" lon="6.03537">
        <ele>722.5681152</ele>
        <time>2012-03-04T13:29:57Z</time>
      </trkpt>
      <trkpt lat="44.5175" lon="6.03539">
        <ele>723.0488281</ele>
        <time>2012-03-04T13:30:12Z</time>
      </trkpt>
      <trkpt lat="44.51803" lon="6.03536">
        <ele>724.4907227</ele>
        <time>2012-03-04T13:30:22Z</time>
      </trkpt>
      <trkpt lat="44.51901" lon="6.0359">
        <ele>724.4907227</ele>
        <time>2012-03-04T13:30:41Z</time>
      </trkpt>
      <trkpt lat="44.52017" lon="6.03628">
        <ele>724.9714355</ele>
        <time>2012-03-04T13:31:01Z</time>
      </trkpt>
      <trkpt lat="44.52124" lon="6.03647">
        <ele>727.3747559</ele>
        <time>2012-03-04T13:31:21Z</time>
      </trkpt>
      <trkpt lat="44.52202" lon="6.03706">
        <ele>727.3747559</ele>
        <time>2012-03-04T13:31:37Z</time>
      </trkpt>
      <trkpt lat="44.52304" lon="6.03801">
        <ele>729.2971191</ele>
        <time>2012-03-04T13:32:00Z</time>
      </trkpt>
      <trkpt lat="44.52423" lon="6.03861">
        <ele>730.2585449</ele>
        <time>2012-03-04T13:32:24Z</time>
      </trkpt>
      <trkpt lat="44.52469" lon="6.03888">
        <ele>730.7392578</ele>
        <time>2012-03-04T13:32:33Z</time>
      </trkpt>
      <trkpt lat="44.52504" lon="6.03915">
        <ele>731.2199707</ele>
        <time>2012-03-04T13:32:41Z</time>
      </trkpt>
      <trkpt lat="44.52588" lon="6.04002">
        <ele>732.1813965</ele>
        <time>2012-03-04T13:33:00Z</time>
      </trkpt>
      <trkpt lat="44.52677" lon="6.04083">
        <ele>734.5847168</ele>
        <time>2012-03-04T13:33:22Z</time>
      </trkpt>
      <trkpt lat="44.52713" lon="6.04099">
        <ele>736.5073242</ele>
        <time>2012-03-04T13:33:31Z</time>
      </trkpt>
      <trkpt lat="44.52767" lon="6.04119">
        <ele>739.3911133</ele>
        <time>2012-03-04T13:33:46Z</time>
      </trkpt>
      <trkpt lat="44.52832" lon="6.04147">
        <ele>742.7558594</ele>
        <time>2012-03-04T13:34:07Z</time>
      </trkpt>
      <trkpt lat="44.52893" lon="6.04182">
        <ele>746.1203613</ele>
        <time>2012-03-04T13:34:28Z</time>
      </trkpt>
      <trkpt lat="44.5294" lon="6.04211">
        <ele>749.0043945</ele>
        <time>2012-03-04T13:34:45Z</time>
      </trkpt>
      <trkpt lat="44.52978" lon="6.04235">
        <ele>750.927002</ele>
        <time>2012-03-04T13:35:00Z</time>
      </trkpt>
      <trkpt lat="44.53032" lon="6.0427">
        <ele>753.3303223</ele>
        <time>2012-03-04T13:35:21Z</time>
      </trkpt>
      <trkpt lat="44.53105" lon="6.04309">
        <ele>754.7722168</ele>
        <time>2012-03-04T13:35:44Z</time>
      </trkpt>
      <trkpt lat="44.53174" lon="6.04334">
        <ele>756.6948242</ele>
        <time>2012-03-04T13:36:03Z</time>
      </trkpt>
      <trkpt lat="44.53222" lon="6.04352">
        <ele>760.0593262</ele>
        <time>2012-03-04T13:36:19Z</time>
      </trkpt>
      <trkpt lat="44.53284" lon="6.04364">
        <ele>762.9433594</ele>
        <time>2012-03-04T13:36:42Z</time>
      </trkpt>
      <trkpt lat="44.53344" lon="6.04401">
        <ele>764.385498</ele>
        <time>2012-03-04T13:37:01Z</time>
      </trkpt>
      <trkpt lat="44.53361" lon="6.04417">
        <ele>763.904541</ele>
        <time>2012-03-04T13:37:06Z</time>
      </trkpt>
      <trkpt lat="44.53383" lon="6.04438">
        <ele>763.904541</ele>
        <time>2012-03-04T13:37:12Z</time>
      </trkpt>
      <trkpt lat="44.53389" lon="6.04445">
        <ele>763.4240723</ele>
        <time>2012-03-04T13:37:14Z</time>
      </trkpt>
      <trkpt lat="44.53461" lon="6.04531">
        <ele>763.904541</ele>
        <time>2012-03-04T13:37:36Z</time>
      </trkpt>
      <trkpt lat="44.5348" lon="6.04561">
        <ele>764.385498</ele>
        <time>2012-03-04T13:37:42Z</time>
      </trkpt>
      <trkpt lat="44.53556" lon="6.04684">
        <ele>764.385498</ele>
        <time>2012-03-04T13:38:07Z</time>
      </trkpt>
      <trkpt lat="44.53559" lon="6.04688">
        <ele>764.385498</ele>
        <time>2012-03-04T13:38:08Z</time>
      </trkpt>
      <trkpt lat="44.5361" lon="6.04784">
        <ele>765.3469238</ele>
        <time>2012-03-04T13:38:28Z</time>
      </trkpt>
      <trkpt lat="44.53629" lon="6.0482">
        <ele>765.8276367</ele>
        <time>2012-03-04T13:38:36Z</time>
      </trkpt>
      <trkpt lat="44.53674" lon="6.04892">
        <ele>767.75</ele>
        <time>2012-03-04T13:38:54Z</time>
      </trkpt>
      <trkpt lat="44.53714" lon="6.0494">
        <ele>769.6728516</ele>
        <time>2012-03-04T13:39:09Z</time>
      </trkpt>
      <trkpt lat="44.53753" lon="6.04999">
        <ele>772.0759277</ele>
        <time>2012-03-04T13:39:27Z</time>
      </trkpt>
      <trkpt lat="44.53763" lon="6.05075">
        <ele>773.0373535</ele>
        <time>2012-03-04T13:39:45Z</time>
      </trkpt>
      <trkpt lat="44.53759" lon="6.05151">
        <ele>771.5952148</ele>
        <time>2012-03-04T13:40:00Z</time>
      </trkpt>
      <trkpt lat="44.53759" lon="6.05158">
        <ele>771.5952148</ele>
        <time>2012-03-04T13:40:05Z</time>
      </trkpt>
      <trkpt lat="44.53757" lon="6.05181">
        <ele>771.5952148</ele>
        <time>2012-03-04T13:40:10Z</time>
      </trkpt>
      <trkpt lat="44.5377" lon="6.05268">
        <ele>769.6728516</ele>
        <time>2012-03-04T13:40:19Z</time>
      </trkpt>
      <trkpt lat="44.53751" lon="6.05297">
        <ele>768.2307129</ele>
        <time>2012-03-04T13:40:25Z</time>
      </trkpt>
      <trkpt lat="44.53749" lon="6.05321">
        <ele>767.2695313</ele>
        <time>2012-03-04T13:40:31Z</time>
      </trkpt>
      <trkpt lat="44.53782" lon="6.05375">
        <ele>765.8276367</ele>
        <time>2012-03-04T13:40:46Z</time>
      </trkpt>
      <trkpt lat="44.53846" lon="6.05456">
        <ele>762.9433594</ele>
        <time>2012-03-04T13:40:59Z</time>
      </trkpt>
      <trkpt lat="44.53905" lon="6.05529">
        <ele>759.5788574</ele>
        <time>2012-03-04T13:41:13Z</time>
      </trkpt>
      <trkpt lat="44.53964" lon="6.05601">
        <ele>756.2141113</ele>
        <time>2012-03-04T13:41:27Z</time>
      </trkpt>
      <trkpt lat="44.53975" lon="6.05614">
        <ele>755.7336426</ele>
        <time>2012-03-04T13:41:30Z</time>
      </trkpt>
      <trkpt lat="44.54041" lon="6.05694">
        <ele>752.3688965</ele>
        <time>2012-03-04T13:41:48Z</time>
      </trkpt>
      <trkpt lat="44.54075" lon="6.05733">
        <ele>750.4465332</ele>
        <time>2012-03-04T13:41:59Z</time>
      </trkpt>
      <trkpt lat="44.54095" lon="6.05757">
        <ele>749.9658203</ele>
        <time>2012-03-04T13:42:04Z</time>
      </trkpt>
      <trkpt lat="44.54107" lon="6.05772">
        <ele>749.0043945</ele>
        <time>2012-03-04T13:42:07Z</time>
      </trkpt>
      <trkpt lat="44.5414" lon="6.05812">
        <ele>747.5622559</ele>
        <time>2012-03-04T13:42:18Z</time>
      </trkpt>
      <trkpt lat="44.54205" lon="6.05894">
        <ele>744.1977539</ele>
        <time>2012-03-04T13:42:34Z</time>
      </trkpt>
      <trkpt lat="44.54264" lon="6.05967">
        <ele>740.8330078</ele>
        <time>2012-03-04T13:42:48Z</time>
      </trkpt>
      <trkpt lat="44.54302" lon="6.06016">
        <ele>741.3137207</ele>
        <time>2012-03-04T13:42:58Z</time>
      </trkpt>
      <trkpt lat="44.54313" lon="6.0603">
        <ele>741.3137207</ele>
        <time>2012-03-04T13:43:01Z</time>
      </trkpt>
      <trkpt lat="44.54363" lon="6.0609">
        <ele>742.7558594</ele>
        <time>2012-03-04T13:43:15Z</time>
      </trkpt>
      <trkpt lat="44.54377" lon="6.06106">
        <ele>744.6782227</ele>
        <time>2012-03-04T13:43:20Z</time>
      </trkpt>
      <trkpt lat="44.54416" lon="6.06151">
        <ele>746.6010742</ele>
        <time>2012-03-04T13:43:36Z</time>
      </trkpt>
      <trkpt lat="44.54448" lon="6.0619">
        <ele>746.1203613</ele>
        <time>2012-03-04T13:43:47Z</time>
      </trkpt>
      <trkpt lat="44.54519" lon="6.06279">
        <ele>745.6396484</ele>
        <time>2012-03-04T13:44:10Z</time>
      </trkpt>
      <trkpt lat="44.54528" lon="6.06291">
        <ele>745.6396484</ele>
        <time>2012-03-04T13:44:13Z</time>
      </trkpt>
      <trkpt lat="44.54563" lon="6.06302">
        <ele>744.1977539</ele>
        <time>2012-03-04T13:44:24Z</time>
      </trkpt>
      <trkpt lat="44.54576" lon="6.06322">
        <ele>745.1589355</ele>
        <time>2012-03-04T13:44:29Z</time>
      </trkpt>
      <trkpt lat="44.54595" lon="6.06348">
        <ele>743.717041</ele>
        <time>2012-03-04T13:44:34Z</time>
      </trkpt>
      <trkpt lat="44.54652" lon="6.06434">
        <ele>743.2363281</ele>
        <time>2012-03-04T13:44:51Z</time>
      </trkpt>
      <trkpt lat="44.54748" lon="6.06552">
        <ele>742.2751465</ele>
        <time>2012-03-04T13:45:15Z</time>
      </trkpt>
      <trkpt lat="44.54757" lon="6.06562">
        <ele>743.2363281</ele>
        <time>2012-03-04T13:45:18Z</time>
      </trkpt>
      <trkpt lat="44.54786" lon="6.06596">
        <ele>743.2363281</ele>
        <time>2012-03-04T13:45:27Z</time>
      </trkpt>
      <trkpt lat="44.54832" lon="6.0665">
        <ele>743.2363281</ele>
        <time>2012-03-04T13:45:39Z</time>
      </trkpt>
      <trkpt lat="44.54898" lon="6.06735">
        <ele>742.7558594</ele>
        <time>2012-03-04T13:45:58Z</time>
      </trkpt>
      <trkpt lat="44.54983" lon="6.0684">
        <ele>742.7558594</ele>
        <time>2012-03-04T13:46:22Z</time>
      </trkpt>
      <trkpt lat="44.55023" lon="6.06889">
        <ele>743.2363281</ele>
        <time>2012-03-04T13:46:35Z</time>
      </trkpt>
      <trkpt lat="44.55079" lon="6.06959">
        <ele>743.2363281</ele>
        <time>2012-03-04T13:46:52Z</time>
      </trkpt>
      <trkpt lat="44.55159" lon="6.07055">
        <ele>741.3137207</ele>
        <time>2012-03-04T13:47:12Z</time>
      </trkpt>
      <trkpt lat="44.55202" lon="6.07113">
        <ele>740.8330078</ele>
        <time>2012-03-04T13:47:26Z</time>
      </trkpt>
      <trkpt lat="44.55263" lon="6.07193">
        <ele>738.9106445</ele>
        <time>2012-03-04T13:47:42Z</time>
      </trkpt>
      <trkpt lat="44.55351" lon="6.07299">
        <ele>738.4299316</ele>
        <time>2012-03-04T13:48:04Z</time>
      </trkpt>
      <trkpt lat="44.55413" lon="6.07374">
        <ele>737.4685059</ele>
        <time>2012-03-04T13:48:21Z</time>
      </trkpt>
      <trkpt lat="44.55495" lon="6.07467">
        <ele>736.5073242</ele>
        <time>2012-03-04T13:48:42Z</time>
      </trkpt>
      <trkpt lat="44.55541" lon="6.07511">
        <ele>735.5458984</ele>
        <time>2012-03-04T13:48:54Z</time>
      </trkpt>
      <trkpt lat="44.55593" lon="6.07571">
        <ele>735.5458984</ele>
        <time>2012-03-04T13:49:10Z</time>
      </trkpt>
      <trkpt lat="44.55603" lon="6.0756">
        <ele>735.5458984</ele>
        <time>2012-03-04T13:49:17Z</time>
      </trkpt>
      <trkpt lat="44.55621" lon="6.07527">
        <ele>736.0266113</ele>
        <time>2012-03-04T13:49:26Z</time>
      </trkpt>
      <trkpt lat="44.55635" lon="6.07533">
        <ele>736.5073242</ele>
        <time>2012-03-04T13:49:31Z</time>
      </trkpt>
      <trkpt lat="44.55681" lon="6.07577">
        <ele>738.4299316</ele>
        <time>2012-03-04T13:49:48Z</time>
      </trkpt>
      <trkpt lat="44.55718" lon="6.07534">
        <ele>739.3911133</ele>
        <time>2012-03-04T13:50:02Z</time>
      </trkpt>
      <trkpt lat="44.5575" lon="6.07476">
        <ele>742.2751465</ele>
        <time>2012-03-04T13:50:21Z</time>
      </trkpt>
      <trkpt lat="44.55756" lon="6.07467">
        <ele>742.7558594</ele>
        <time>2012-03-04T13:50:28Z</time>
      </trkpt>
      <trkpt lat="44.55776" lon="6.07456">
        <ele>743.2363281</ele>
        <time>2012-03-04T13:50:41Z</time>
      </trkpt>
      <trkpt lat="44.55806" lon="6.07443">
        <ele>745.6396484</ele>
        <time>2012-03-04T13:50:56Z</time>
      </trkpt>
      <trkpt lat="44.55806" lon="6.07443">
        <ele>745.6396484</ele>
        <time>2012-03-04T13:50:57Z</time>
      </trkpt>
      <trkpt lat="44.55831" lon="6.07449">
        <ele>746.1203613</ele>
        <time>2012-03-04T13:51:08Z</time>
      </trkpt>
      <trkpt lat="44.55867" lon="6.07483">
        <ele>746.6010742</ele>
        <time>2012-03-04T13:51:24Z</time>
      </trkpt>
      <trkpt lat="44.55873" lon="6.0749">
        <ele>747.081543</ele>
        <time>2012-03-04T13:51:27Z</time>
      </trkpt>
      <trkpt lat="44.55875" lon="6.07491">
        <ele>747.081543</ele>
        <time>2012-03-04T13:51:41Z</time>
      </trkpt>
      <trkpt lat="44.55875" lon="6.07491">
        <ele>745.6396484</ele>
        <time>2012-03-04T13:52:38Z</time>
      </trkpt>
      <trkpt lat="44.55875" lon="6.07491">
        <ele>745.6396484</ele>
        <time>2012-03-04T13:52:41Z</time>
      </trkpt>
    </trkseg>
  </trk>
</gpx>